<?xml version="1.0" encoding="UTF-8" standalone="no" ?>
<gpx xmlns="http://www.topografix.com/GPX/1/1" xmlns:xsi="http://www.w3.org/2001/XMLSchema-instance" xsi:schemaLocation="http://www.topografix.com/GPX/1/1 http://www.topografix.com/GPX/1/1/gpx.xsd" version="1.1" creator="VisuGPX - https://www.visugpx.com">
  <metadata>
    <name>La foret des Quatre Piliers</name>
    <desc><![CDATA[Randonnée en boucle de 20 km à partir de la gare de Garancières-la-Queue]]></desc>
  </metadata>
  <trk>
    <name><![CDATA[La foret des Quatre Piliers_R]]></name>
    <trkseg>
      <trkpt lat="48.81093" lon="1.76452">
        <ele>122.34</ele>
        <time>2019-08-18T07:38:16Z</time>
      </trkpt>
      <trkpt lat="48.81085" lon="1.76474">
        <ele>120</ele>
        <time>2019-08-18T07:51:22Z</time>
      </trkpt>
      <trkpt lat="48.81083" lon="1.76483">
        <ele>120.63</ele>
        <time>2019-08-18T07:51:39Z</time>
      </trkpt>
      <trkpt lat="48.81089" lon="1.76494">
        <ele>120.2</ele>
        <time>2019-08-18T07:51:58Z</time>
      </trkpt>
      <trkpt lat="48.81092" lon="1.7649">
        <ele>120.14</ele>
        <time>2019-08-18T07:52:21Z</time>
      </trkpt>
      <trkpt lat="48.81094" lon="1.76507">
        <ele>120.55</ele>
        <time>2019-08-18T07:52:42Z</time>
      </trkpt>
      <trkpt lat="48.81093" lon="1.76521">
        <ele>119.88</ele>
        <time>2019-08-18T07:52:57Z</time>
      </trkpt>
      <trkpt lat="48.81093" lon="1.76515">
        <ele>120.21</ele>
        <time>2019-08-18T07:53:18Z</time>
      </trkpt>
      <trkpt lat="48.81097" lon="1.76497">
        <ele>119.59</ele>
        <time>2019-08-18T07:53:36Z</time>
      </trkpt>
      <trkpt lat="48.81101" lon="1.76478">
        <ele>119.95</ele>
        <time>2019-08-18T07:53:51Z</time>
      </trkpt>
      <trkpt lat="48.81105" lon="1.7645">
        <ele>118.98</ele>
        <time>2019-08-18T07:54:07Z</time>
      </trkpt>
      <trkpt lat="48.81107" lon="1.7644">
        <ele>117.96</ele>
        <time>2019-08-18T07:54:14Z</time>
      </trkpt>
      <trkpt lat="48.81108" lon="1.76425">
        <ele>118.01</ele>
        <time>2019-08-18T07:54:24Z</time>
      </trkpt>
      <trkpt lat="48.8111" lon="1.76417">
        <ele>117.57</ele>
        <time>2019-08-18T07:54:29Z</time>
      </trkpt>
      <trkpt lat="48.81113" lon="1.76404">
        <ele>117.15</ele>
        <time>2019-08-18T07:54:38Z</time>
      </trkpt>
      <trkpt lat="48.81119" lon="1.76381">
        <ele>116.72</ele>
        <time>2019-08-18T07:54:54Z</time>
      </trkpt>
      <trkpt lat="48.81126" lon="1.76363">
        <ele>116.46</ele>
        <time>2019-08-18T07:55:09Z</time>
      </trkpt>
      <trkpt lat="48.81129" lon="1.76354">
        <ele>116.58</ele>
        <time>2019-08-18T07:55:21Z</time>
      </trkpt>
      <trkpt lat="48.81127" lon="1.7633">
        <ele>117.09</ele>
        <time>2019-08-18T07:55:39Z</time>
      </trkpt>
      <trkpt lat="48.81127" lon="1.76329">
        <ele>117.08</ele>
        <time>2019-08-18T07:55:40Z</time>
      </trkpt>
      <trkpt lat="48.81126" lon="1.76305">
        <ele>117.56</ele>
        <time>2019-08-18T07:55:54Z</time>
      </trkpt>
      <trkpt lat="48.81124" lon="1.76289">
        <ele>116.89</ele>
        <time>2019-08-18T07:56:06Z</time>
      </trkpt>
      <trkpt lat="48.81123" lon="1.76277">
        <ele>116.98</ele>
        <time>2019-08-18T07:56:24Z</time>
      </trkpt>
      <trkpt lat="48.8113" lon="1.76249">
        <ele>117.12</ele>
        <time>2019-08-18T07:56:37Z</time>
      </trkpt>
      <trkpt lat="48.81131" lon="1.7623">
        <ele>117.07</ele>
        <time>2019-08-18T07:56:51Z</time>
      </trkpt>
      <trkpt lat="48.81137" lon="1.76207">
        <ele>116.73</ele>
        <time>2019-08-18T07:57:08Z</time>
      </trkpt>
      <trkpt lat="48.81143" lon="1.7618">
        <ele>115.97</ele>
        <time>2019-08-18T07:57:22Z</time>
      </trkpt>
      <trkpt lat="48.81147" lon="1.7614">
        <ele>115.07</ele>
        <time>2019-08-18T07:57:45Z</time>
      </trkpt>
      <trkpt lat="48.81153" lon="1.76103">
        <ele>114.74</ele>
        <time>2019-08-18T07:58:06Z</time>
      </trkpt>
      <trkpt lat="48.81153" lon="1.7609">
        <ele>115.04</ele>
        <time>2019-08-18T07:58:14Z</time>
      </trkpt>
      <trkpt lat="48.81152" lon="1.76063">
        <ele>114.54</ele>
        <time>2019-08-18T07:58:30Z</time>
      </trkpt>
      <trkpt lat="48.81147" lon="1.76027">
        <ele>114.98</ele>
        <time>2019-08-18T07:58:53Z</time>
      </trkpt>
      <trkpt lat="48.81141" lon="1.75995">
        <ele>115.57</ele>
        <time>2019-08-18T07:59:15Z</time>
      </trkpt>
      <trkpt lat="48.81141" lon="1.75992">
        <ele>115.45</ele>
        <time>2019-08-18T07:59:18Z</time>
      </trkpt>
      <trkpt lat="48.81141" lon="1.75991">
        <ele>115.91</ele>
        <time>2019-08-18T07:59:36Z</time>
      </trkpt>
      <trkpt lat="48.81143" lon="1.75984">
        <ele>116.43</ele>
        <time>2019-08-18T07:59:58Z</time>
      </trkpt>
      <trkpt lat="48.81145" lon="1.75982">
        <ele>116.29</ele>
        <time>2019-08-18T08:00:17Z</time>
      </trkpt>
      <trkpt lat="48.81142" lon="1.75985">
        <ele>115.66</ele>
        <time>2019-08-18T08:00:36Z</time>
      </trkpt>
      <trkpt lat="48.81141" lon="1.75986">
        <ele>114.94</ele>
        <time>2019-08-18T08:01:07Z</time>
      </trkpt>
      <trkpt lat="48.81141" lon="1.75986">
        <ele>114.25</ele>
        <time>2019-08-18T08:01:31Z</time>
      </trkpt>
      <trkpt lat="48.81144" lon="1.75983">
        <ele>114.27</ele>
        <time>2019-08-18T08:01:53Z</time>
      </trkpt>
      <trkpt lat="48.81144" lon="1.75977">
        <ele>113.84</ele>
        <time>2019-08-18T08:02:11Z</time>
      </trkpt>
      <trkpt lat="48.81142" lon="1.75976">
        <ele>114.77</ele>
        <time>2019-08-18T08:02:34Z</time>
      </trkpt>
      <trkpt lat="48.81147" lon="1.7596">
        <ele>114.32</ele>
        <time>2019-08-18T08:02:55Z</time>
      </trkpt>
      <trkpt lat="48.81148" lon="1.75935">
        <ele>115.02</ele>
        <time>2019-08-18T08:03:16Z</time>
      </trkpt>
      <trkpt lat="48.81147" lon="1.75929">
        <ele>114.89</ele>
        <time>2019-08-18T08:03:27Z</time>
      </trkpt>
      <trkpt lat="48.81147" lon="1.7591">
        <ele>114.99</ele>
        <time>2019-08-18T08:03:37Z</time>
      </trkpt>
      <trkpt lat="48.81148" lon="1.75904">
        <ele>115.32</ele>
        <time>2019-08-18T08:03:42Z</time>
      </trkpt>
      <trkpt lat="48.81148" lon="1.75891">
        <ele>115.32</ele>
        <time>2019-08-18T08:03:50Z</time>
      </trkpt>
      <trkpt lat="48.8115" lon="1.75887">
        <ele>115.49</ele>
        <time>2019-08-18T08:03:53Z</time>
      </trkpt>
      <trkpt lat="48.81153" lon="1.75864">
        <ele>115.4</ele>
        <time>2019-08-18T08:04:09Z</time>
      </trkpt>
      <trkpt lat="48.81154" lon="1.75845">
        <ele>114.97</ele>
        <time>2019-08-18T08:04:21Z</time>
      </trkpt>
      <trkpt lat="48.81157" lon="1.7582">
        <ele>115.4</ele>
        <time>2019-08-18T08:04:35Z</time>
      </trkpt>
      <trkpt lat="48.81159" lon="1.75798">
        <ele>115.58</ele>
        <time>2019-08-18T08:04:47Z</time>
      </trkpt>
      <trkpt lat="48.81161" lon="1.75788">
        <ele>115.49</ele>
        <time>2019-08-18T08:04:52Z</time>
      </trkpt>
      <trkpt lat="48.81163" lon="1.7578">
        <ele>115.51</ele>
        <time>2019-08-18T08:04:56Z</time>
      </trkpt>
      <trkpt lat="48.81169" lon="1.75756">
        <ele>115</ele>
        <time>2019-08-18T08:05:11Z</time>
      </trkpt>
      <trkpt lat="48.81177" lon="1.75721">
        <ele>114.36</ele>
        <time>2019-08-18T08:05:30Z</time>
      </trkpt>
      <trkpt lat="48.81184" lon="1.75697">
        <ele>113.66</ele>
        <time>2019-08-18T08:05:41Z</time>
      </trkpt>
      <trkpt lat="48.81188" lon="1.75677">
        <ele>114.22</ele>
        <time>2019-08-18T08:05:52Z</time>
      </trkpt>
      <trkpt lat="48.81195" lon="1.75651">
        <ele>114.08</ele>
        <time>2019-08-18T08:06:05Z</time>
      </trkpt>
      <trkpt lat="48.81198" lon="1.75643">
        <ele>114.36</ele>
        <time>2019-08-18T08:06:10Z</time>
      </trkpt>
      <trkpt lat="48.81208" lon="1.7562">
        <ele>114.42</ele>
        <time>2019-08-18T08:06:24Z</time>
      </trkpt>
      <trkpt lat="48.81218" lon="1.75594">
        <ele>113.14</ele>
        <time>2019-08-18T08:06:41Z</time>
      </trkpt>
      <trkpt lat="48.81232" lon="1.756">
        <ele>112.47</ele>
        <time>2019-08-18T08:06:54Z</time>
      </trkpt>
      <trkpt lat="48.81237" lon="1.75604">
        <ele>111.74</ele>
        <time>2019-08-18T08:06:58Z</time>
      </trkpt>
      <trkpt lat="48.81247" lon="1.75615">
        <ele>110.29</ele>
        <time>2019-08-18T08:07:11Z</time>
      </trkpt>
      <trkpt lat="48.81258" lon="1.75631">
        <ele>109.28</ele>
        <time>2019-08-18T08:07:31Z</time>
      </trkpt>
      <trkpt lat="48.81276" lon="1.75626">
        <ele>108.64</ele>
        <time>2019-08-18T08:07:51Z</time>
      </trkpt>
      <trkpt lat="48.81295" lon="1.75615">
        <ele>108.65</ele>
        <time>2019-08-18T08:08:11Z</time>
      </trkpt>
      <trkpt lat="48.81314" lon="1.75599">
        <ele>108.01</ele>
        <time>2019-08-18T08:08:32Z</time>
      </trkpt>
      <trkpt lat="48.81333" lon="1.7559">
        <ele>107.78</ele>
        <time>2019-08-18T08:08:53Z</time>
      </trkpt>
      <trkpt lat="48.81346" lon="1.75577">
        <ele>107.68</ele>
        <time>2019-08-18T08:09:10Z</time>
      </trkpt>
      <trkpt lat="48.81358" lon="1.75565">
        <ele>106.97</ele>
        <time>2019-08-18T08:09:29Z</time>
      </trkpt>
      <trkpt lat="48.81368" lon="1.75553">
        <ele>107.26</ele>
        <time>2019-08-18T08:09:47Z</time>
      </trkpt>
      <trkpt lat="48.81379" lon="1.75537">
        <ele>106.29</ele>
        <time>2019-08-18T08:10:04Z</time>
      </trkpt>
      <trkpt lat="48.81394" lon="1.75516">
        <ele>106.52</ele>
        <time>2019-08-18T08:10:25Z</time>
      </trkpt>
      <trkpt lat="48.81406" lon="1.75502">
        <ele>106.04</ele>
        <time>2019-08-18T08:10:37Z</time>
      </trkpt>
      <trkpt lat="48.81421" lon="1.75474">
        <ele>105.79</ele>
        <time>2019-08-18T08:10:59Z</time>
      </trkpt>
      <trkpt lat="48.81433" lon="1.75458">
        <ele>105.6</ele>
        <time>2019-08-18T08:11:15Z</time>
      </trkpt>
      <trkpt lat="48.81448" lon="1.7544">
        <ele>105.23</ele>
        <time>2019-08-18T08:11:35Z</time>
      </trkpt>
      <trkpt lat="48.81465" lon="1.75418">
        <ele>105.04</ele>
        <time>2019-08-18T08:11:55Z</time>
      </trkpt>
      <trkpt lat="48.81473" lon="1.75406">
        <ele>104.88</ele>
        <time>2019-08-18T08:12:16Z</time>
      </trkpt>
      <trkpt lat="48.81473" lon="1.75401">
        <ele>105.2</ele>
        <time>2019-08-18T08:12:47Z</time>
      </trkpt>
      <trkpt lat="48.81475" lon="1.75401">
        <ele>104.61</ele>
        <time>2019-08-18T08:13:16Z</time>
      </trkpt>
      <trkpt lat="48.81483" lon="1.75407">
        <ele>105.34</ele>
        <time>2019-08-18T08:13:44Z</time>
      </trkpt>
      <trkpt lat="48.81486" lon="1.75401">
        <ele>104.89</ele>
        <time>2019-08-18T08:13:52Z</time>
      </trkpt>
      <trkpt lat="48.81489" lon="1.75393">
        <ele>104.55</ele>
        <time>2019-08-18T08:13:59Z</time>
      </trkpt>
      <trkpt lat="48.81498" lon="1.75363">
        <ele>105.3</ele>
        <time>2019-08-18T08:14:19Z</time>
      </trkpt>
      <trkpt lat="48.81509" lon="1.75332">
        <ele>105.47</ele>
        <time>2019-08-18T08:14:38Z</time>
      </trkpt>
      <trkpt lat="48.8151" lon="1.75327">
        <ele>105.65</ele>
        <time>2019-08-18T08:14:41Z</time>
      </trkpt>
      <trkpt lat="48.81517" lon="1.75305">
        <ele>105.64</ele>
        <time>2019-08-18T08:14:53Z</time>
      </trkpt>
      <trkpt lat="48.81523" lon="1.75288">
        <ele>105.69</ele>
        <time>2019-08-18T08:15:07Z</time>
      </trkpt>
      <trkpt lat="48.81522" lon="1.75278">
        <ele>105.18</ele>
        <time>2019-08-18T08:15:27Z</time>
      </trkpt>
      <trkpt lat="48.81523" lon="1.75271">
        <ele>104.74</ele>
        <time>2019-08-18T08:15:45Z</time>
      </trkpt>
      <trkpt lat="48.81528" lon="1.75259">
        <ele>105.19</ele>
        <time>2019-08-18T08:16:03Z</time>
      </trkpt>
      <trkpt lat="48.81536" lon="1.75238">
        <ele>104.54</ele>
        <time>2019-08-18T08:16:19Z</time>
      </trkpt>
      <trkpt lat="48.81539" lon="1.7523">
        <ele>104.01</ele>
        <time>2019-08-18T08:16:26Z</time>
      </trkpt>
      <trkpt lat="48.8154" lon="1.75226">
        <ele>104.76</ele>
        <time>2019-08-18T08:16:29Z</time>
      </trkpt>
      <trkpt lat="48.81544" lon="1.75219">
        <ele>104.13</ele>
        <time>2019-08-18T08:16:35Z</time>
      </trkpt>
      <trkpt lat="48.81545" lon="1.75216">
        <ele>104.44</ele>
        <time>2019-08-18T08:16:37Z</time>
      </trkpt>
      <trkpt lat="48.81558" lon="1.7519">
        <ele>104.6</ele>
        <time>2019-08-18T08:16:56Z</time>
      </trkpt>
      <trkpt lat="48.81567" lon="1.75166">
        <ele>103.85</ele>
        <time>2019-08-18T08:17:12Z</time>
      </trkpt>
      <trkpt lat="48.81573" lon="1.75152">
        <ele>104.27</ele>
        <time>2019-08-18T08:17:24Z</time>
      </trkpt>
      <trkpt lat="48.8158" lon="1.75132">
        <ele>103.47</ele>
        <time>2019-08-18T08:17:38Z</time>
      </trkpt>
      <trkpt lat="48.81585" lon="1.75116">
        <ele>103.72</ele>
        <time>2019-08-18T08:17:49Z</time>
      </trkpt>
      <trkpt lat="48.81593" lon="1.75101">
        <ele>104.08</ele>
        <time>2019-08-18T08:18:01Z</time>
      </trkpt>
      <trkpt lat="48.81597" lon="1.75093">
        <ele>103.81</ele>
        <time>2019-08-18T08:18:07Z</time>
      </trkpt>
      <trkpt lat="48.81606" lon="1.75079">
        <ele>103.38</ele>
        <time>2019-08-18T08:18:20Z</time>
      </trkpt>
      <trkpt lat="48.81616" lon="1.75053">
        <ele>102.79</ele>
        <time>2019-08-18T08:18:41Z</time>
      </trkpt>
      <trkpt lat="48.81614" lon="1.75039">
        <ele>102.61</ele>
        <time>2019-08-18T08:19:02Z</time>
      </trkpt>
      <trkpt lat="48.81603" lon="1.7503">
        <ele>103.62</ele>
        <time>2019-08-18T08:19:20Z</time>
      </trkpt>
      <trkpt lat="48.81593" lon="1.75021">
        <ele>103.54</ele>
        <time>2019-08-18T08:19:30Z</time>
      </trkpt>
      <trkpt lat="48.81585" lon="1.75015">
        <ele>103.21</ele>
        <time>2019-08-18T08:19:38Z</time>
      </trkpt>
      <trkpt lat="48.81569" lon="1.75002">
        <ele>103.23</ele>
        <time>2019-08-18T08:19:55Z</time>
      </trkpt>
      <trkpt lat="48.81552" lon="1.74984">
        <ele>103.19</ele>
        <time>2019-08-18T08:20:11Z</time>
      </trkpt>
      <trkpt lat="48.81535" lon="1.74967">
        <ele>104.16</ele>
        <time>2019-08-18T08:20:27Z</time>
      </trkpt>
      <trkpt lat="48.81522" lon="1.74955">
        <ele>103.52</ele>
        <time>2019-08-18T08:20:41Z</time>
      </trkpt>
      <trkpt lat="48.81512" lon="1.74944">
        <ele>104.42</ele>
        <time>2019-08-18T08:20:57Z</time>
      </trkpt>
      <trkpt lat="48.81507" lon="1.74937">
        <ele>104.15</ele>
        <time>2019-08-18T08:21:02Z</time>
      </trkpt>
      <trkpt lat="48.81505" lon="1.74933">
        <ele>104.63</ele>
        <time>2019-08-18T08:21:05Z</time>
      </trkpt>
      <trkpt lat="48.81492" lon="1.74925">
        <ele>104.47</ele>
        <time>2019-08-18T08:21:19Z</time>
      </trkpt>
      <trkpt lat="48.81489" lon="1.74922">
        <ele>104.21</ele>
        <time>2019-08-18T08:21:22Z</time>
      </trkpt>
      <trkpt lat="48.81484" lon="1.74916">
        <ele>104.52</ele>
        <time>2019-08-18T08:21:27Z</time>
      </trkpt>
      <trkpt lat="48.81476" lon="1.749">
        <ele>104.2</ele>
        <time>2019-08-18T08:21:42Z</time>
      </trkpt>
      <trkpt lat="48.8146" lon="1.7488">
        <ele>105.16</ele>
        <time>2019-08-18T08:22:01Z</time>
      </trkpt>
      <trkpt lat="48.81453" lon="1.74862">
        <ele>105.28</ele>
        <time>2019-08-18T08:22:13Z</time>
      </trkpt>
      <trkpt lat="48.81448" lon="1.74841">
        <ele>105.55</ele>
        <time>2019-08-18T08:22:29Z</time>
      </trkpt>
      <trkpt lat="48.81442" lon="1.74815">
        <ele>106.35</ele>
        <time>2019-08-18T08:22:48Z</time>
      </trkpt>
      <trkpt lat="48.8144" lon="1.74797">
        <ele>106.7</ele>
        <time>2019-08-18T08:23:08Z</time>
      </trkpt>
      <trkpt lat="48.81423" lon="1.74757">
        <ele>106.89</ele>
        <time>2019-08-18T08:23:29Z</time>
      </trkpt>
      <trkpt lat="48.81411" lon="1.74744">
        <ele>107.44</ele>
        <time>2019-08-18T08:23:42Z</time>
      </trkpt>
      <trkpt lat="48.8139" lon="1.74735">
        <ele>108.15</ele>
        <time>2019-08-18T08:23:59Z</time>
      </trkpt>
      <trkpt lat="48.81376" lon="1.74726">
        <ele>109.22</ele>
        <time>2019-08-18T08:24:12Z</time>
      </trkpt>
      <trkpt lat="48.81372" lon="1.74725">
        <ele>109.68</ele>
        <time>2019-08-18T08:24:15Z</time>
      </trkpt>
      <trkpt lat="48.81354" lon="1.74715">
        <ele>110.42</ele>
        <time>2019-08-18T08:24:32Z</time>
      </trkpt>
      <trkpt lat="48.81338" lon="1.74704">
        <ele>111.16</ele>
        <time>2019-08-18T08:24:48Z</time>
      </trkpt>
      <trkpt lat="48.81321" lon="1.74692">
        <ele>111.25</ele>
        <time>2019-08-18T08:25:05Z</time>
      </trkpt>
      <trkpt lat="48.81318" lon="1.74685">
        <ele>110.95</ele>
        <time>2019-08-18T08:25:11Z</time>
      </trkpt>
      <trkpt lat="48.81316" lon="1.74676">
        <ele>111.58</ele>
        <time>2019-08-18T08:25:15Z</time>
      </trkpt>
      <trkpt lat="48.81317" lon="1.74649">
        <ele>111.11</ele>
        <time>2019-08-18T08:25:29Z</time>
      </trkpt>
      <trkpt lat="48.81317" lon="1.74645">
        <ele>111.04</ele>
        <time>2019-08-18T08:25:31Z</time>
      </trkpt>
      <trkpt lat="48.81318" lon="1.74641">
        <ele>110.9</ele>
        <time>2019-08-18T08:25:33Z</time>
      </trkpt>
      <trkpt lat="48.81318" lon="1.74638">
        <ele>110.91</ele>
        <time>2019-08-18T08:25:35Z</time>
      </trkpt>
      <trkpt lat="48.8132" lon="1.74634">
        <ele>110.89</ele>
        <time>2019-08-18T08:25:38Z</time>
      </trkpt>
      <trkpt lat="48.81332" lon="1.74604">
        <ele>110.68</ele>
        <time>2019-08-18T08:25:59Z</time>
      </trkpt>
      <trkpt lat="48.81338" lon="1.74575">
        <ele>110.28</ele>
        <time>2019-08-18T08:26:17Z</time>
      </trkpt>
      <trkpt lat="48.81343" lon="1.7455">
        <ele>109.79</ele>
        <time>2019-08-18T08:26:30Z</time>
      </trkpt>
      <trkpt lat="48.81343" lon="1.74546">
        <ele>109.78</ele>
        <time>2019-08-18T08:26:33Z</time>
      </trkpt>
      <trkpt lat="48.81337" lon="1.74521">
        <ele>109.77</ele>
        <time>2019-08-18T08:26:49Z</time>
      </trkpt>
      <trkpt lat="48.81322" lon="1.74497">
        <ele>109.98</ele>
        <time>2019-08-18T08:27:12Z</time>
      </trkpt>
      <trkpt lat="48.8132" lon="1.74495">
        <ele>109.84</ele>
        <time>2019-08-18T08:27:14Z</time>
      </trkpt>
      <trkpt lat="48.81309" lon="1.74478">
        <ele>110.02</ele>
        <time>2019-08-18T08:27:30Z</time>
      </trkpt>
      <trkpt lat="48.81307" lon="1.74475">
        <ele>110.53</ele>
        <time>2019-08-18T08:27:33Z</time>
      </trkpt>
      <trkpt lat="48.81294" lon="1.74461">
        <ele>110.75</ele>
        <time>2019-08-18T08:27:45Z</time>
      </trkpt>
      <trkpt lat="48.81279" lon="1.74444">
        <ele>110.81</ele>
        <time>2019-08-18T08:28:02Z</time>
      </trkpt>
      <trkpt lat="48.81278" lon="1.74444">
        <ele>110.85</ele>
        <time>2019-08-18T08:28:03Z</time>
      </trkpt>
      <trkpt lat="48.81262" lon="1.7443">
        <ele>111.09</ele>
        <time>2019-08-18T08:28:21Z</time>
      </trkpt>
      <trkpt lat="48.81257" lon="1.74427">
        <ele>111.71</ele>
        <time>2019-08-18T08:28:31Z</time>
      </trkpt>
      <trkpt lat="48.81247" lon="1.74422">
        <ele>111.27</ele>
        <time>2019-08-18T08:28:41Z</time>
      </trkpt>
      <trkpt lat="48.8123" lon="1.74415">
        <ele>112.06</ele>
        <time>2019-08-18T08:28:57Z</time>
      </trkpt>
      <trkpt lat="48.81222" lon="1.74412">
        <ele>111.64</ele>
        <time>2019-08-18T08:29:04Z</time>
      </trkpt>
      <trkpt lat="48.81206" lon="1.74403">
        <ele>111.76</ele>
        <time>2019-08-18T08:29:18Z</time>
      </trkpt>
      <trkpt lat="48.8119" lon="1.74401">
        <ele>111.81</ele>
        <time>2019-08-18T08:29:33Z</time>
      </trkpt>
      <trkpt lat="48.81173" lon="1.74394">
        <ele>112.09</ele>
        <time>2019-08-18T08:29:47Z</time>
      </trkpt>
      <trkpt lat="48.8117" lon="1.74393">
        <ele>112.12</ele>
        <time>2019-08-18T08:29:50Z</time>
      </trkpt>
      <trkpt lat="48.81153" lon="1.7439">
        <ele>112.09</ele>
        <time>2019-08-18T08:30:04Z</time>
      </trkpt>
      <trkpt lat="48.81143" lon="1.74388">
        <ele>112.32</ele>
        <time>2019-08-18T08:30:12Z</time>
      </trkpt>
      <trkpt lat="48.81141" lon="1.74388">
        <ele>112.29</ele>
        <time>2019-08-18T08:30:14Z</time>
      </trkpt>
      <trkpt lat="48.81135" lon="1.74386">
        <ele>112.05</ele>
        <time>2019-08-18T08:30:20Z</time>
      </trkpt>
      <trkpt lat="48.81121" lon="1.74381">
        <ele>111.59</ele>
        <time>2019-08-18T08:30:34Z</time>
      </trkpt>
      <trkpt lat="48.81121" lon="1.74378">
        <ele>111.84</ele>
        <time>2019-08-18T08:30:38Z</time>
      </trkpt>
      <trkpt lat="48.8112" lon="1.74368">
        <ele>111.6</ele>
        <time>2019-08-18T08:31:03Z</time>
      </trkpt>
      <trkpt lat="48.81119" lon="1.7437">
        <ele>111.35</ele>
        <time>2019-08-18T08:31:28Z</time>
      </trkpt>
      <trkpt lat="48.81118" lon="1.74371">
        <ele>111.78</ele>
        <time>2019-08-18T08:31:51Z</time>
      </trkpt>
      <trkpt lat="48.81123" lon="1.74362">
        <ele>111.46</ele>
        <time>2019-08-18T08:32:11Z</time>
      </trkpt>
      <trkpt lat="48.81135" lon="1.74343">
        <ele>109.76</ele>
        <time>2019-08-18T08:32:31Z</time>
      </trkpt>
      <trkpt lat="48.81145" lon="1.7433">
        <ele>109.74</ele>
        <time>2019-08-18T08:32:51Z</time>
      </trkpt>
      <trkpt lat="48.81153" lon="1.74323">
        <ele>109.97</ele>
        <time>2019-08-18T08:33:10Z</time>
      </trkpt>
      <trkpt lat="48.81162" lon="1.74314">
        <ele>109.41</ele>
        <time>2019-08-18T08:33:22Z</time>
      </trkpt>
      <trkpt lat="48.81173" lon="1.743">
        <ele>108.41</ele>
        <time>2019-08-18T08:33:37Z</time>
      </trkpt>
      <trkpt lat="48.81177" lon="1.74295">
        <ele>108.11</ele>
        <time>2019-08-18T08:33:43Z</time>
      </trkpt>
      <trkpt lat="48.81179" lon="1.74291">
        <ele>107.98</ele>
        <time>2019-08-18T08:33:46Z</time>
      </trkpt>
      <trkpt lat="48.81185" lon="1.74285">
        <ele>107.92</ele>
        <time>2019-08-18T08:33:52Z</time>
      </trkpt>
      <trkpt lat="48.81202" lon="1.74266">
        <ele>106.99</ele>
        <time>2019-08-18T08:34:08Z</time>
      </trkpt>
      <trkpt lat="48.81211" lon="1.74254">
        <ele>106.42</ele>
        <time>2019-08-18T08:34:18Z</time>
      </trkpt>
      <trkpt lat="48.81214" lon="1.7425">
        <ele>106.22</ele>
        <time>2019-08-18T08:34:22Z</time>
      </trkpt>
      <trkpt lat="48.81226" lon="1.74236">
        <ele>105.27</ele>
        <time>2019-08-18T08:34:36Z</time>
      </trkpt>
      <trkpt lat="48.81241" lon="1.74219">
        <ele>105.07</ele>
        <time>2019-08-18T08:34:51Z</time>
      </trkpt>
      <trkpt lat="48.81247" lon="1.74213">
        <ele>104.44</ele>
        <time>2019-08-18T08:34:57Z</time>
      </trkpt>
      <trkpt lat="48.81256" lon="1.74206">
        <ele>104.21</ele>
        <time>2019-08-18T08:35:05Z</time>
      </trkpt>
      <trkpt lat="48.81266" lon="1.74193">
        <ele>103.58</ele>
        <time>2019-08-18T08:35:20Z</time>
      </trkpt>
      <trkpt lat="48.81284" lon="1.74179">
        <ele>102.68</ele>
        <time>2019-08-18T08:35:38Z</time>
      </trkpt>
      <trkpt lat="48.81289" lon="1.74177">
        <ele>102.75</ele>
        <time>2019-08-18T08:35:44Z</time>
      </trkpt>
      <trkpt lat="48.81305" lon="1.74166">
        <ele>102.38</ele>
        <time>2019-08-18T08:36:01Z</time>
      </trkpt>
      <trkpt lat="48.8131" lon="1.74162">
        <ele>102.64</ele>
        <time>2019-08-18T08:36:06Z</time>
      </trkpt>
      <trkpt lat="48.81319" lon="1.74155">
        <ele>102.47</ele>
        <time>2019-08-18T08:36:14Z</time>
      </trkpt>
      <trkpt lat="48.81331" lon="1.74145">
        <ele>102.1</ele>
        <time>2019-08-18T08:36:27Z</time>
      </trkpt>
      <trkpt lat="48.81341" lon="1.74134">
        <ele>102.27</ele>
        <time>2019-08-18T08:36:38Z</time>
      </trkpt>
      <trkpt lat="48.81348" lon="1.74119">
        <ele>101.41</ele>
        <time>2019-08-18T08:36:51Z</time>
      </trkpt>
      <trkpt lat="48.81358" lon="1.74109">
        <ele>102.46</ele>
        <time>2019-08-18T08:37:03Z</time>
      </trkpt>
      <trkpt lat="48.81366" lon="1.74098">
        <ele>101.73</ele>
        <time>2019-08-18T08:37:12Z</time>
      </trkpt>
      <trkpt lat="48.8138" lon="1.74085">
        <ele>101.73</ele>
        <time>2019-08-18T08:37:25Z</time>
      </trkpt>
      <trkpt lat="48.81395" lon="1.74073">
        <ele>101.83</ele>
        <time>2019-08-18T08:37:39Z</time>
      </trkpt>
      <trkpt lat="48.81406" lon="1.74063">
        <ele>101.82</ele>
        <time>2019-08-18T08:37:51Z</time>
      </trkpt>
      <trkpt lat="48.81417" lon="1.74058">
        <ele>101.41</ele>
        <time>2019-08-18T08:38:01Z</time>
      </trkpt>
      <trkpt lat="48.81423" lon="1.74057">
        <ele>101.56</ele>
        <time>2019-08-18T08:38:07Z</time>
      </trkpt>
      <trkpt lat="48.81437" lon="1.7405">
        <ele>101.8</ele>
        <time>2019-08-18T08:38:21Z</time>
      </trkpt>
      <trkpt lat="48.81451" lon="1.7405">
        <ele>101.24</ele>
        <time>2019-08-18T08:38:35Z</time>
      </trkpt>
      <trkpt lat="48.81468" lon="1.74042">
        <ele>100.99</ele>
        <time>2019-08-18T08:38:52Z</time>
      </trkpt>
      <trkpt lat="48.81478" lon="1.74037">
        <ele>101.41</ele>
        <time>2019-08-18T08:39:01Z</time>
      </trkpt>
      <trkpt lat="48.81495" lon="1.74028">
        <ele>100.99</ele>
        <time>2019-08-18T08:39:19Z</time>
      </trkpt>
      <trkpt lat="48.8151" lon="1.74017">
        <ele>100.19</ele>
        <time>2019-08-18T08:39:36Z</time>
      </trkpt>
      <trkpt lat="48.81516" lon="1.74012">
        <ele>99.86</ele>
        <time>2019-08-18T08:39:43Z</time>
      </trkpt>
      <trkpt lat="48.81525" lon="1.73998">
        <ele>99.23</ele>
        <time>2019-08-18T08:39:55Z</time>
      </trkpt>
      <trkpt lat="48.81534" lon="1.73976">
        <ele>98.87</ele>
        <time>2019-08-18T08:40:10Z</time>
      </trkpt>
      <trkpt lat="48.81536" lon="1.73968">
        <ele>98.4</ele>
        <time>2019-08-18T08:40:15Z</time>
      </trkpt>
      <trkpt lat="48.81537" lon="1.73964">
        <ele>98.74</ele>
        <time>2019-08-18T08:40:17Z</time>
      </trkpt>
      <trkpt lat="48.81544" lon="1.73942">
        <ele>98.67</ele>
        <time>2019-08-18T08:40:31Z</time>
      </trkpt>
      <trkpt lat="48.81551" lon="1.73915">
        <ele>97.8</ele>
        <time>2019-08-18T08:40:49Z</time>
      </trkpt>
      <trkpt lat="48.81555" lon="1.73906">
        <ele>97.4</ele>
        <time>2019-08-18T08:40:55Z</time>
      </trkpt>
      <trkpt lat="48.81562" lon="1.73881">
        <ele>96.41</ele>
        <time>2019-08-18T08:41:10Z</time>
      </trkpt>
      <trkpt lat="48.81567" lon="1.73862">
        <ele>96.18</ele>
        <time>2019-08-18T08:41:23Z</time>
      </trkpt>
      <trkpt lat="48.81567" lon="1.73856">
        <ele>95.54</ele>
        <time>2019-08-18T08:41:27Z</time>
      </trkpt>
      <trkpt lat="48.81573" lon="1.73833">
        <ele>95.02</ele>
        <time>2019-08-18T08:41:41Z</time>
      </trkpt>
      <trkpt lat="48.81577" lon="1.73827">
        <ele>94.08</ele>
        <time>2019-08-18T08:42:06Z</time>
      </trkpt>
      <trkpt lat="48.81579" lon="1.73826">
        <ele>93.79</ele>
        <time>2019-08-18T08:42:33Z</time>
      </trkpt>
      <trkpt lat="48.81577" lon="1.73826">
        <ele>93.58</ele>
        <time>2019-08-18T08:43:01Z</time>
      </trkpt>
      <trkpt lat="48.81577" lon="1.73832">
        <ele>92.71</ele>
        <time>2019-08-18T08:43:34Z</time>
      </trkpt>
      <trkpt lat="48.81576" lon="1.73834">
        <ele>92.5</ele>
        <time>2019-08-18T08:44:00Z</time>
      </trkpt>
      <trkpt lat="48.81579" lon="1.73828">
        <ele>92.21</ele>
        <time>2019-08-18T08:44:21Z</time>
      </trkpt>
      <trkpt lat="48.81579" lon="1.73826">
        <ele>92.07</ele>
        <time>2019-08-18T08:44:43Z</time>
      </trkpt>
      <trkpt lat="48.81582" lon="1.73827">
        <ele>92.02</ele>
        <time>2019-08-18T08:45:08Z</time>
      </trkpt>
      <trkpt lat="48.81579" lon="1.73831">
        <ele>91.25</ele>
        <time>2019-08-18T08:45:29Z</time>
      </trkpt>
      <trkpt lat="48.81574" lon="1.73824">
        <ele>91.53</ele>
        <time>2019-08-18T08:45:47Z</time>
      </trkpt>
      <trkpt lat="48.81567" lon="1.73805">
        <ele>91.45</ele>
        <time>2019-08-18T08:46:04Z</time>
      </trkpt>
      <trkpt lat="48.81556" lon="1.73787">
        <ele>91.61</ele>
        <time>2019-08-18T08:46:25Z</time>
      </trkpt>
      <trkpt lat="48.81543" lon="1.73764">
        <ele>92.13</ele>
        <time>2019-08-18T08:46:44Z</time>
      </trkpt>
      <trkpt lat="48.81542" lon="1.73762">
        <ele>91.93</ele>
        <time>2019-08-18T08:46:45Z</time>
      </trkpt>
      <trkpt lat="48.81529" lon="1.73739">
        <ele>92.3</ele>
        <time>2019-08-18T08:47:03Z</time>
      </trkpt>
      <trkpt lat="48.81518" lon="1.73722">
        <ele>93.29</ele>
        <time>2019-08-18T08:47:20Z</time>
      </trkpt>
      <trkpt lat="48.81504" lon="1.73698">
        <ele>92.85</ele>
        <time>2019-08-18T08:47:37Z</time>
      </trkpt>
      <trkpt lat="48.81493" lon="1.73679">
        <ele>93.33</ele>
        <time>2019-08-18T08:47:52Z</time>
      </trkpt>
      <trkpt lat="48.81481" lon="1.73658">
        <ele>93.76</ele>
        <time>2019-08-18T08:48:11Z</time>
      </trkpt>
      <trkpt lat="48.81468" lon="1.73635">
        <ele>94.19</ele>
        <time>2019-08-18T08:48:31Z</time>
      </trkpt>
      <trkpt lat="48.81455" lon="1.73615">
        <ele>95.13</ele>
        <time>2019-08-18T08:48:51Z</time>
      </trkpt>
      <trkpt lat="48.81443" lon="1.73594">
        <ele>96.15</ele>
        <time>2019-08-18T08:49:07Z</time>
      </trkpt>
      <trkpt lat="48.81433" lon="1.73574">
        <ele>96.94</ele>
        <time>2019-08-18T08:49:25Z</time>
      </trkpt>
      <trkpt lat="48.81422" lon="1.73545">
        <ele>98.34</ele>
        <time>2019-08-18T08:49:48Z</time>
      </trkpt>
      <trkpt lat="48.81413" lon="1.73514">
        <ele>99.26</ele>
        <time>2019-08-18T08:50:10Z</time>
      </trkpt>
      <trkpt lat="48.81407" lon="1.73491">
        <ele>100.25</ele>
        <time>2019-08-18T08:50:29Z</time>
      </trkpt>
      <trkpt lat="48.81402" lon="1.73467">
        <ele>100.61</ele>
        <time>2019-08-18T08:50:46Z</time>
      </trkpt>
      <trkpt lat="48.81399" lon="1.73447">
        <ele>100.43</ele>
        <time>2019-08-18T08:51:00Z</time>
      </trkpt>
      <trkpt lat="48.814" lon="1.73426">
        <ele>101.07</ele>
        <time>2019-08-18T08:51:23Z</time>
      </trkpt>
      <trkpt lat="48.81399" lon="1.73423">
        <ele>101.53</ele>
        <time>2019-08-18T08:51:27Z</time>
      </trkpt>
      <trkpt lat="48.81398" lon="1.7342">
        <ele>101.81</ele>
        <time>2019-08-18T08:51:30Z</time>
      </trkpt>
      <trkpt lat="48.81396" lon="1.73416">
        <ele>101.55</ele>
        <time>2019-08-18T08:51:34Z</time>
      </trkpt>
      <trkpt lat="48.81395" lon="1.73376">
        <ele>103.83</ele>
        <time>2019-08-18T08:51:58Z</time>
      </trkpt>
      <trkpt lat="48.81394" lon="1.73368">
        <ele>104.06</ele>
        <time>2019-08-18T08:52:06Z</time>
      </trkpt>
      <trkpt lat="48.81393" lon="1.73365">
        <ele>104.29</ele>
        <time>2019-08-18T08:52:09Z</time>
      </trkpt>
      <trkpt lat="48.81392" lon="1.73352">
        <ele>104.23</ele>
        <time>2019-08-18T08:52:19Z</time>
      </trkpt>
      <trkpt lat="48.81385" lon="1.73327">
        <ele>104.16</ele>
        <time>2019-08-18T08:52:39Z</time>
      </trkpt>
      <trkpt lat="48.81385" lon="1.73325">
        <ele>104.42</ele>
        <time>2019-08-18T08:52:41Z</time>
      </trkpt>
      <trkpt lat="48.81383" lon="1.73322">
        <ele>104.73</ele>
        <time>2019-08-18T08:52:44Z</time>
      </trkpt>
      <trkpt lat="48.81375" lon="1.73284">
        <ele>104.88</ele>
        <time>2019-08-18T08:53:05Z</time>
      </trkpt>
      <trkpt lat="48.81374" lon="1.7328">
        <ele>104.82</ele>
        <time>2019-08-18T08:53:08Z</time>
      </trkpt>
      <trkpt lat="48.81374" lon="1.73275">
        <ele>104.88</ele>
        <time>2019-08-18T08:53:11Z</time>
      </trkpt>
      <trkpt lat="48.81372" lon="1.73254">
        <ele>105.18</ele>
        <time>2019-08-18T08:53:24Z</time>
      </trkpt>
      <trkpt lat="48.81367" lon="1.73234">
        <ele>105.05</ele>
        <time>2019-08-18T08:53:38Z</time>
      </trkpt>
      <trkpt lat="48.81364" lon="1.73226">
        <ele>105.28</ele>
        <time>2019-08-18T08:53:43Z</time>
      </trkpt>
      <trkpt lat="48.81355" lon="1.732">
        <ele>105.88</ele>
        <time>2019-08-18T08:54:01Z</time>
      </trkpt>
      <trkpt lat="48.8135" lon="1.73169">
        <ele>106.09</ele>
        <time>2019-08-18T08:54:18Z</time>
      </trkpt>
      <trkpt lat="48.81347" lon="1.7315">
        <ele>106.64</ele>
        <time>2019-08-18T08:54:30Z</time>
      </trkpt>
      <trkpt lat="48.8134" lon="1.73114">
        <ele>106.94</ele>
        <time>2019-08-18T08:54:52Z</time>
      </trkpt>
      <trkpt lat="48.81339" lon="1.73108">
        <ele>107.14</ele>
        <time>2019-08-18T08:55:00Z</time>
      </trkpt>
      <trkpt lat="48.81337" lon="1.73095">
        <ele>107.32</ele>
        <time>2019-08-18T08:55:28Z</time>
      </trkpt>
      <trkpt lat="48.81337" lon="1.7309">
        <ele>107.39</ele>
        <time>2019-08-18T08:55:53Z</time>
      </trkpt>
      <trkpt lat="48.81339" lon="1.73091">
        <ele>106.78</ele>
        <time>2019-08-18T08:56:01Z</time>
      </trkpt>
      <trkpt lat="48.81341" lon="1.73093">
        <ele>106.75</ele>
        <time>2019-08-18T08:56:04Z</time>
      </trkpt>
      <trkpt lat="48.81344" lon="1.73093">
        <ele>106.88</ele>
        <time>2019-08-18T08:56:33Z</time>
      </trkpt>
      <trkpt lat="48.81337" lon="1.73096">
        <ele>107.15</ele>
        <time>2019-08-18T08:57:00Z</time>
      </trkpt>
      <trkpt lat="48.81336" lon="1.73095">
        <ele>107.4</ele>
        <time>2019-08-18T08:57:27Z</time>
      </trkpt>
      <trkpt lat="48.8133" lon="1.73092">
        <ele>107.05</ele>
        <time>2019-08-18T08:57:49Z</time>
      </trkpt>
      <trkpt lat="48.81335" lon="1.73092">
        <ele>107.73</ele>
        <time>2019-08-18T08:58:13Z</time>
      </trkpt>
      <trkpt lat="48.81337" lon="1.73063">
        <ele>109.08</ele>
        <time>2019-08-18T08:58:34Z</time>
      </trkpt>
      <trkpt lat="48.81338" lon="1.73038">
        <ele>111.46</ele>
        <time>2019-08-18T08:58:54Z</time>
      </trkpt>
      <trkpt lat="48.81341" lon="1.73003">
        <ele>113.85</ele>
        <time>2019-08-18T08:59:15Z</time>
      </trkpt>
      <trkpt lat="48.81346" lon="1.72967">
        <ele>115.08</ele>
        <time>2019-08-18T08:59:35Z</time>
      </trkpt>
      <trkpt lat="48.81345" lon="1.7293">
        <ele>116.11</ele>
        <time>2019-08-18T08:59:57Z</time>
      </trkpt>
      <trkpt lat="48.81335" lon="1.72875">
        <ele>116.13</ele>
        <time>2019-08-18T09:00:24Z</time>
      </trkpt>
      <trkpt lat="48.81336" lon="1.72837">
        <ele>116.55</ele>
        <time>2019-08-18T09:00:43Z</time>
      </trkpt>
      <trkpt lat="48.81333" lon="1.72816">
        <ele>116.86</ele>
        <time>2019-08-18T09:00:53Z</time>
      </trkpt>
      <trkpt lat="48.81328" lon="1.72795">
        <ele>116.34</ele>
        <time>2019-08-18T09:01:01Z</time>
      </trkpt>
      <trkpt lat="48.81327" lon="1.72783">
        <ele>116.68</ele>
        <time>2019-08-18T09:01:07Z</time>
      </trkpt>
      <trkpt lat="48.81326" lon="1.72746">
        <ele>115.96</ele>
        <time>2019-08-18T09:01:26Z</time>
      </trkpt>
      <trkpt lat="48.8132" lon="1.72704">
        <ele>116.79</ele>
        <time>2019-08-18T09:01:47Z</time>
      </trkpt>
      <trkpt lat="48.81318" lon="1.72675">
        <ele>116.91</ele>
        <time>2019-08-18T09:02:05Z</time>
      </trkpt>
      <trkpt lat="48.81322" lon="1.72636">
        <ele>117.49</ele>
        <time>2019-08-18T09:02:25Z</time>
      </trkpt>
      <trkpt lat="48.81324" lon="1.72588">
        <ele>116.76</ele>
        <time>2019-08-18T09:02:49Z</time>
      </trkpt>
      <trkpt lat="48.8132" lon="1.7256">
        <ele>117.06</ele>
        <time>2019-08-18T09:03:02Z</time>
      </trkpt>
      <trkpt lat="48.81318" lon="1.72541">
        <ele>116.71</ele>
        <time>2019-08-18T09:03:11Z</time>
      </trkpt>
      <trkpt lat="48.81318" lon="1.72501">
        <ele>117.38</ele>
        <time>2019-08-18T09:03:32Z</time>
      </trkpt>
      <trkpt lat="48.81307" lon="1.72471">
        <ele>117.63</ele>
        <time>2019-08-18T09:03:53Z</time>
      </trkpt>
      <trkpt lat="48.81294" lon="1.72445">
        <ele>117.2</ele>
        <time>2019-08-18T09:04:14Z</time>
      </trkpt>
      <trkpt lat="48.81273" lon="1.7241">
        <ele>117.52</ele>
        <time>2019-08-18T09:04:34Z</time>
      </trkpt>
      <trkpt lat="48.8127" lon="1.72401">
        <ele>117.3</ele>
        <time>2019-08-18T09:04:57Z</time>
      </trkpt>
      <trkpt lat="48.81267" lon="1.72394">
        <ele>117.07</ele>
        <time>2019-08-18T09:05:17Z</time>
      </trkpt>
      <trkpt lat="48.81266" lon="1.72391">
        <ele>116.63</ele>
        <time>2019-08-18T09:05:41Z</time>
      </trkpt>
      <trkpt lat="48.81265" lon="1.7239">
        <ele>116.72</ele>
        <time>2019-08-18T09:06:08Z</time>
      </trkpt>
      <trkpt lat="48.81266" lon="1.72392">
        <ele>117.2</ele>
        <time>2019-08-18T09:06:38Z</time>
      </trkpt>
      <trkpt lat="48.81267" lon="1.72393">
        <ele>117.52</ele>
        <time>2019-08-18T09:07:08Z</time>
      </trkpt>
      <trkpt lat="48.81265" lon="1.7239">
        <ele>118.31</ele>
        <time>2019-08-18T09:07:36Z</time>
      </trkpt>
      <trkpt lat="48.81265" lon="1.72392">
        <ele>118.98</ele>
        <time>2019-08-18T09:08:06Z</time>
      </trkpt>
      <trkpt lat="48.81272" lon="1.72392">
        <ele>118.16</ele>
        <time>2019-08-18T09:08:33Z</time>
      </trkpt>
      <trkpt lat="48.81273" lon="1.72391">
        <ele>118.35</ele>
        <time>2019-08-18T09:09:02Z</time>
      </trkpt>
      <trkpt lat="48.81267" lon="1.72389">
        <ele>118.09</ele>
        <time>2019-08-18T09:09:29Z</time>
      </trkpt>
      <trkpt lat="48.81268" lon="1.72374">
        <ele>118.8</ele>
        <time>2019-08-18T09:09:49Z</time>
      </trkpt>
      <trkpt lat="48.81277" lon="1.72357">
        <ele>119.1</ele>
        <time>2019-08-18T09:10:09Z</time>
      </trkpt>
      <trkpt lat="48.8129" lon="1.72335">
        <ele>119.79</ele>
        <time>2019-08-18T09:10:29Z</time>
      </trkpt>
      <trkpt lat="48.81306" lon="1.72311">
        <ele>119.83</ele>
        <time>2019-08-18T09:10:49Z</time>
      </trkpt>
      <trkpt lat="48.8132" lon="1.72285">
        <ele>120.19</ele>
        <time>2019-08-18T09:11:09Z</time>
      </trkpt>
      <trkpt lat="48.81331" lon="1.72262">
        <ele>120.88</ele>
        <time>2019-08-18T09:11:28Z</time>
      </trkpt>
      <trkpt lat="48.8134" lon="1.72249">
        <ele>120.87</ele>
        <time>2019-08-18T09:11:38Z</time>
      </trkpt>
      <trkpt lat="48.81348" lon="1.72234">
        <ele>120.84</ele>
        <time>2019-08-18T09:11:57Z</time>
      </trkpt>
      <trkpt lat="48.81356" lon="1.72231">
        <ele>121.51</ele>
        <time>2019-08-18T09:12:26Z</time>
      </trkpt>
      <trkpt lat="48.81358" lon="1.72233">
        <ele>121.06</ele>
        <time>2019-08-18T09:12:52Z</time>
      </trkpt>
      <trkpt lat="48.81361" lon="1.72231">
        <ele>121.08</ele>
        <time>2019-08-18T09:13:18Z</time>
      </trkpt>
      <trkpt lat="48.81363" lon="1.72234">
        <ele>120.81</ele>
        <time>2019-08-18T09:13:42Z</time>
      </trkpt>
      <trkpt lat="48.81365" lon="1.7223">
        <ele>120.85</ele>
        <time>2019-08-18T09:14:06Z</time>
      </trkpt>
      <trkpt lat="48.81367" lon="1.72218">
        <ele>120.74</ele>
        <time>2019-08-18T09:14:27Z</time>
      </trkpt>
      <trkpt lat="48.81373" lon="1.72194">
        <ele>121.33</ele>
        <time>2019-08-18T09:14:48Z</time>
      </trkpt>
      <trkpt lat="48.81384" lon="1.72171">
        <ele>121.6</ele>
        <time>2019-08-18T09:15:07Z</time>
      </trkpt>
      <trkpt lat="48.81387" lon="1.72167">
        <ele>122.32</ele>
        <time>2019-08-18T09:15:10Z</time>
      </trkpt>
      <trkpt lat="48.81396" lon="1.72148">
        <ele>123.06</ele>
        <time>2019-08-18T09:15:25Z</time>
      </trkpt>
      <trkpt lat="48.81407" lon="1.7213">
        <ele>122.83</ele>
        <time>2019-08-18T09:15:43Z</time>
      </trkpt>
      <trkpt lat="48.8142" lon="1.72111">
        <ele>123.91</ele>
        <time>2019-08-18T09:16:00Z</time>
      </trkpt>
      <trkpt lat="48.81433" lon="1.72089">
        <ele>124.58</ele>
        <time>2019-08-18T09:16:20Z</time>
      </trkpt>
      <trkpt lat="48.81445" lon="1.72067">
        <ele>125.85</ele>
        <time>2019-08-18T09:16:37Z</time>
      </trkpt>
      <trkpt lat="48.81459" lon="1.72046">
        <ele>126.46</ele>
        <time>2019-08-18T09:16:56Z</time>
      </trkpt>
      <trkpt lat="48.81469" lon="1.72021">
        <ele>126.82</ele>
        <time>2019-08-18T09:17:14Z</time>
      </trkpt>
      <trkpt lat="48.81486" lon="1.71998">
        <ele>126.62</ele>
        <time>2019-08-18T09:17:33Z</time>
      </trkpt>
      <trkpt lat="48.81501" lon="1.71973">
        <ele>127</ele>
        <time>2019-08-18T09:17:54Z</time>
      </trkpt>
      <trkpt lat="48.81515" lon="1.71951">
        <ele>126.73</ele>
        <time>2019-08-18T09:18:12Z</time>
      </trkpt>
      <trkpt lat="48.81527" lon="1.71922">
        <ele>126.33</ele>
        <time>2019-08-18T09:18:32Z</time>
      </trkpt>
      <trkpt lat="48.8154" lon="1.71897">
        <ele>125.36</ele>
        <time>2019-08-18T09:18:52Z</time>
      </trkpt>
      <trkpt lat="48.81556" lon="1.7186">
        <ele>123.94</ele>
        <time>2019-08-18T09:19:15Z</time>
      </trkpt>
      <trkpt lat="48.81558" lon="1.71851">
        <ele>123.61</ele>
        <time>2019-08-18T09:19:19Z</time>
      </trkpt>
      <trkpt lat="48.81561" lon="1.71822">
        <ele>123.29</ele>
        <time>2019-08-18T09:19:35Z</time>
      </trkpt>
      <trkpt lat="48.81564" lon="1.7179">
        <ele>123.07</ele>
        <time>2019-08-18T09:19:56Z</time>
      </trkpt>
      <trkpt lat="48.81565" lon="1.71762">
        <ele>122.69</ele>
        <time>2019-08-18T09:20:11Z</time>
      </trkpt>
      <trkpt lat="48.81557" lon="1.71724">
        <ele>121.77</ele>
        <time>2019-08-18T09:20:32Z</time>
      </trkpt>
      <trkpt lat="48.81561" lon="1.71696">
        <ele>120.28</ele>
        <time>2019-08-18T09:20:50Z</time>
      </trkpt>
      <trkpt lat="48.81565" lon="1.71666">
        <ele>120.1</ele>
        <time>2019-08-18T09:21:08Z</time>
      </trkpt>
      <trkpt lat="48.81569" lon="1.71639">
        <ele>118.88</ele>
        <time>2019-08-18T09:21:25Z</time>
      </trkpt>
      <trkpt lat="48.81572" lon="1.71619">
        <ele>118.14</ele>
        <time>2019-08-18T09:21:41Z</time>
      </trkpt>
      <trkpt lat="48.81573" lon="1.71618">
        <ele>118.26</ele>
        <time>2019-08-18T09:21:43Z</time>
      </trkpt>
      <trkpt lat="48.81572" lon="1.71613">
        <ele>117.99</ele>
        <time>2019-08-18T09:21:47Z</time>
      </trkpt>
      <trkpt lat="48.81572" lon="1.71589">
        <ele>117.18</ele>
        <time>2019-08-18T09:21:58Z</time>
      </trkpt>
      <trkpt lat="48.81572" lon="1.71583">
        <ele>117.81</ele>
        <time>2019-08-18T09:22:01Z</time>
      </trkpt>
      <trkpt lat="48.81573" lon="1.71547">
        <ele>117.02</ele>
        <time>2019-08-18T09:22:18Z</time>
      </trkpt>
      <trkpt lat="48.81575" lon="1.71521">
        <ele>116.89</ele>
        <time>2019-08-18T09:22:30Z</time>
      </trkpt>
      <trkpt lat="48.81576" lon="1.71516">
        <ele>117.07</ele>
        <time>2019-08-18T09:22:33Z</time>
      </trkpt>
      <trkpt lat="48.81569" lon="1.71508">
        <ele>116.42</ele>
        <time>2019-08-18T09:22:53Z</time>
      </trkpt>
      <trkpt lat="48.81556" lon="1.71507">
        <ele>115.98</ele>
        <time>2019-08-18T09:23:11Z</time>
      </trkpt>
      <trkpt lat="48.81561" lon="1.71505">
        <ele>116.46</ele>
        <time>2019-08-18T09:23:30Z</time>
      </trkpt>
      <trkpt lat="48.81574" lon="1.71511">
        <ele>116.15</ele>
        <time>2019-08-18T09:23:49Z</time>
      </trkpt>
      <trkpt lat="48.81575" lon="1.71512">
        <ele>114.98</ele>
        <time>2019-08-18T09:24:19Z</time>
      </trkpt>
      <trkpt lat="48.81571" lon="1.71516">
        <ele>114.75</ele>
        <time>2019-08-18T09:24:45Z</time>
      </trkpt>
      <trkpt lat="48.81571" lon="1.71518">
        <ele>113.87</ele>
        <time>2019-08-18T09:25:02Z</time>
      </trkpt>
      <trkpt lat="48.8157" lon="1.71517">
        <ele>112.69</ele>
        <time>2019-08-18T09:25:30Z</time>
      </trkpt>
      <trkpt lat="48.81573" lon="1.71514">
        <ele>111.82</ele>
        <time>2019-08-18T09:25:56Z</time>
      </trkpt>
      <trkpt lat="48.81574" lon="1.71514">
        <ele>111.28</ele>
        <time>2019-08-18T09:26:24Z</time>
      </trkpt>
      <trkpt lat="48.81565" lon="1.71522">
        <ele>111.99</ele>
        <time>2019-08-18T09:26:49Z</time>
      </trkpt>
      <trkpt lat="48.81563" lon="1.71518">
        <ele>112.95</ele>
        <time>2019-08-18T09:27:04Z</time>
      </trkpt>
      <trkpt lat="48.81575" lon="1.71522">
        <ele>112.78</ele>
        <time>2019-08-18T09:27:29Z</time>
      </trkpt>
      <trkpt lat="48.81577" lon="1.71519">
        <ele>113.95</ele>
        <time>2019-08-18T09:27:47Z</time>
      </trkpt>
      <trkpt lat="48.81572" lon="1.71522">
        <ele>115.28</ele>
        <time>2019-08-18T09:28:14Z</time>
      </trkpt>
      <trkpt lat="48.81574" lon="1.71521">
        <ele>115.69</ele>
        <time>2019-08-18T09:28:35Z</time>
      </trkpt>
      <trkpt lat="48.81578" lon="1.71519">
        <ele>117.22</ele>
        <time>2019-08-18T09:29:01Z</time>
      </trkpt>
      <trkpt lat="48.81578" lon="1.71519">
        <ele>116.95</ele>
        <time>2019-08-18T09:29:25Z</time>
      </trkpt>
      <trkpt lat="48.81575" lon="1.71516">
        <ele>117.32</ele>
        <time>2019-08-18T09:29:52Z</time>
      </trkpt>
      <trkpt lat="48.81578" lon="1.71514">
        <ele>117.47</ele>
        <time>2019-08-18T09:30:14Z</time>
      </trkpt>
      <trkpt lat="48.81596" lon="1.71515">
        <ele>118.56</ele>
        <time>2019-08-18T09:30:32Z</time>
      </trkpt>
      <trkpt lat="48.81613" lon="1.71518">
        <ele>119.52</ele>
        <time>2019-08-18T09:30:52Z</time>
      </trkpt>
      <trkpt lat="48.81618" lon="1.71525">
        <ele>119.67</ele>
        <time>2019-08-18T09:31:14Z</time>
      </trkpt>
      <trkpt lat="48.81621" lon="1.71524">
        <ele>119.63</ele>
        <time>2019-08-18T09:31:17Z</time>
      </trkpt>
      <trkpt lat="48.81645" lon="1.71521">
        <ele>120.04</ele>
        <time>2019-08-18T09:31:37Z</time>
      </trkpt>
      <trkpt lat="48.81664" lon="1.71522">
        <ele>119.98</ele>
        <time>2019-08-18T09:31:56Z</time>
      </trkpt>
      <trkpt lat="48.81672" lon="1.71534">
        <ele>119.81</ele>
        <time>2019-08-18T09:32:16Z</time>
      </trkpt>
      <trkpt lat="48.81681" lon="1.71552">
        <ele>119.97</ele>
        <time>2019-08-18T09:32:38Z</time>
      </trkpt>
      <trkpt lat="48.81692" lon="1.71578">
        <ele>119.72</ele>
        <time>2019-08-18T09:32:59Z</time>
      </trkpt>
      <trkpt lat="48.81695" lon="1.716">
        <ele>119.4</ele>
        <time>2019-08-18T09:33:17Z</time>
      </trkpt>
      <trkpt lat="48.81705" lon="1.71615">
        <ele>119.46</ele>
        <time>2019-08-18T09:33:36Z</time>
      </trkpt>
      <trkpt lat="48.81723" lon="1.71629">
        <ele>119.01</ele>
        <time>2019-08-18T09:33:58Z</time>
      </trkpt>
      <trkpt lat="48.8174" lon="1.71636">
        <ele>118.92</ele>
        <time>2019-08-18T09:34:15Z</time>
      </trkpt>
      <trkpt lat="48.81755" lon="1.71657">
        <ele>119.86</ele>
        <time>2019-08-18T09:34:35Z</time>
      </trkpt>
      <trkpt lat="48.8177" lon="1.71675">
        <ele>119.33</ele>
        <time>2019-08-18T09:34:54Z</time>
      </trkpt>
      <trkpt lat="48.81789" lon="1.717">
        <ele>120.38</ele>
        <time>2019-08-18T09:35:14Z</time>
      </trkpt>
      <trkpt lat="48.81804" lon="1.71718">
        <ele>120.03</ele>
        <time>2019-08-18T09:35:31Z</time>
      </trkpt>
      <trkpt lat="48.81819" lon="1.71734">
        <ele>119.92</ele>
        <time>2019-08-18T09:35:48Z</time>
      </trkpt>
      <trkpt lat="48.81833" lon="1.7175">
        <ele>119.83</ele>
        <time>2019-08-18T09:36:02Z</time>
      </trkpt>
      <trkpt lat="48.81849" lon="1.7177">
        <ele>119.25</ele>
        <time>2019-08-18T09:36:22Z</time>
      </trkpt>
      <trkpt lat="48.81861" lon="1.71787">
        <ele>119.64</ele>
        <time>2019-08-18T09:36:40Z</time>
      </trkpt>
      <trkpt lat="48.81876" lon="1.71805">
        <ele>119.15</ele>
        <time>2019-08-18T09:36:58Z</time>
      </trkpt>
      <trkpt lat="48.81891" lon="1.71822">
        <ele>118.34</ele>
        <time>2019-08-18T09:37:19Z</time>
      </trkpt>
      <trkpt lat="48.81912" lon="1.71839">
        <ele>118.11</ele>
        <time>2019-08-18T09:37:39Z</time>
      </trkpt>
      <trkpt lat="48.81925" lon="1.71855">
        <ele>118.61</ele>
        <time>2019-08-18T09:37:58Z</time>
      </trkpt>
      <trkpt lat="48.81939" lon="1.71869">
        <ele>118.09</ele>
        <time>2019-08-18T09:38:17Z</time>
      </trkpt>
      <trkpt lat="48.81957" lon="1.71883">
        <ele>118.84</ele>
        <time>2019-08-18T09:38:36Z</time>
      </trkpt>
      <trkpt lat="48.8198" lon="1.71895">
        <ele>119.54</ele>
        <time>2019-08-18T09:38:57Z</time>
      </trkpt>
      <trkpt lat="48.81998" lon="1.71895">
        <ele>118.3</ele>
        <time>2019-08-18T09:39:17Z</time>
      </trkpt>
      <trkpt lat="48.82018" lon="1.7189">
        <ele>118.59</ele>
        <time>2019-08-18T09:39:37Z</time>
      </trkpt>
      <trkpt lat="48.82038" lon="1.71892">
        <ele>118.17</ele>
        <time>2019-08-18T09:39:55Z</time>
      </trkpt>
      <trkpt lat="48.82054" lon="1.7189">
        <ele>118.75</ele>
        <time>2019-08-18T09:40:13Z</time>
      </trkpt>
      <trkpt lat="48.82079" lon="1.71888">
        <ele>118.27</ele>
        <time>2019-08-18T09:40:36Z</time>
      </trkpt>
      <trkpt lat="48.82097" lon="1.71888">
        <ele>118.05</ele>
        <time>2019-08-18T09:40:50Z</time>
      </trkpt>
      <trkpt lat="48.82106" lon="1.71889">
        <ele>118.38</ele>
        <time>2019-08-18T09:40:55Z</time>
      </trkpt>
      <trkpt lat="48.82124" lon="1.71887">
        <ele>117.71</ele>
        <time>2019-08-18T09:41:07Z</time>
      </trkpt>
      <trkpt lat="48.82137" lon="1.71888">
        <ele>117.28</ele>
        <time>2019-08-18T09:41:16Z</time>
      </trkpt>
      <trkpt lat="48.82142" lon="1.71887">
        <ele>117.98</ele>
        <time>2019-08-18T09:41:19Z</time>
      </trkpt>
      <trkpt lat="48.82162" lon="1.71888">
        <ele>117.59</ele>
        <time>2019-08-18T09:41:36Z</time>
      </trkpt>
      <trkpt lat="48.82182" lon="1.71887">
        <ele>116.52</ele>
        <time>2019-08-18T09:41:54Z</time>
      </trkpt>
      <trkpt lat="48.82207" lon="1.71886">
        <ele>117.03</ele>
        <time>2019-08-18T09:42:17Z</time>
      </trkpt>
      <trkpt lat="48.8222" lon="1.71881">
        <ele>117.3</ele>
        <time>2019-08-18T09:42:36Z</time>
      </trkpt>
      <trkpt lat="48.82232" lon="1.71855">
        <ele>118.16</ele>
        <time>2019-08-18T09:42:57Z</time>
      </trkpt>
      <trkpt lat="48.82238" lon="1.71841">
        <ele>118.4</ele>
        <time>2019-08-18T09:43:08Z</time>
      </trkpt>
      <trkpt lat="48.82241" lon="1.71834">
        <ele>118.53</ele>
        <time>2019-08-18T09:43:12Z</time>
      </trkpt>
      <trkpt lat="48.82246" lon="1.71823">
        <ele>118.72</ele>
        <time>2019-08-18T09:43:20Z</time>
      </trkpt>
      <trkpt lat="48.82247" lon="1.71811">
        <ele>119.51</ele>
        <time>2019-08-18T09:43:28Z</time>
      </trkpt>
      <trkpt lat="48.82248" lon="1.71802">
        <ele>119.33</ele>
        <time>2019-08-18T09:43:34Z</time>
      </trkpt>
      <trkpt lat="48.82255" lon="1.71795">
        <ele>119.68</ele>
        <time>2019-08-18T09:43:42Z</time>
      </trkpt>
      <trkpt lat="48.82267" lon="1.71788">
        <ele>120.68</ele>
        <time>2019-08-18T09:43:52Z</time>
      </trkpt>
      <trkpt lat="48.82271" lon="1.71788">
        <ele>120.82</ele>
        <time>2019-08-18T09:43:55Z</time>
      </trkpt>
      <trkpt lat="48.82282" lon="1.71797">
        <ele>121.07</ele>
        <time>2019-08-18T09:44:12Z</time>
      </trkpt>
      <trkpt lat="48.82286" lon="1.718">
        <ele>121.19</ele>
        <time>2019-08-18T09:44:18Z</time>
      </trkpt>
      <trkpt lat="48.82289" lon="1.71802">
        <ele>120.84</ele>
        <time>2019-08-18T09:44:22Z</time>
      </trkpt>
      <trkpt lat="48.82292" lon="1.71803">
        <ele>120.75</ele>
        <time>2019-08-18T09:44:24Z</time>
      </trkpt>
      <trkpt lat="48.82294" lon="1.71804">
        <ele>121.33</ele>
        <time>2019-08-18T09:44:26Z</time>
      </trkpt>
      <trkpt lat="48.82304" lon="1.7181">
        <ele>120.96</ele>
        <time>2019-08-18T09:44:34Z</time>
      </trkpt>
      <trkpt lat="48.82318" lon="1.7182">
        <ele>120.68</ele>
        <time>2019-08-18T09:44:49Z</time>
      </trkpt>
      <trkpt lat="48.82333" lon="1.71831">
        <ele>120.02</ele>
        <time>2019-08-18T09:45:04Z</time>
      </trkpt>
      <trkpt lat="48.82342" lon="1.7184">
        <ele>120.25</ele>
        <time>2019-08-18T09:45:18Z</time>
      </trkpt>
      <trkpt lat="48.82355" lon="1.71846">
        <ele>119.61</ele>
        <time>2019-08-18T09:45:33Z</time>
      </trkpt>
      <trkpt lat="48.82357" lon="1.71836">
        <ele>119.33</ele>
        <time>2019-08-18T09:45:43Z</time>
      </trkpt>
      <trkpt lat="48.82351" lon="1.71815">
        <ele>119.45</ele>
        <time>2019-08-18T09:45:57Z</time>
      </trkpt>
      <trkpt lat="48.82347" lon="1.7179">
        <ele>119.12</ele>
        <time>2019-08-18T09:46:14Z</time>
      </trkpt>
      <trkpt lat="48.82343" lon="1.71766">
        <ele>118.57</ele>
        <time>2019-08-18T09:46:29Z</time>
      </trkpt>
      <trkpt lat="48.82339" lon="1.71737">
        <ele>118.47</ele>
        <time>2019-08-18T09:46:44Z</time>
      </trkpt>
      <trkpt lat="48.82339" lon="1.71735">
        <ele>117.99</ele>
        <time>2019-08-18T09:46:45Z</time>
      </trkpt>
      <trkpt lat="48.8234" lon="1.71732">
        <ele>117.73</ele>
        <time>2019-08-18T09:46:47Z</time>
      </trkpt>
      <trkpt lat="48.82347" lon="1.71724">
        <ele>118.02</ele>
        <time>2019-08-18T09:46:54Z</time>
      </trkpt>
      <trkpt lat="48.8236" lon="1.71716">
        <ele>117.11</ele>
        <time>2019-08-18T09:47:05Z</time>
      </trkpt>
      <trkpt lat="48.82374" lon="1.71708">
        <ele>117.06</ele>
        <time>2019-08-18T09:47:20Z</time>
      </trkpt>
      <trkpt lat="48.82392" lon="1.717">
        <ele>116.32</ele>
        <time>2019-08-18T09:47:37Z</time>
      </trkpt>
      <trkpt lat="48.82395" lon="1.71699">
        <ele>116.06</ele>
        <time>2019-08-18T09:47:40Z</time>
      </trkpt>
      <trkpt lat="48.824" lon="1.71698">
        <ele>116.09</ele>
        <time>2019-08-18T09:47:45Z</time>
      </trkpt>
      <trkpt lat="48.8242" lon="1.71689">
        <ele>116.29</ele>
        <time>2019-08-18T09:48:01Z</time>
      </trkpt>
      <trkpt lat="48.82436" lon="1.71681">
        <ele>115.34</ele>
        <time>2019-08-18T09:48:15Z</time>
      </trkpt>
      <trkpt lat="48.82454" lon="1.71674">
        <ele>115.02</ele>
        <time>2019-08-18T09:48:30Z</time>
      </trkpt>
      <trkpt lat="48.82462" lon="1.7167">
        <ele>114.96</ele>
        <time>2019-08-18T09:48:38Z</time>
      </trkpt>
      <trkpt lat="48.8248" lon="1.71658">
        <ele>115.04</ele>
        <time>2019-08-18T09:48:55Z</time>
      </trkpt>
      <trkpt lat="48.82499" lon="1.71648">
        <ele>114.2</ele>
        <time>2019-08-18T09:49:11Z</time>
      </trkpt>
      <trkpt lat="48.82518" lon="1.7164">
        <ele>114.37</ele>
        <time>2019-08-18T09:49:26Z</time>
      </trkpt>
      <trkpt lat="48.8253" lon="1.71633">
        <ele>114.37</ele>
        <time>2019-08-18T09:49:37Z</time>
      </trkpt>
      <trkpt lat="48.82538" lon="1.71627">
        <ele>114.5</ele>
        <time>2019-08-18T09:49:45Z</time>
      </trkpt>
      <trkpt lat="48.82546" lon="1.71623">
        <ele>114.19</ele>
        <time>2019-08-18T09:49:52Z</time>
      </trkpt>
      <trkpt lat="48.8255" lon="1.71619">
        <ele>114.26</ele>
        <time>2019-08-18T09:49:56Z</time>
      </trkpt>
      <trkpt lat="48.82564" lon="1.71608">
        <ele>114.09</ele>
        <time>2019-08-18T09:50:11Z</time>
      </trkpt>
      <trkpt lat="48.82564" lon="1.71607">
        <ele>114</ele>
        <time>2019-08-18T09:50:12Z</time>
      </trkpt>
      <trkpt lat="48.82577" lon="1.71595">
        <ele>114</ele>
        <time>2019-08-18T09:50:25Z</time>
      </trkpt>
      <trkpt lat="48.82583" lon="1.71587">
        <ele>113.49</ele>
        <time>2019-08-18T09:50:32Z</time>
      </trkpt>
      <trkpt lat="48.8259" lon="1.71579">
        <ele>113.38</ele>
        <time>2019-08-18T09:50:39Z</time>
      </trkpt>
      <trkpt lat="48.82597" lon="1.71569">
        <ele>113.05</ele>
        <time>2019-08-18T09:50:49Z</time>
      </trkpt>
      <trkpt lat="48.82601" lon="1.71566">
        <ele>113.47</ele>
        <time>2019-08-18T09:50:52Z</time>
      </trkpt>
      <trkpt lat="48.8261" lon="1.71546">
        <ele>113.2</ele>
        <time>2019-08-18T09:51:07Z</time>
      </trkpt>
      <trkpt lat="48.82617" lon="1.71535">
        <ele>112.76</ele>
        <time>2019-08-18T09:51:16Z</time>
      </trkpt>
      <trkpt lat="48.82622" lon="1.71522">
        <ele>112.92</ele>
        <time>2019-08-18T09:51:25Z</time>
      </trkpt>
      <trkpt lat="48.82623" lon="1.71519">
        <ele>112.75</ele>
        <time>2019-08-18T09:51:27Z</time>
      </trkpt>
      <trkpt lat="48.82629" lon="1.71508">
        <ele>112.47</ele>
        <time>2019-08-18T09:51:35Z</time>
      </trkpt>
      <trkpt lat="48.82631" lon="1.71502">
        <ele>112.28</ele>
        <time>2019-08-18T09:51:40Z</time>
      </trkpt>
      <trkpt lat="48.82633" lon="1.71497">
        <ele>111.88</ele>
        <time>2019-08-18T09:51:44Z</time>
      </trkpt>
      <trkpt lat="48.82635" lon="1.71493">
        <ele>112.49</ele>
        <time>2019-08-18T09:51:47Z</time>
      </trkpt>
      <trkpt lat="48.82638" lon="1.71486">
        <ele>112.28</ele>
        <time>2019-08-18T09:51:52Z</time>
      </trkpt>
      <trkpt lat="48.8265" lon="1.71468">
        <ele>111.76</ele>
        <time>2019-08-18T09:52:06Z</time>
      </trkpt>
      <trkpt lat="48.8266" lon="1.71458">
        <ele>111.3</ele>
        <time>2019-08-18T09:52:22Z</time>
      </trkpt>
      <trkpt lat="48.82662" lon="1.71455">
        <ele>110.87</ele>
        <time>2019-08-18T09:52:25Z</time>
      </trkpt>
      <trkpt lat="48.82664" lon="1.71449">
        <ele>111.2</ele>
        <time>2019-08-18T09:52:29Z</time>
      </trkpt>
      <trkpt lat="48.82666" lon="1.71444">
        <ele>111.25</ele>
        <time>2019-08-18T09:52:33Z</time>
      </trkpt>
      <trkpt lat="48.82672" lon="1.71421">
        <ele>110.71</ele>
        <time>2019-08-18T09:52:49Z</time>
      </trkpt>
      <trkpt lat="48.82677" lon="1.71407">
        <ele>110.78</ele>
        <time>2019-08-18T09:52:59Z</time>
      </trkpt>
      <trkpt lat="48.82681" lon="1.71393">
        <ele>110.52</ele>
        <time>2019-08-18T09:53:09Z</time>
      </trkpt>
      <trkpt lat="48.82686" lon="1.71373">
        <ele>110.39</ele>
        <time>2019-08-18T09:53:25Z</time>
      </trkpt>
      <trkpt lat="48.8269" lon="1.71358">
        <ele>109.99</ele>
        <time>2019-08-18T09:53:43Z</time>
      </trkpt>
      <trkpt lat="48.827" lon="1.7134">
        <ele>110.11</ele>
        <time>2019-08-18T09:54:02Z</time>
      </trkpt>
      <trkpt lat="48.82706" lon="1.71336">
        <ele>109.29</ele>
        <time>2019-08-18T09:54:26Z</time>
      </trkpt>
      <trkpt lat="48.82707" lon="1.71321">
        <ele>108.84</ele>
        <time>2019-08-18T09:54:42Z</time>
      </trkpt>
      <trkpt lat="48.82708" lon="1.71305">
        <ele>108.28</ele>
        <time>2019-08-18T09:54:56Z</time>
      </trkpt>
      <trkpt lat="48.82712" lon="1.71283">
        <ele>107.29</ele>
        <time>2019-08-18T09:55:20Z</time>
      </trkpt>
      <trkpt lat="48.82713" lon="1.71274">
        <ele>106.64</ele>
        <time>2019-08-18T09:55:29Z</time>
      </trkpt>
      <trkpt lat="48.82715" lon="1.71271">
        <ele>106.35</ele>
        <time>2019-08-18T09:55:33Z</time>
      </trkpt>
      <trkpt lat="48.82719" lon="1.71266">
        <ele>105.92</ele>
        <time>2019-08-18T09:55:40Z</time>
      </trkpt>
      <trkpt lat="48.82725" lon="1.71244">
        <ele>104.41</ele>
        <time>2019-08-18T09:56:00Z</time>
      </trkpt>
      <trkpt lat="48.82729" lon="1.71217">
        <ele>103.72</ele>
        <time>2019-08-18T09:56:22Z</time>
      </trkpt>
      <trkpt lat="48.82741" lon="1.71199">
        <ele>104.36</ele>
        <time>2019-08-18T09:56:42Z</time>
      </trkpt>
      <trkpt lat="48.82766" lon="1.71195">
        <ele>104.39</ele>
        <time>2019-08-18T09:57:03Z</time>
      </trkpt>
      <trkpt lat="48.82776" lon="1.71183">
        <ele>102.99</ele>
        <time>2019-08-18T09:57:13Z</time>
      </trkpt>
      <trkpt lat="48.82778" lon="1.71183">
        <ele>103.17</ele>
        <time>2019-08-18T09:57:15Z</time>
      </trkpt>
      <trkpt lat="48.82797" lon="1.71184">
        <ele>102.6</ele>
        <time>2019-08-18T09:57:32Z</time>
      </trkpt>
      <trkpt lat="48.82815" lon="1.71188">
        <ele>101.49</ele>
        <time>2019-08-18T09:57:49Z</time>
      </trkpt>
      <trkpt lat="48.82838" lon="1.71192">
        <ele>101.09</ele>
        <time>2019-08-18T09:58:10Z</time>
      </trkpt>
      <trkpt lat="48.82854" lon="1.71195">
        <ele>102.06</ele>
        <time>2019-08-18T09:58:24Z</time>
      </trkpt>
      <trkpt lat="48.82862" lon="1.71197">
        <ele>102.09</ele>
        <time>2019-08-18T09:58:31Z</time>
      </trkpt>
      <trkpt lat="48.82877" lon="1.71202">
        <ele>101.7</ele>
        <time>2019-08-18T09:58:44Z</time>
      </trkpt>
      <trkpt lat="48.82894" lon="1.71203">
        <ele>101.93</ele>
        <time>2019-08-18T09:59:02Z</time>
      </trkpt>
      <trkpt lat="48.82916" lon="1.71204">
        <ele>101.61</ele>
        <time>2019-08-18T09:59:22Z</time>
      </trkpt>
      <trkpt lat="48.82926" lon="1.71205">
        <ele>102.17</ele>
        <time>2019-08-18T09:59:31Z</time>
      </trkpt>
      <trkpt lat="48.82942" lon="1.71204">
        <ele>102.3</ele>
        <time>2019-08-18T09:59:46Z</time>
      </trkpt>
      <trkpt lat="48.82943" lon="1.71204">
        <ele>102.42</ele>
        <time>2019-08-18T09:59:47Z</time>
      </trkpt>
      <trkpt lat="48.82956" lon="1.71199">
        <ele>102.77</ele>
        <time>2019-08-18T10:00:00Z</time>
      </trkpt>
      <trkpt lat="48.82969" lon="1.7119">
        <ele>103.13</ele>
        <time>2019-08-18T10:00:15Z</time>
      </trkpt>
      <trkpt lat="48.82969" lon="1.7119">
        <ele>102.8</ele>
        <time>2019-08-18T10:00:16Z</time>
      </trkpt>
      <trkpt lat="48.82983" lon="1.71175">
        <ele>103.56</ele>
        <time>2019-08-18T10:00:33Z</time>
      </trkpt>
      <trkpt lat="48.82991" lon="1.71166">
        <ele>102.95</ele>
        <time>2019-08-18T10:00:42Z</time>
      </trkpt>
      <trkpt lat="48.82996" lon="1.71157">
        <ele>103.61</ele>
        <time>2019-08-18T10:00:50Z</time>
      </trkpt>
      <trkpt lat="48.83011" lon="1.71136">
        <ele>103.24</ele>
        <time>2019-08-18T10:01:08Z</time>
      </trkpt>
      <trkpt lat="48.83023" lon="1.71121">
        <ele>102.96</ele>
        <time>2019-08-18T10:01:24Z</time>
      </trkpt>
      <trkpt lat="48.83036" lon="1.71104">
        <ele>102.94</ele>
        <time>2019-08-18T10:01:43Z</time>
      </trkpt>
      <trkpt lat="48.83045" lon="1.7109">
        <ele>102.67</ele>
        <time>2019-08-18T10:01:58Z</time>
      </trkpt>
      <trkpt lat="48.83057" lon="1.71074">
        <ele>101.96</ele>
        <time>2019-08-18T10:02:14Z</time>
      </trkpt>
      <trkpt lat="48.83072" lon="1.71058">
        <ele>101.43</ele>
        <time>2019-08-18T10:02:31Z</time>
      </trkpt>
      <trkpt lat="48.83085" lon="1.71039">
        <ele>100.37</ele>
        <time>2019-08-18T10:02:47Z</time>
      </trkpt>
      <trkpt lat="48.83098" lon="1.7102">
        <ele>100.98</ele>
        <time>2019-08-18T10:03:04Z</time>
      </trkpt>
      <trkpt lat="48.8311" lon="1.70993">
        <ele>101.06</ele>
        <time>2019-08-18T10:03:24Z</time>
      </trkpt>
      <trkpt lat="48.83122" lon="1.70966">
        <ele>101.47</ele>
        <time>2019-08-18T10:03:43Z</time>
      </trkpt>
      <trkpt lat="48.83127" lon="1.70944">
        <ele>100.28</ele>
        <time>2019-08-18T10:03:57Z</time>
      </trkpt>
      <trkpt lat="48.83127" lon="1.70943">
        <ele>100.05</ele>
        <time>2019-08-18T10:03:58Z</time>
      </trkpt>
      <trkpt lat="48.83134" lon="1.70924">
        <ele>100.91</ele>
        <time>2019-08-18T10:04:12Z</time>
      </trkpt>
      <trkpt lat="48.83139" lon="1.70909">
        <ele>100.14</ele>
        <time>2019-08-18T10:04:23Z</time>
      </trkpt>
      <trkpt lat="48.83142" lon="1.70899">
        <ele>100.15</ele>
        <time>2019-08-18T10:04:29Z</time>
      </trkpt>
      <trkpt lat="48.83153" lon="1.70872">
        <ele>99.66</ele>
        <time>2019-08-18T10:04:46Z</time>
      </trkpt>
      <trkpt lat="48.83164" lon="1.70845">
        <ele>99.25</ele>
        <time>2019-08-18T10:05:03Z</time>
      </trkpt>
      <trkpt lat="48.83165" lon="1.70843">
        <ele>99.71</ele>
        <time>2019-08-18T10:05:04Z</time>
      </trkpt>
      <trkpt lat="48.83177" lon="1.70815">
        <ele>98.91</ele>
        <time>2019-08-18T10:05:21Z</time>
      </trkpt>
      <trkpt lat="48.83184" lon="1.70791">
        <ele>98.41</ele>
        <time>2019-08-18T10:05:36Z</time>
      </trkpt>
      <trkpt lat="48.83194" lon="1.70764">
        <ele>97.23</ele>
        <time>2019-08-18T10:05:53Z</time>
      </trkpt>
      <trkpt lat="48.83203" lon="1.70739">
        <ele>97.26</ele>
        <time>2019-08-18T10:06:09Z</time>
      </trkpt>
      <trkpt lat="48.83211" lon="1.7072">
        <ele>97.26</ele>
        <time>2019-08-18T10:06:21Z</time>
      </trkpt>
      <trkpt lat="48.83222" lon="1.70694">
        <ele>97.32</ele>
        <time>2019-08-18T10:06:38Z</time>
      </trkpt>
      <trkpt lat="48.83231" lon="1.70671">
        <ele>96.9</ele>
        <time>2019-08-18T10:06:54Z</time>
      </trkpt>
      <trkpt lat="48.83242" lon="1.70645">
        <ele>96.55</ele>
        <time>2019-08-18T10:07:13Z</time>
      </trkpt>
      <trkpt lat="48.83251" lon="1.70619">
        <ele>96.05</ele>
        <time>2019-08-18T10:07:31Z</time>
      </trkpt>
      <trkpt lat="48.83262" lon="1.70596">
        <ele>95.91</ele>
        <time>2019-08-18T10:07:48Z</time>
      </trkpt>
      <trkpt lat="48.83271" lon="1.70592">
        <ele>96.04</ele>
        <time>2019-08-18T10:08:01Z</time>
      </trkpt>
      <trkpt lat="48.83273" lon="1.70594">
        <ele>96.3</ele>
        <time>2019-08-18T10:08:04Z</time>
      </trkpt>
      <trkpt lat="48.83289" lon="1.70603">
        <ele>95.93</ele>
        <time>2019-08-18T10:08:20Z</time>
      </trkpt>
      <trkpt lat="48.83292" lon="1.70604">
        <ele>95.99</ele>
        <time>2019-08-18T10:08:23Z</time>
      </trkpt>
      <trkpt lat="48.83296" lon="1.70606">
        <ele>95.75</ele>
        <time>2019-08-18T10:08:27Z</time>
      </trkpt>
      <trkpt lat="48.83313" lon="1.70613">
        <ele>95.75</ele>
        <time>2019-08-18T10:08:42Z</time>
      </trkpt>
      <trkpt lat="48.83332" lon="1.70621">
        <ele>96.53</ele>
        <time>2019-08-18T10:09:01Z</time>
      </trkpt>
      <trkpt lat="48.83348" lon="1.70628">
        <ele>96.58</ele>
        <time>2019-08-18T10:09:16Z</time>
      </trkpt>
      <trkpt lat="48.83363" lon="1.70636">
        <ele>97.88</ele>
        <time>2019-08-18T10:09:32Z</time>
      </trkpt>
      <trkpt lat="48.83368" lon="1.70639">
        <ele>97.79</ele>
        <time>2019-08-18T10:09:37Z</time>
      </trkpt>
      <trkpt lat="48.83375" lon="1.70644">
        <ele>98.6</ele>
        <time>2019-08-18T10:09:45Z</time>
      </trkpt>
      <trkpt lat="48.83392" lon="1.70651">
        <ele>98.16</ele>
        <time>2019-08-18T10:10:01Z</time>
      </trkpt>
      <trkpt lat="48.83404" lon="1.70657">
        <ele>98.7</ele>
        <time>2019-08-18T10:10:13Z</time>
      </trkpt>
      <trkpt lat="48.83405" lon="1.70658">
        <ele>98.29</ele>
        <time>2019-08-18T10:10:15Z</time>
      </trkpt>
      <trkpt lat="48.83419" lon="1.70667">
        <ele>98.38</ele>
        <time>2019-08-18T10:10:30Z</time>
      </trkpt>
      <trkpt lat="48.83424" lon="1.70671">
        <ele>98.3</ele>
        <time>2019-08-18T10:10:36Z</time>
      </trkpt>
      <trkpt lat="48.83427" lon="1.70673">
        <ele>98.19</ele>
        <time>2019-08-18T10:10:39Z</time>
      </trkpt>
      <trkpt lat="48.83441" lon="1.70681">
        <ele>97.7</ele>
        <time>2019-08-18T10:10:54Z</time>
      </trkpt>
      <trkpt lat="48.83451" lon="1.7069">
        <ele>98.05</ele>
        <time>2019-08-18T10:11:09Z</time>
      </trkpt>
      <trkpt lat="48.83459" lon="1.707">
        <ele>98.65</ele>
        <time>2019-08-18T10:11:23Z</time>
      </trkpt>
      <trkpt lat="48.83459" lon="1.70714">
        <ele>99.38</ele>
        <time>2019-08-18T10:11:38Z</time>
      </trkpt>
      <trkpt lat="48.83463" lon="1.70719">
        <ele>99.3</ele>
        <time>2019-08-18T10:11:58Z</time>
      </trkpt>
      <trkpt lat="48.83468" lon="1.70723">
        <ele>99.47</ele>
        <time>2019-08-18T10:12:13Z</time>
      </trkpt>
      <trkpt lat="48.83469" lon="1.70718">
        <ele>98.99</ele>
        <time>2019-08-18T10:12:24Z</time>
      </trkpt>
      <trkpt lat="48.83475" lon="1.70705">
        <ele>97.71</ele>
        <time>2019-08-18T10:12:34Z</time>
      </trkpt>
      <trkpt lat="48.83477" lon="1.70708">
        <ele>96.64</ele>
        <time>2019-08-18T10:12:37Z</time>
      </trkpt>
      <trkpt lat="48.83482" lon="1.70709">
        <ele>96.59</ele>
        <time>2019-08-18T10:12:42Z</time>
      </trkpt>
      <trkpt lat="48.83496" lon="1.70716">
        <ele>95.89</ele>
        <time>2019-08-18T10:12:58Z</time>
      </trkpt>
      <trkpt lat="48.83507" lon="1.70723">
        <ele>94.8</ele>
        <time>2019-08-18T10:13:14Z</time>
      </trkpt>
      <trkpt lat="48.83529" lon="1.70734">
        <ele>94.89</ele>
        <time>2019-08-18T10:13:34Z</time>
      </trkpt>
      <trkpt lat="48.83546" lon="1.70742">
        <ele>94.1</ele>
        <time>2019-08-18T10:13:47Z</time>
      </trkpt>
      <trkpt lat="48.83566" lon="1.70751">
        <ele>93.74</ele>
        <time>2019-08-18T10:14:05Z</time>
      </trkpt>
      <trkpt lat="48.8358" lon="1.70751">
        <ele>93.88</ele>
        <time>2019-08-18T10:14:19Z</time>
      </trkpt>
      <trkpt lat="48.83596" lon="1.70752">
        <ele>93.61</ele>
        <time>2019-08-18T10:14:34Z</time>
      </trkpt>
      <trkpt lat="48.83614" lon="1.70756">
        <ele>93.5</ele>
        <time>2019-08-18T10:14:50Z</time>
      </trkpt>
      <trkpt lat="48.83629" lon="1.7076">
        <ele>93.4</ele>
        <time>2019-08-18T10:15:06Z</time>
      </trkpt>
      <trkpt lat="48.83646" lon="1.70766">
        <ele>92.78</ele>
        <time>2019-08-18T10:15:23Z</time>
      </trkpt>
      <trkpt lat="48.83663" lon="1.70773">
        <ele>93.61</ele>
        <time>2019-08-18T10:15:39Z</time>
      </trkpt>
      <trkpt lat="48.8368" lon="1.70779">
        <ele>93.28</ele>
        <time>2019-08-18T10:15:55Z</time>
      </trkpt>
      <trkpt lat="48.83694" lon="1.70787">
        <ele>92.72</ele>
        <time>2019-08-18T10:16:10Z</time>
      </trkpt>
      <trkpt lat="48.8371" lon="1.70795">
        <ele>92.75</ele>
        <time>2019-08-18T10:16:25Z</time>
      </trkpt>
      <trkpt lat="48.83728" lon="1.70806">
        <ele>92.89</ele>
        <time>2019-08-18T10:16:42Z</time>
      </trkpt>
      <trkpt lat="48.83745" lon="1.70813">
        <ele>92.53</ele>
        <time>2019-08-18T10:16:58Z</time>
      </trkpt>
      <trkpt lat="48.83761" lon="1.70821">
        <ele>92.91</ele>
        <time>2019-08-18T10:17:13Z</time>
      </trkpt>
      <trkpt lat="48.8378" lon="1.70834">
        <ele>92.46</ele>
        <time>2019-08-18T10:17:31Z</time>
      </trkpt>
      <trkpt lat="48.8379" lon="1.70841">
        <ele>93.07</ele>
        <time>2019-08-18T10:17:41Z</time>
      </trkpt>
      <trkpt lat="48.83805" lon="1.70853">
        <ele>92.82</ele>
        <time>2019-08-18T10:17:57Z</time>
      </trkpt>
      <trkpt lat="48.83821" lon="1.70865">
        <ele>92.6</ele>
        <time>2019-08-18T10:18:15Z</time>
      </trkpt>
      <trkpt lat="48.83834" lon="1.70878">
        <ele>92.48</ele>
        <time>2019-08-18T10:18:29Z</time>
      </trkpt>
      <trkpt lat="48.8385" lon="1.7089">
        <ele>93.09</ele>
        <time>2019-08-18T10:18:45Z</time>
      </trkpt>
      <trkpt lat="48.83864" lon="1.70904">
        <ele>92.25</ele>
        <time>2019-08-18T10:19:01Z</time>
      </trkpt>
      <trkpt lat="48.83875" lon="1.70913">
        <ele>92.55</ele>
        <time>2019-08-18T10:19:12Z</time>
      </trkpt>
      <trkpt lat="48.8389" lon="1.70928">
        <ele>92.37</ele>
        <time>2019-08-18T10:19:29Z</time>
      </trkpt>
      <trkpt lat="48.83905" lon="1.70942">
        <ele>92.58</ele>
        <time>2019-08-18T10:19:45Z</time>
      </trkpt>
      <trkpt lat="48.83918" lon="1.70955">
        <ele>91.87</ele>
        <time>2019-08-18T10:19:59Z</time>
      </trkpt>
      <trkpt lat="48.83928" lon="1.70966">
        <ele>92.11</ele>
        <time>2019-08-18T10:20:13Z</time>
      </trkpt>
      <trkpt lat="48.83942" lon="1.70981">
        <ele>92.28</ele>
        <time>2019-08-18T10:20:30Z</time>
      </trkpt>
      <trkpt lat="48.83957" lon="1.70994">
        <ele>92.43</ele>
        <time>2019-08-18T10:20:46Z</time>
      </trkpt>
      <trkpt lat="48.83972" lon="1.71008">
        <ele>91.67</ele>
        <time>2019-08-18T10:21:01Z</time>
      </trkpt>
      <trkpt lat="48.83987" lon="1.7102">
        <ele>91.49</ele>
        <time>2019-08-18T10:21:17Z</time>
      </trkpt>
      <trkpt lat="48.84002" lon="1.71028">
        <ele>91.32</ele>
        <time>2019-08-18T10:21:32Z</time>
      </trkpt>
      <trkpt lat="48.84017" lon="1.71036">
        <ele>91.01</ele>
        <time>2019-08-18T10:21:46Z</time>
      </trkpt>
      <trkpt lat="48.84033" lon="1.71044">
        <ele>90.88</ele>
        <time>2019-08-18T10:22:02Z</time>
      </trkpt>
      <trkpt lat="48.84049" lon="1.71052">
        <ele>90.75</ele>
        <time>2019-08-18T10:22:18Z</time>
      </trkpt>
      <trkpt lat="48.84064" lon="1.71059">
        <ele>91.11</ele>
        <time>2019-08-18T10:22:32Z</time>
      </trkpt>
      <trkpt lat="48.84079" lon="1.71064">
        <ele>90.36</ele>
        <time>2019-08-18T10:22:47Z</time>
      </trkpt>
      <trkpt lat="48.84095" lon="1.7107">
        <ele>90.29</ele>
        <time>2019-08-18T10:23:02Z</time>
      </trkpt>
      <trkpt lat="48.84103" lon="1.71073">
        <ele>90.02</ele>
        <time>2019-08-18T10:23:11Z</time>
      </trkpt>
      <trkpt lat="48.84117" lon="1.71077">
        <ele>89.92</ele>
        <time>2019-08-18T10:23:23Z</time>
      </trkpt>
      <trkpt lat="48.84134" lon="1.71084">
        <ele>89.88</ele>
        <time>2019-08-18T10:23:39Z</time>
      </trkpt>
      <trkpt lat="48.84143" lon="1.71087">
        <ele>90.72</ele>
        <time>2019-08-18T10:23:49Z</time>
      </trkpt>
      <trkpt lat="48.84145" lon="1.71087">
        <ele>89.72</ele>
        <time>2019-08-18T10:23:51Z</time>
      </trkpt>
      <trkpt lat="48.84168" lon="1.71094">
        <ele>90.1</ele>
        <time>2019-08-18T10:24:11Z</time>
      </trkpt>
      <trkpt lat="48.84185" lon="1.711">
        <ele>89.77</ele>
        <time>2019-08-18T10:24:28Z</time>
      </trkpt>
      <trkpt lat="48.84201" lon="1.71108">
        <ele>89.19</ele>
        <time>2019-08-18T10:24:43Z</time>
      </trkpt>
      <trkpt lat="48.84218" lon="1.71118">
        <ele>89.12</ele>
        <time>2019-08-18T10:24:59Z</time>
      </trkpt>
      <trkpt lat="48.84236" lon="1.71129">
        <ele>88.91</ele>
        <time>2019-08-18T10:25:16Z</time>
      </trkpt>
      <trkpt lat="48.84239" lon="1.71132">
        <ele>88.92</ele>
        <time>2019-08-18T10:25:21Z</time>
      </trkpt>
      <trkpt lat="48.84243" lon="1.71135">
        <ele>89.13</ele>
        <time>2019-08-18T10:25:25Z</time>
      </trkpt>
      <trkpt lat="48.84251" lon="1.7114">
        <ele>89.03</ele>
        <time>2019-08-18T10:25:34Z</time>
      </trkpt>
      <trkpt lat="48.84253" lon="1.71141">
        <ele>89.37</ele>
        <time>2019-08-18T10:25:36Z</time>
      </trkpt>
      <trkpt lat="48.84259" lon="1.71147">
        <ele>88.96</ele>
        <time>2019-08-18T10:25:54Z</time>
      </trkpt>
      <trkpt lat="48.84261" lon="1.71149">
        <ele>88.3</ele>
        <time>2019-08-18T10:26:18Z</time>
      </trkpt>
      <trkpt lat="48.84272" lon="1.71158">
        <ele>88.51</ele>
        <time>2019-08-18T10:26:34Z</time>
      </trkpt>
      <trkpt lat="48.84274" lon="1.71161">
        <ele>88.48</ele>
        <time>2019-08-18T10:26:38Z</time>
      </trkpt>
      <trkpt lat="48.84279" lon="1.71166">
        <ele>88.74</ele>
        <time>2019-08-18T10:26:45Z</time>
      </trkpt>
      <trkpt lat="48.84285" lon="1.71172">
        <ele>88.69</ele>
        <time>2019-08-18T10:26:52Z</time>
      </trkpt>
      <trkpt lat="48.84286" lon="1.71175">
        <ele>88.15</ele>
        <time>2019-08-18T10:26:55Z</time>
      </trkpt>
      <trkpt lat="48.84289" lon="1.71178">
        <ele>88.61</ele>
        <time>2019-08-18T10:26:58Z</time>
      </trkpt>
      <trkpt lat="48.84293" lon="1.71184">
        <ele>88.3</ele>
        <time>2019-08-18T10:27:04Z</time>
      </trkpt>
      <trkpt lat="48.84298" lon="1.71189">
        <ele>88.31</ele>
        <time>2019-08-18T10:27:10Z</time>
      </trkpt>
      <trkpt lat="48.84302" lon="1.71194">
        <ele>88.71</ele>
        <time>2019-08-18T10:27:16Z</time>
      </trkpt>
      <trkpt lat="48.84312" lon="1.71206">
        <ele>89.01</ele>
        <time>2019-08-18T10:27:31Z</time>
      </trkpt>
      <trkpt lat="48.84317" lon="1.71207">
        <ele>88.95</ele>
        <time>2019-08-18T10:27:46Z</time>
      </trkpt>
      <trkpt lat="48.84322" lon="1.71209">
        <ele>88.55</ele>
        <time>2019-08-18T10:27:51Z</time>
      </trkpt>
      <trkpt lat="48.84331" lon="1.71226">
        <ele>88.34</ele>
        <time>2019-08-18T10:28:09Z</time>
      </trkpt>
      <trkpt lat="48.84337" lon="1.71229">
        <ele>89.17</ele>
        <time>2019-08-18T10:28:27Z</time>
      </trkpt>
      <trkpt lat="48.84352" lon="1.71239">
        <ele>89.08</ele>
        <time>2019-08-18T10:28:43Z</time>
      </trkpt>
      <trkpt lat="48.84354" lon="1.71241">
        <ele>88.98</ele>
        <time>2019-08-18T10:28:45Z</time>
      </trkpt>
      <trkpt lat="48.84356" lon="1.71242">
        <ele>89.33</ele>
        <time>2019-08-18T10:28:47Z</time>
      </trkpt>
      <trkpt lat="48.84368" lon="1.71249">
        <ele>89.07</ele>
        <time>2019-08-18T10:28:58Z</time>
      </trkpt>
      <trkpt lat="48.84382" lon="1.71258">
        <ele>89.15</ele>
        <time>2019-08-18T10:29:12Z</time>
      </trkpt>
      <trkpt lat="48.84396" lon="1.71266">
        <ele>89.2</ele>
        <time>2019-08-18T10:29:26Z</time>
      </trkpt>
      <trkpt lat="48.84398" lon="1.71267">
        <ele>89.52</ele>
        <time>2019-08-18T10:29:28Z</time>
      </trkpt>
      <trkpt lat="48.844" lon="1.71268">
        <ele>89.14</ele>
        <time>2019-08-18T10:29:30Z</time>
      </trkpt>
      <trkpt lat="48.84405" lon="1.71271">
        <ele>89.31</ele>
        <time>2019-08-18T10:29:35Z</time>
      </trkpt>
      <trkpt lat="48.84422" lon="1.71279">
        <ele>89.75</ele>
        <time>2019-08-18T10:29:50Z</time>
      </trkpt>
      <trkpt lat="48.84442" lon="1.71287">
        <ele>90.75</ele>
        <time>2019-08-18T10:30:07Z</time>
      </trkpt>
      <trkpt lat="48.84454" lon="1.71292">
        <ele>91.06</ele>
        <time>2019-08-18T10:30:19Z</time>
      </trkpt>
      <trkpt lat="48.8447" lon="1.71298">
        <ele>91.13</ele>
        <time>2019-08-18T10:30:34Z</time>
      </trkpt>
      <trkpt lat="48.84486" lon="1.71304">
        <ele>90.28</ele>
        <time>2019-08-18T10:30:49Z</time>
      </trkpt>
      <trkpt lat="48.845" lon="1.71307">
        <ele>90.95</ele>
        <time>2019-08-18T10:31:03Z</time>
      </trkpt>
      <trkpt lat="48.84513" lon="1.71309">
        <ele>90.28</ele>
        <time>2019-08-18T10:31:16Z</time>
      </trkpt>
      <trkpt lat="48.84517" lon="1.71311">
        <ele>90.58</ele>
        <time>2019-08-18T10:31:20Z</time>
      </trkpt>
      <trkpt lat="48.84524" lon="1.71312">
        <ele>90.39</ele>
        <time>2019-08-18T10:31:27Z</time>
      </trkpt>
      <trkpt lat="48.84536" lon="1.71312">
        <ele>90.45</ele>
        <time>2019-08-18T10:31:42Z</time>
      </trkpt>
      <trkpt lat="48.84537" lon="1.71313">
        <ele>90.34</ele>
        <time>2019-08-18T10:31:44Z</time>
      </trkpt>
      <trkpt lat="48.8454" lon="1.71313">
        <ele>90.9</ele>
        <time>2019-08-18T10:31:47Z</time>
      </trkpt>
      <trkpt lat="48.84554" lon="1.71313">
        <ele>91.09</ele>
        <time>2019-08-18T10:32:03Z</time>
      </trkpt>
      <trkpt lat="48.84572" lon="1.71312">
        <ele>91.64</ele>
        <time>2019-08-18T10:32:20Z</time>
      </trkpt>
      <trkpt lat="48.84594" lon="1.71309">
        <ele>91.9</ele>
        <time>2019-08-18T10:32:40Z</time>
      </trkpt>
      <trkpt lat="48.84606" lon="1.71308">
        <ele>91.24</ele>
        <time>2019-08-18T10:32:56Z</time>
      </trkpt>
      <trkpt lat="48.84607" lon="1.71308">
        <ele>91.42</ele>
        <time>2019-08-18T10:32:57Z</time>
      </trkpt>
      <trkpt lat="48.84615" lon="1.71307">
        <ele>91.54</ele>
        <time>2019-08-18T10:33:06Z</time>
      </trkpt>
      <trkpt lat="48.84628" lon="1.71307">
        <ele>91.19</ele>
        <time>2019-08-18T10:33:19Z</time>
      </trkpt>
      <trkpt lat="48.84646" lon="1.71309">
        <ele>91.28</ele>
        <time>2019-08-18T10:33:34Z</time>
      </trkpt>
      <trkpt lat="48.84663" lon="1.7131">
        <ele>90.9</ele>
        <time>2019-08-18T10:33:50Z</time>
      </trkpt>
      <trkpt lat="48.84681" lon="1.71311">
        <ele>91.13</ele>
        <time>2019-08-18T10:34:04Z</time>
      </trkpt>
      <trkpt lat="48.847" lon="1.71315">
        <ele>90.64</ele>
        <time>2019-08-18T10:34:21Z</time>
      </trkpt>
      <trkpt lat="48.84717" lon="1.7132">
        <ele>91.19</ele>
        <time>2019-08-18T10:34:37Z</time>
      </trkpt>
      <trkpt lat="48.84737" lon="1.71325">
        <ele>90.97</ele>
        <time>2019-08-18T10:34:56Z</time>
      </trkpt>
      <trkpt lat="48.84753" lon="1.71331">
        <ele>90.81</ele>
        <time>2019-08-18T10:35:11Z</time>
      </trkpt>
      <trkpt lat="48.84762" lon="1.71337">
        <ele>90.77</ele>
        <time>2019-08-18T10:35:21Z</time>
      </trkpt>
      <trkpt lat="48.84767" lon="1.71338">
        <ele>90.61</ele>
        <time>2019-08-18T10:35:25Z</time>
      </trkpt>
      <trkpt lat="48.84783" lon="1.71346">
        <ele>90.7</ele>
        <time>2019-08-18T10:35:42Z</time>
      </trkpt>
      <trkpt lat="48.84798" lon="1.71354">
        <ele>90.34</ele>
        <time>2019-08-18T10:35:58Z</time>
      </trkpt>
      <trkpt lat="48.84804" lon="1.71358">
        <ele>90.2</ele>
        <time>2019-08-18T10:36:05Z</time>
      </trkpt>
      <trkpt lat="48.84806" lon="1.71359">
        <ele>90.06</ele>
        <time>2019-08-18T10:36:07Z</time>
      </trkpt>
      <trkpt lat="48.84812" lon="1.71364">
        <ele>90.54</ele>
        <time>2019-08-18T10:36:14Z</time>
      </trkpt>
      <trkpt lat="48.84815" lon="1.71365">
        <ele>90.47</ele>
        <time>2019-08-18T10:36:17Z</time>
      </trkpt>
      <trkpt lat="48.8483" lon="1.71379">
        <ele>90.1</ele>
        <time>2019-08-18T10:36:34Z</time>
      </trkpt>
      <trkpt lat="48.84831" lon="1.7138">
        <ele>90.37</ele>
        <time>2019-08-18T10:36:35Z</time>
      </trkpt>
      <trkpt lat="48.84845" lon="1.71392">
        <ele>90.33</ele>
        <time>2019-08-18T10:36:50Z</time>
      </trkpt>
      <trkpt lat="48.8486" lon="1.71403">
        <ele>89.39</ele>
        <time>2019-08-18T10:37:05Z</time>
      </trkpt>
      <trkpt lat="48.84875" lon="1.71414">
        <ele>89.06</ele>
        <time>2019-08-18T10:37:21Z</time>
      </trkpt>
      <trkpt lat="48.84886" lon="1.71425">
        <ele>90.18</ele>
        <time>2019-08-18T10:37:35Z</time>
      </trkpt>
      <trkpt lat="48.84891" lon="1.71428">
        <ele>90.33</ele>
        <time>2019-08-18T10:37:40Z</time>
      </trkpt>
      <trkpt lat="48.84903" lon="1.71439">
        <ele>90.12</ele>
        <time>2019-08-18T10:37:53Z</time>
      </trkpt>
      <trkpt lat="48.84915" lon="1.7145">
        <ele>90.02</ele>
        <time>2019-08-18T10:38:07Z</time>
      </trkpt>
      <trkpt lat="48.8493" lon="1.71461">
        <ele>90.38</ele>
        <time>2019-08-18T10:38:23Z</time>
      </trkpt>
      <trkpt lat="48.84947" lon="1.71473">
        <ele>90.07</ele>
        <time>2019-08-18T10:38:40Z</time>
      </trkpt>
      <trkpt lat="48.84962" lon="1.71482">
        <ele>90.33</ele>
        <time>2019-08-18T10:38:56Z</time>
      </trkpt>
      <trkpt lat="48.84978" lon="1.71489">
        <ele>90.03</ele>
        <time>2019-08-18T10:39:12Z</time>
      </trkpt>
      <trkpt lat="48.84995" lon="1.71496">
        <ele>90.26</ele>
        <time>2019-08-18T10:39:28Z</time>
      </trkpt>
      <trkpt lat="48.8501" lon="1.71503">
        <ele>89.77</ele>
        <time>2019-08-18T10:39:43Z</time>
      </trkpt>
      <trkpt lat="48.85014" lon="1.71504">
        <ele>90.09</ele>
        <time>2019-08-18T10:39:47Z</time>
      </trkpt>
      <trkpt lat="48.85031" lon="1.7151">
        <ele>90.21</ele>
        <time>2019-08-18T10:40:03Z</time>
      </trkpt>
      <trkpt lat="48.85048" lon="1.71517">
        <ele>90.08</ele>
        <time>2019-08-18T10:40:18Z</time>
      </trkpt>
      <trkpt lat="48.8507" lon="1.71523">
        <ele>90.11</ele>
        <time>2019-08-18T10:40:37Z</time>
      </trkpt>
      <trkpt lat="48.85087" lon="1.71529">
        <ele>89.77</ele>
        <time>2019-08-18T10:40:53Z</time>
      </trkpt>
      <trkpt lat="48.85104" lon="1.71533">
        <ele>89.42</ele>
        <time>2019-08-18T10:41:09Z</time>
      </trkpt>
      <trkpt lat="48.8512" lon="1.71537">
        <ele>89.86</ele>
        <time>2019-08-18T10:41:24Z</time>
      </trkpt>
      <trkpt lat="48.85139" lon="1.71542">
        <ele>88.99</ele>
        <time>2019-08-18T10:41:41Z</time>
      </trkpt>
      <trkpt lat="48.85154" lon="1.71537">
        <ele>87.51</ele>
        <time>2019-08-18T10:41:56Z</time>
      </trkpt>
      <trkpt lat="48.85171" lon="1.71537">
        <ele>86.26</ele>
        <time>2019-08-18T10:42:14Z</time>
      </trkpt>
      <trkpt lat="48.85186" lon="1.71538">
        <ele>84.88</ele>
        <time>2019-08-18T10:42:34Z</time>
      </trkpt>
      <trkpt lat="48.85201" lon="1.71538">
        <ele>83.63</ele>
        <time>2019-08-18T10:42:49Z</time>
      </trkpt>
      <trkpt lat="48.85217" lon="1.71541">
        <ele>82.97</ele>
        <time>2019-08-18T10:43:04Z</time>
      </trkpt>
      <trkpt lat="48.85236" lon="1.71549">
        <ele>81.4</ele>
        <time>2019-08-18T10:43:23Z</time>
      </trkpt>
      <trkpt lat="48.85248" lon="1.71551">
        <ele>81.65</ele>
        <time>2019-08-18T10:43:35Z</time>
      </trkpt>
      <trkpt lat="48.85265" lon="1.71552">
        <ele>80.65</ele>
        <time>2019-08-18T10:43:52Z</time>
      </trkpt>
      <trkpt lat="48.85282" lon="1.71554">
        <ele>79.21</ele>
        <time>2019-08-18T10:44:13Z</time>
      </trkpt>
      <trkpt lat="48.85293" lon="1.71548">
        <ele>79.9</ele>
        <time>2019-08-18T10:44:33Z</time>
      </trkpt>
      <trkpt lat="48.85295" lon="1.71549">
        <ele>79.4</ele>
        <time>2019-08-18T10:44:35Z</time>
      </trkpt>
      <trkpt lat="48.85302" lon="1.7155">
        <ele>80.13</ele>
        <time>2019-08-18T10:44:57Z</time>
      </trkpt>
      <trkpt lat="48.85303" lon="1.71547">
        <ele>79.73</ele>
        <time>2019-08-18T10:45:24Z</time>
      </trkpt>
      <trkpt lat="48.85302" lon="1.71547">
        <ele>79.78</ele>
        <time>2019-08-18T10:45:50Z</time>
      </trkpt>
      <trkpt lat="48.853" lon="1.71546">
        <ele>79.58</ele>
        <time>2019-08-18T10:46:15Z</time>
      </trkpt>
      <trkpt lat="48.85301" lon="1.71546">
        <ele>79.04</ele>
        <time>2019-08-18T10:46:41Z</time>
      </trkpt>
      <trkpt lat="48.85301" lon="1.71544">
        <ele>79.52</ele>
        <time>2019-08-18T10:47:11Z</time>
      </trkpt>
      <trkpt lat="48.853" lon="1.71542">
        <ele>79.52</ele>
        <time>2019-08-18T10:47:33Z</time>
      </trkpt>
      <trkpt lat="48.85315" lon="1.71542">
        <ele>79.82</ele>
        <time>2019-08-18T10:47:53Z</time>
      </trkpt>
      <trkpt lat="48.85325" lon="1.71542">
        <ele>81.34</ele>
        <time>2019-08-18T10:48:04Z</time>
      </trkpt>
      <trkpt lat="48.85343" lon="1.71534">
        <ele>82.32</ele>
        <time>2019-08-18T10:48:30Z</time>
      </trkpt>
      <trkpt lat="48.85363" lon="1.71517">
        <ele>84.24</ele>
        <time>2019-08-18T10:48:51Z</time>
      </trkpt>
      <trkpt lat="48.85384" lon="1.71507">
        <ele>84.33</ele>
        <time>2019-08-18T10:49:06Z</time>
      </trkpt>
      <trkpt lat="48.85406" lon="1.71509">
        <ele>85</ele>
        <time>2019-08-18T10:49:21Z</time>
      </trkpt>
      <trkpt lat="48.85414" lon="1.71509">
        <ele>85.34</ele>
        <time>2019-08-18T10:49:29Z</time>
      </trkpt>
      <trkpt lat="48.85419" lon="1.71509">
        <ele>85.7</ele>
        <time>2019-08-18T10:49:33Z</time>
      </trkpt>
      <trkpt lat="48.85427" lon="1.7151">
        <ele>85.87</ele>
        <time>2019-08-18T10:49:47Z</time>
      </trkpt>
      <trkpt lat="48.8543" lon="1.71506">
        <ele>86.49</ele>
        <time>2019-08-18T10:50:13Z</time>
      </trkpt>
      <trkpt lat="48.85426" lon="1.7151">
        <ele>85.99</ele>
        <time>2019-08-18T10:50:33Z</time>
      </trkpt>
      <trkpt lat="48.85424" lon="1.71515">
        <ele>86.37</ele>
        <time>2019-08-18T10:50:37Z</time>
      </trkpt>
      <trkpt lat="48.85413" lon="1.71537">
        <ele>86.61</ele>
        <time>2019-08-18T10:50:54Z</time>
      </trkpt>
      <trkpt lat="48.85403" lon="1.7156">
        <ele>86.69</ele>
        <time>2019-08-18T10:51:09Z</time>
      </trkpt>
      <trkpt lat="48.85391" lon="1.71592">
        <ele>86.83</ele>
        <time>2019-08-18T10:51:30Z</time>
      </trkpt>
      <trkpt lat="48.85381" lon="1.71614">
        <ele>86.86</ele>
        <time>2019-08-18T10:51:45Z</time>
      </trkpt>
      <trkpt lat="48.8538" lon="1.71619">
        <ele>87.09</ele>
        <time>2019-08-18T10:51:48Z</time>
      </trkpt>
      <trkpt lat="48.8537" lon="1.7164">
        <ele>87.04</ele>
        <time>2019-08-18T10:52:03Z</time>
      </trkpt>
      <trkpt lat="48.8536" lon="1.71665">
        <ele>86.83</ele>
        <time>2019-08-18T10:52:20Z</time>
      </trkpt>
      <trkpt lat="48.85352" lon="1.71687">
        <ele>86.73</ele>
        <time>2019-08-18T10:52:36Z</time>
      </trkpt>
      <trkpt lat="48.85346" lon="1.71705">
        <ele>86.77</ele>
        <time>2019-08-18T10:52:49Z</time>
      </trkpt>
      <trkpt lat="48.85335" lon="1.71734">
        <ele>86.85</ele>
        <time>2019-08-18T10:53:07Z</time>
      </trkpt>
      <trkpt lat="48.85328" lon="1.71747">
        <ele>86.34</ele>
        <time>2019-08-18T10:53:17Z</time>
      </trkpt>
      <trkpt lat="48.85323" lon="1.71763">
        <ele>86.61</ele>
        <time>2019-08-18T10:53:27Z</time>
      </trkpt>
      <trkpt lat="48.8531" lon="1.71787">
        <ele>86.53</ele>
        <time>2019-08-18T10:53:44Z</time>
      </trkpt>
      <trkpt lat="48.85298" lon="1.71808">
        <ele>85.51</ele>
        <time>2019-08-18T10:53:59Z</time>
      </trkpt>
      <trkpt lat="48.85288" lon="1.71829">
        <ele>84.7</ele>
        <time>2019-08-18T10:54:15Z</time>
      </trkpt>
      <trkpt lat="48.85279" lon="1.71847">
        <ele>84.77</ele>
        <time>2019-08-18T10:54:28Z</time>
      </trkpt>
      <trkpt lat="48.85269" lon="1.71871">
        <ele>83.98</ele>
        <time>2019-08-18T10:54:46Z</time>
      </trkpt>
      <trkpt lat="48.85264" lon="1.71883">
        <ele>83.91</ele>
        <time>2019-08-18T10:54:53Z</time>
      </trkpt>
      <trkpt lat="48.85263" lon="1.71887">
        <ele>83.75</ele>
        <time>2019-08-18T10:54:55Z</time>
      </trkpt>
      <trkpt lat="48.85254" lon="1.71905">
        <ele>83.85</ele>
        <time>2019-08-18T10:55:08Z</time>
      </trkpt>
      <trkpt lat="48.85241" lon="1.71931">
        <ele>83.36</ele>
        <time>2019-08-18T10:55:28Z</time>
      </trkpt>
      <trkpt lat="48.85237" lon="1.71944">
        <ele>83.06</ele>
        <time>2019-08-18T10:55:35Z</time>
      </trkpt>
      <trkpt lat="48.85222" lon="1.71973">
        <ele>83.54</ele>
        <time>2019-08-18T10:55:55Z</time>
      </trkpt>
      <trkpt lat="48.85214" lon="1.71993">
        <ele>83.47</ele>
        <time>2019-08-18T10:56:13Z</time>
      </trkpt>
      <trkpt lat="48.85213" lon="1.72001">
        <ele>83.58</ele>
        <time>2019-08-18T10:56:17Z</time>
      </trkpt>
      <trkpt lat="48.85211" lon="1.72006">
        <ele>83.58</ele>
        <time>2019-08-18T10:56:19Z</time>
      </trkpt>
      <trkpt lat="48.85202" lon="1.7204">
        <ele>83.77</ele>
        <time>2019-08-18T10:56:37Z</time>
      </trkpt>
      <trkpt lat="48.85202" lon="1.72042">
        <ele>84.09</ele>
        <time>2019-08-18T10:56:38Z</time>
      </trkpt>
      <trkpt lat="48.85198" lon="1.72055">
        <ele>83.5</ele>
        <time>2019-08-18T10:56:54Z</time>
      </trkpt>
      <trkpt lat="48.85196" lon="1.72063">
        <ele>84.47</ele>
        <time>2019-08-18T10:56:59Z</time>
      </trkpt>
      <trkpt lat="48.85188" lon="1.72088">
        <ele>84.44</ele>
        <time>2019-08-18T10:57:12Z</time>
      </trkpt>
      <trkpt lat="48.85191" lon="1.72102">
        <ele>84.26</ele>
        <time>2019-08-18T10:57:21Z</time>
      </trkpt>
      <trkpt lat="48.85194" lon="1.7211">
        <ele>84</ele>
        <time>2019-08-18T10:57:26Z</time>
      </trkpt>
      <trkpt lat="48.85205" lon="1.72125">
        <ele>84.36</ele>
        <time>2019-08-18T10:57:38Z</time>
      </trkpt>
      <trkpt lat="48.85208" lon="1.72129">
        <ele>84.39</ele>
        <time>2019-08-18T10:57:42Z</time>
      </trkpt>
      <trkpt lat="48.85223" lon="1.72148">
        <ele>85.34</ele>
        <time>2019-08-18T10:58:00Z</time>
      </trkpt>
      <trkpt lat="48.85228" lon="1.7216">
        <ele>85.49</ele>
        <time>2019-08-18T10:58:08Z</time>
      </trkpt>
      <trkpt lat="48.85243" lon="1.72184">
        <ele>86.09</ele>
        <time>2019-08-18T10:58:26Z</time>
      </trkpt>
      <trkpt lat="48.85255" lon="1.722">
        <ele>86.81</ele>
        <time>2019-08-18T10:58:41Z</time>
      </trkpt>
      <trkpt lat="48.85268" lon="1.72217">
        <ele>86.35</ele>
        <time>2019-08-18T10:58:56Z</time>
      </trkpt>
      <trkpt lat="48.85284" lon="1.72237">
        <ele>87.55</ele>
        <time>2019-08-18T10:59:15Z</time>
      </trkpt>
      <trkpt lat="48.85296" lon="1.72254">
        <ele>87.62</ele>
        <time>2019-08-18T10:59:30Z</time>
      </trkpt>
      <trkpt lat="48.853" lon="1.72258">
        <ele>88.34</ele>
        <time>2019-08-18T10:59:34Z</time>
      </trkpt>
      <trkpt lat="48.85315" lon="1.72277">
        <ele>88.84</ele>
        <time>2019-08-18T10:59:53Z</time>
      </trkpt>
      <trkpt lat="48.85316" lon="1.72278">
        <ele>89.04</ele>
        <time>2019-08-18T10:59:55Z</time>
      </trkpt>
      <trkpt lat="48.85328" lon="1.72292">
        <ele>89.35</ele>
        <time>2019-08-18T11:00:10Z</time>
      </trkpt>
      <trkpt lat="48.8533" lon="1.72295">
        <ele>89.31</ele>
        <time>2019-08-18T11:00:13Z</time>
      </trkpt>
      <trkpt lat="48.85337" lon="1.72306">
        <ele>89.8</ele>
        <time>2019-08-18T11:00:24Z</time>
      </trkpt>
      <trkpt lat="48.85341" lon="1.72313">
        <ele>89.79</ele>
        <time>2019-08-18T11:00:30Z</time>
      </trkpt>
      <trkpt lat="48.85343" lon="1.72315">
        <ele>89.54</ele>
        <time>2019-08-18T11:00:32Z</time>
      </trkpt>
      <trkpt lat="48.85344" lon="1.72316">
        <ele>90.41</ele>
        <time>2019-08-18T11:00:34Z</time>
      </trkpt>
      <trkpt lat="48.85349" lon="1.72324">
        <ele>90.68</ele>
        <time>2019-08-18T11:00:41Z</time>
      </trkpt>
      <trkpt lat="48.85353" lon="1.72329">
        <ele>90.77</ele>
        <time>2019-08-18T11:00:46Z</time>
      </trkpt>
      <trkpt lat="48.8536" lon="1.7234">
        <ele>90.83</ele>
        <time>2019-08-18T11:00:56Z</time>
      </trkpt>
      <trkpt lat="48.85363" lon="1.72344">
        <ele>91.09</ele>
        <time>2019-08-18T11:01:00Z</time>
      </trkpt>
      <trkpt lat="48.85372" lon="1.72359">
        <ele>90.75</ele>
        <time>2019-08-18T11:01:15Z</time>
      </trkpt>
      <trkpt lat="48.85372" lon="1.72377">
        <ele>90.69</ele>
        <time>2019-08-18T11:01:29Z</time>
      </trkpt>
      <trkpt lat="48.85373" lon="1.72405">
        <ele>91.63</ele>
        <time>2019-08-18T11:01:50Z</time>
      </trkpt>
      <trkpt lat="48.85375" lon="1.72431">
        <ele>92.87</ele>
        <time>2019-08-18T11:02:12Z</time>
      </trkpt>
      <trkpt lat="48.85373" lon="1.72466">
        <ele>93.85</ele>
        <time>2019-08-18T11:02:34Z</time>
      </trkpt>
      <trkpt lat="48.85369" lon="1.72493">
        <ele>94.22</ele>
        <time>2019-08-18T11:02:51Z</time>
      </trkpt>
      <trkpt lat="48.85366" lon="1.72513">
        <ele>94.83</ele>
        <time>2019-08-18T11:03:11Z</time>
      </trkpt>
      <trkpt lat="48.85366" lon="1.72537">
        <ele>95.43</ele>
        <time>2019-08-18T11:03:32Z</time>
      </trkpt>
      <trkpt lat="48.85368" lon="1.72558">
        <ele>96.16</ele>
        <time>2019-08-18T11:03:53Z</time>
      </trkpt>
      <trkpt lat="48.8537" lon="1.7258">
        <ele>96.07</ele>
        <time>2019-08-18T11:04:13Z</time>
      </trkpt>
      <trkpt lat="48.85369" lon="1.72606">
        <ele>96.24</ele>
        <time>2019-08-18T11:04:33Z</time>
      </trkpt>
      <trkpt lat="48.85377" lon="1.72619">
        <ele>96.74</ele>
        <time>2019-08-18T11:04:44Z</time>
      </trkpt>
      <trkpt lat="48.8538" lon="1.7265">
        <ele>96.31</ele>
        <time>2019-08-18T11:05:02Z</time>
      </trkpt>
      <trkpt lat="48.85383" lon="1.7267">
        <ele>96.88</ele>
        <time>2019-08-18T11:05:18Z</time>
      </trkpt>
      <trkpt lat="48.85386" lon="1.72691">
        <ele>96.37</ele>
        <time>2019-08-18T11:05:31Z</time>
      </trkpt>
      <trkpt lat="48.8539" lon="1.72711">
        <ele>96</ele>
        <time>2019-08-18T11:05:46Z</time>
      </trkpt>
      <trkpt lat="48.85395" lon="1.72739">
        <ele>95.57</ele>
        <time>2019-08-18T11:06:03Z</time>
      </trkpt>
      <trkpt lat="48.85396" lon="1.72751">
        <ele>95.12</ele>
        <time>2019-08-18T11:06:09Z</time>
      </trkpt>
      <trkpt lat="48.85398" lon="1.72759">
        <ele>95.06</ele>
        <time>2019-08-18T11:06:14Z</time>
      </trkpt>
      <trkpt lat="48.85401" lon="1.72785">
        <ele>94.66</ele>
        <time>2019-08-18T11:06:30Z</time>
      </trkpt>
      <trkpt lat="48.854" lon="1.72792">
        <ele>94.85</ele>
        <time>2019-08-18T11:06:36Z</time>
      </trkpt>
      <trkpt lat="48.85399" lon="1.72801">
        <ele>94.9</ele>
        <time>2019-08-18T11:06:40Z</time>
      </trkpt>
      <trkpt lat="48.85398" lon="1.72815">
        <ele>95.28</ele>
        <time>2019-08-18T11:06:47Z</time>
      </trkpt>
      <trkpt lat="48.85395" lon="1.7284">
        <ele>94.86</ele>
        <time>2019-08-18T11:07:01Z</time>
      </trkpt>
      <trkpt lat="48.85394" lon="1.72844">
        <ele>94.63</ele>
        <time>2019-08-18T11:07:04Z</time>
      </trkpt>
      <trkpt lat="48.85391" lon="1.72868">
        <ele>94.03</ele>
        <time>2019-08-18T11:07:17Z</time>
      </trkpt>
      <trkpt lat="48.85385" lon="1.72895">
        <ele>93.75</ele>
        <time>2019-08-18T11:07:32Z</time>
      </trkpt>
      <trkpt lat="48.85385" lon="1.72897">
        <ele>94.39</ele>
        <time>2019-08-18T11:07:33Z</time>
      </trkpt>
      <trkpt lat="48.85379" lon="1.72925">
        <ele>93.24</ele>
        <time>2019-08-18T11:07:51Z</time>
      </trkpt>
      <trkpt lat="48.85375" lon="1.72945">
        <ele>93.54</ele>
        <time>2019-08-18T11:08:03Z</time>
      </trkpt>
      <trkpt lat="48.85373" lon="1.72955">
        <ele>93.98</ele>
        <time>2019-08-18T11:08:09Z</time>
      </trkpt>
      <trkpt lat="48.85372" lon="1.72958">
        <ele>92.83</ele>
        <time>2019-08-18T11:08:11Z</time>
      </trkpt>
      <trkpt lat="48.85368" lon="1.72982">
        <ele>93.4</ele>
        <time>2019-08-18T11:08:25Z</time>
      </trkpt>
      <trkpt lat="48.85363" lon="1.73008">
        <ele>93.7</ele>
        <time>2019-08-18T11:08:40Z</time>
      </trkpt>
      <trkpt lat="48.85358" lon="1.7303">
        <ele>94.51</ele>
        <time>2019-08-18T11:08:54Z</time>
      </trkpt>
      <trkpt lat="48.85357" lon="1.73036">
        <ele>94.46</ele>
        <time>2019-08-18T11:08:58Z</time>
      </trkpt>
      <trkpt lat="48.85352" lon="1.73059">
        <ele>95.84</ele>
        <time>2019-08-18T11:09:12Z</time>
      </trkpt>
      <trkpt lat="48.85349" lon="1.73079">
        <ele>95.67</ele>
        <time>2019-08-18T11:09:25Z</time>
      </trkpt>
      <trkpt lat="48.85344" lon="1.73101">
        <ele>96.62</ele>
        <time>2019-08-18T11:09:40Z</time>
      </trkpt>
      <trkpt lat="48.8534" lon="1.73125">
        <ele>97.62</ele>
        <time>2019-08-18T11:09:55Z</time>
      </trkpt>
      <trkpt lat="48.85337" lon="1.73145">
        <ele>97.82</ele>
        <time>2019-08-18T11:10:09Z</time>
      </trkpt>
      <trkpt lat="48.85336" lon="1.7315">
        <ele>98.45</ele>
        <time>2019-08-18T11:10:12Z</time>
      </trkpt>
      <trkpt lat="48.85333" lon="1.73171">
        <ele>98.5</ele>
        <time>2019-08-18T11:10:26Z</time>
      </trkpt>
      <trkpt lat="48.85327" lon="1.73195">
        <ele>98.77</ele>
        <time>2019-08-18T11:10:42Z</time>
      </trkpt>
      <trkpt lat="48.85323" lon="1.73217">
        <ele>98.6</ele>
        <time>2019-08-18T11:10:56Z</time>
      </trkpt>
      <trkpt lat="48.8532" lon="1.73244">
        <ele>99.29</ele>
        <time>2019-08-18T11:11:12Z</time>
      </trkpt>
      <trkpt lat="48.85319" lon="1.73247">
        <ele>98.6</ele>
        <time>2019-08-18T11:11:15Z</time>
      </trkpt>
      <trkpt lat="48.85317" lon="1.73256">
        <ele>99.13</ele>
        <time>2019-08-18T11:11:21Z</time>
      </trkpt>
      <trkpt lat="48.85314" lon="1.73278">
        <ele>99.1</ele>
        <time>2019-08-18T11:11:36Z</time>
      </trkpt>
      <trkpt lat="48.85314" lon="1.73281">
        <ele>99.04</ele>
        <time>2019-08-18T11:11:38Z</time>
      </trkpt>
      <trkpt lat="48.8531" lon="1.73301">
        <ele>98.96</ele>
        <time>2019-08-18T11:11:51Z</time>
      </trkpt>
      <trkpt lat="48.85306" lon="1.73314">
        <ele>99.77</ele>
        <time>2019-08-18T11:12:00Z</time>
      </trkpt>
      <trkpt lat="48.853" lon="1.73339">
        <ele>100.82</ele>
        <time>2019-08-18T11:12:17Z</time>
      </trkpt>
      <trkpt lat="48.85296" lon="1.73354">
        <ele>101.09</ele>
        <time>2019-08-18T11:12:27Z</time>
      </trkpt>
      <trkpt lat="48.85289" lon="1.73374">
        <ele>101.33</ele>
        <time>2019-08-18T11:12:41Z</time>
      </trkpt>
      <trkpt lat="48.85288" lon="1.73381">
        <ele>101.74</ele>
        <time>2019-08-18T11:12:45Z</time>
      </trkpt>
      <trkpt lat="48.85286" lon="1.73401">
        <ele>102.09</ele>
        <time>2019-08-18T11:12:57Z</time>
      </trkpt>
      <trkpt lat="48.85285" lon="1.73411">
        <ele>102.23</ele>
        <time>2019-08-18T11:13:03Z</time>
      </trkpt>
      <trkpt lat="48.85284" lon="1.73435">
        <ele>102.04</ele>
        <time>2019-08-18T11:13:15Z</time>
      </trkpt>
      <trkpt lat="48.85282" lon="1.7344">
        <ele>102.27</ele>
        <time>2019-08-18T11:13:18Z</time>
      </trkpt>
      <trkpt lat="48.85281" lon="1.73443">
        <ele>102.07</ele>
        <time>2019-08-18T11:13:20Z</time>
      </trkpt>
      <trkpt lat="48.8528" lon="1.73448">
        <ele>102.09</ele>
        <time>2019-08-18T11:13:23Z</time>
      </trkpt>
      <trkpt lat="48.85277" lon="1.73457">
        <ele>101.9</ele>
        <time>2019-08-18T11:13:29Z</time>
      </trkpt>
      <trkpt lat="48.85265" lon="1.73472">
        <ele>101.8</ele>
        <time>2019-08-18T11:13:42Z</time>
      </trkpt>
      <trkpt lat="48.85254" lon="1.73487">
        <ele>101.58</ele>
        <time>2019-08-18T11:13:56Z</time>
      </trkpt>
      <trkpt lat="48.8526" lon="1.73502">
        <ele>102.51</ele>
        <time>2019-08-18T11:14:12Z</time>
      </trkpt>
      <trkpt lat="48.8527" lon="1.7351">
        <ele>102.66</ele>
        <time>2019-08-18T11:14:28Z</time>
      </trkpt>
      <trkpt lat="48.85288" lon="1.73521">
        <ele>102.95</ele>
        <time>2019-08-18T11:14:46Z</time>
      </trkpt>
      <trkpt lat="48.85301" lon="1.73547">
        <ele>103.02</ele>
        <time>2019-08-18T11:15:06Z</time>
      </trkpt>
      <trkpt lat="48.85314" lon="1.73574">
        <ele>103.14</ele>
        <time>2019-08-18T11:15:26Z</time>
      </trkpt>
      <trkpt lat="48.85326" lon="1.73586">
        <ele>103.21</ele>
        <time>2019-08-18T11:15:45Z</time>
      </trkpt>
      <trkpt lat="48.85336" lon="1.73615">
        <ele>103.99</ele>
        <time>2019-08-18T11:16:38Z</time>
      </trkpt>
      <trkpt lat="48.85338" lon="1.73619">
        <ele>107.09</ele>
        <time>2019-08-18T12:00:57Z</time>
      </trkpt>
      <trkpt lat="48.85344" lon="1.73639">
        <ele>106.95</ele>
        <time>2019-08-18T12:01:11Z</time>
      </trkpt>
      <trkpt lat="48.85351" lon="1.73664">
        <ele>107.12</ele>
        <time>2019-08-18T12:01:27Z</time>
      </trkpt>
      <trkpt lat="48.8536" lon="1.73689">
        <ele>107.18</ele>
        <time>2019-08-18T12:01:44Z</time>
      </trkpt>
      <trkpt lat="48.85363" lon="1.73696">
        <ele>107.7</ele>
        <time>2019-08-18T12:01:49Z</time>
      </trkpt>
      <trkpt lat="48.85369" lon="1.73702">
        <ele>107.15</ele>
        <time>2019-08-18T12:01:55Z</time>
      </trkpt>
      <trkpt lat="48.85378" lon="1.7372">
        <ele>107.85</ele>
        <time>2019-08-18T12:02:09Z</time>
      </trkpt>
      <trkpt lat="48.85387" lon="1.73735">
        <ele>107.58</ele>
        <time>2019-08-18T12:02:23Z</time>
      </trkpt>
      <trkpt lat="48.85392" lon="1.73742">
        <ele>107.07</ele>
        <time>2019-08-18T12:02:31Z</time>
      </trkpt>
      <trkpt lat="48.854" lon="1.73754">
        <ele>107.46</ele>
        <time>2019-08-18T12:02:46Z</time>
      </trkpt>
      <trkpt lat="48.85397" lon="1.73763">
        <ele>107.58</ele>
        <time>2019-08-18T12:03:11Z</time>
      </trkpt>
      <trkpt lat="48.85393" lon="1.73771">
        <ele>106.69</ele>
        <time>2019-08-18T12:03:18Z</time>
      </trkpt>
      <trkpt lat="48.85392" lon="1.73773">
        <ele>106.73</ele>
        <time>2019-08-18T12:03:20Z</time>
      </trkpt>
      <trkpt lat="48.85389" lon="1.73778">
        <ele>106.4</ele>
        <time>2019-08-18T12:03:24Z</time>
      </trkpt>
      <trkpt lat="48.85383" lon="1.73786">
        <ele>106.1</ele>
        <time>2019-08-18T12:03:33Z</time>
      </trkpt>
      <trkpt lat="48.8538" lon="1.73813">
        <ele>106.25</ele>
        <time>2019-08-18T12:03:49Z</time>
      </trkpt>
      <trkpt lat="48.8537" lon="1.73832">
        <ele>105.96</ele>
        <time>2019-08-18T12:04:03Z</time>
      </trkpt>
      <trkpt lat="48.8537" lon="1.73834">
        <ele>106.14</ele>
        <time>2019-08-18T12:04:04Z</time>
      </trkpt>
      <trkpt lat="48.85369" lon="1.73857">
        <ele>106.25</ele>
        <time>2019-08-18T12:04:19Z</time>
      </trkpt>
      <trkpt lat="48.8537" lon="1.73866">
        <ele>105.88</ele>
        <time>2019-08-18T12:04:24Z</time>
      </trkpt>
      <trkpt lat="48.85371" lon="1.73888">
        <ele>105.96</ele>
        <time>2019-08-18T12:04:37Z</time>
      </trkpt>
      <trkpt lat="48.8537" lon="1.73893">
        <ele>105.7</ele>
        <time>2019-08-18T12:04:40Z</time>
      </trkpt>
      <trkpt lat="48.8537" lon="1.73919">
        <ele>105.11</ele>
        <time>2019-08-18T12:04:57Z</time>
      </trkpt>
      <trkpt lat="48.85371" lon="1.73932">
        <ele>105.09</ele>
        <time>2019-08-18T12:05:06Z</time>
      </trkpt>
      <trkpt lat="48.85372" lon="1.73945">
        <ele>104.87</ele>
        <time>2019-08-18T12:05:13Z</time>
      </trkpt>
      <trkpt lat="48.85369" lon="1.73965">
        <ele>104.38</ele>
        <time>2019-08-18T12:05:23Z</time>
      </trkpt>
      <trkpt lat="48.85369" lon="1.73968">
        <ele>104.42</ele>
        <time>2019-08-18T12:05:25Z</time>
      </trkpt>
      <trkpt lat="48.85367" lon="1.73978">
        <ele>104.18</ele>
        <time>2019-08-18T12:05:31Z</time>
      </trkpt>
      <trkpt lat="48.85363" lon="1.73992">
        <ele>104.27</ele>
        <time>2019-08-18T12:05:45Z</time>
      </trkpt>
      <trkpt lat="48.85361" lon="1.74">
        <ele>104.34</ele>
        <time>2019-08-18T12:05:51Z</time>
      </trkpt>
      <trkpt lat="48.8536" lon="1.74004">
        <ele>104.55</ele>
        <time>2019-08-18T12:05:53Z</time>
      </trkpt>
      <trkpt lat="48.85353" lon="1.74024">
        <ele>103.81</ele>
        <time>2019-08-18T12:06:07Z</time>
      </trkpt>
      <trkpt lat="48.85352" lon="1.7403">
        <ele>103.74</ele>
        <time>2019-08-18T12:06:10Z</time>
      </trkpt>
      <trkpt lat="48.85346" lon="1.74052">
        <ele>103.65</ele>
        <time>2019-08-18T12:06:23Z</time>
      </trkpt>
      <trkpt lat="48.85343" lon="1.74075">
        <ele>102.63</ele>
        <time>2019-08-18T12:06:38Z</time>
      </trkpt>
      <trkpt lat="48.85341" lon="1.7408">
        <ele>102.82</ele>
        <time>2019-08-18T12:06:40Z</time>
      </trkpt>
      <trkpt lat="48.8534" lon="1.74085">
        <ele>103.21</ele>
        <time>2019-08-18T12:06:44Z</time>
      </trkpt>
      <trkpt lat="48.85336" lon="1.74089">
        <ele>102.84</ele>
        <time>2019-08-18T12:06:47Z</time>
      </trkpt>
      <trkpt lat="48.85331" lon="1.74096">
        <ele>102.97</ele>
        <time>2019-08-18T12:06:52Z</time>
      </trkpt>
      <trkpt lat="48.8533" lon="1.74101">
        <ele>102.83</ele>
        <time>2019-08-18T12:06:55Z</time>
      </trkpt>
      <trkpt lat="48.85328" lon="1.74108">
        <ele>102.6</ele>
        <time>2019-08-18T12:06:59Z</time>
      </trkpt>
      <trkpt lat="48.85318" lon="1.74125">
        <ele>102.38</ele>
        <time>2019-08-18T12:07:11Z</time>
      </trkpt>
      <trkpt lat="48.85315" lon="1.74132">
        <ele>102.14</ele>
        <time>2019-08-18T12:07:15Z</time>
      </trkpt>
      <trkpt lat="48.85307" lon="1.74152">
        <ele>101.92</ele>
        <time>2019-08-18T12:07:31Z</time>
      </trkpt>
      <trkpt lat="48.85296" lon="1.74181">
        <ele>101.57</ele>
        <time>2019-08-18T12:07:50Z</time>
      </trkpt>
      <trkpt lat="48.85295" lon="1.74187">
        <ele>101.39</ele>
        <time>2019-08-18T12:07:54Z</time>
      </trkpt>
      <trkpt lat="48.85292" lon="1.74194">
        <ele>101.3</ele>
        <time>2019-08-18T12:07:59Z</time>
      </trkpt>
      <trkpt lat="48.85289" lon="1.74198">
        <ele>100.8</ele>
        <time>2019-08-18T12:08:02Z</time>
      </trkpt>
      <trkpt lat="48.85288" lon="1.74203">
        <ele>100.88</ele>
        <time>2019-08-18T12:08:05Z</time>
      </trkpt>
      <trkpt lat="48.85285" lon="1.74209">
        <ele>101.14</ele>
        <time>2019-08-18T12:08:09Z</time>
      </trkpt>
      <trkpt lat="48.85278" lon="1.74226">
        <ele>100.53</ele>
        <time>2019-08-18T12:08:19Z</time>
      </trkpt>
      <trkpt lat="48.85269" lon="1.7425">
        <ele>99.84</ele>
        <time>2019-08-18T12:08:34Z</time>
      </trkpt>
      <trkpt lat="48.85258" lon="1.74281">
        <ele>98.87</ele>
        <time>2019-08-18T12:08:53Z</time>
      </trkpt>
      <trkpt lat="48.8525" lon="1.7431">
        <ele>98.49</ele>
        <time>2019-08-18T12:09:10Z</time>
      </trkpt>
      <trkpt lat="48.85247" lon="1.74318">
        <ele>98.07</ele>
        <time>2019-08-18T12:09:15Z</time>
      </trkpt>
      <trkpt lat="48.85238" lon="1.74345">
        <ele>97.55</ele>
        <time>2019-08-18T12:09:31Z</time>
      </trkpt>
      <trkpt lat="48.85236" lon="1.74352">
        <ele>97.37</ele>
        <time>2019-08-18T12:09:35Z</time>
      </trkpt>
      <trkpt lat="48.85234" lon="1.74368">
        <ele>97.08</ele>
        <time>2019-08-18T12:09:44Z</time>
      </trkpt>
      <trkpt lat="48.85226" lon="1.74395">
        <ele>96.15</ele>
        <time>2019-08-18T12:10:01Z</time>
      </trkpt>
      <trkpt lat="48.85225" lon="1.74403">
        <ele>96.22</ele>
        <time>2019-08-18T12:10:06Z</time>
      </trkpt>
      <trkpt lat="48.85224" lon="1.74405">
        <ele>96.1</ele>
        <time>2019-08-18T12:10:08Z</time>
      </trkpt>
      <trkpt lat="48.85215" lon="1.74429">
        <ele>95.78</ele>
        <time>2019-08-18T12:10:24Z</time>
      </trkpt>
      <trkpt lat="48.85211" lon="1.74441">
        <ele>95.11</ele>
        <time>2019-08-18T12:10:32Z</time>
      </trkpt>
      <trkpt lat="48.8521" lon="1.74444">
        <ele>95.16</ele>
        <time>2019-08-18T12:10:34Z</time>
      </trkpt>
      <trkpt lat="48.85206" lon="1.74456">
        <ele>94.69</ele>
        <time>2019-08-18T12:10:42Z</time>
      </trkpt>
      <trkpt lat="48.85197" lon="1.74477">
        <ele>94.79</ele>
        <time>2019-08-18T12:10:57Z</time>
      </trkpt>
      <trkpt lat="48.85193" lon="1.74483">
        <ele>94.45</ele>
        <time>2019-08-18T12:11:02Z</time>
      </trkpt>
      <trkpt lat="48.85181" lon="1.74504">
        <ele>94.65</ele>
        <time>2019-08-18T12:11:17Z</time>
      </trkpt>
      <trkpt lat="48.85169" lon="1.74521">
        <ele>94.36</ele>
        <time>2019-08-18T12:11:32Z</time>
      </trkpt>
      <trkpt lat="48.85155" lon="1.74538">
        <ele>94.12</ele>
        <time>2019-08-18T12:11:49Z</time>
      </trkpt>
      <trkpt lat="48.8514" lon="1.74557">
        <ele>93.86</ele>
        <time>2019-08-18T12:12:06Z</time>
      </trkpt>
      <trkpt lat="48.85128" lon="1.7457">
        <ele>93.6</ele>
        <time>2019-08-18T12:12:21Z</time>
      </trkpt>
      <trkpt lat="48.85124" lon="1.74574">
        <ele>93.49</ele>
        <time>2019-08-18T12:12:43Z</time>
      </trkpt>
      <trkpt lat="48.85113" lon="1.74585">
        <ele>93.87</ele>
        <time>2019-08-18T12:13:02Z</time>
      </trkpt>
      <trkpt lat="48.85102" lon="1.74606">
        <ele>93.77</ele>
        <time>2019-08-18T12:13:25Z</time>
      </trkpt>
      <trkpt lat="48.85095" lon="1.74615">
        <ele>95.34</ele>
        <time>2019-08-18T12:13:46Z</time>
      </trkpt>
      <trkpt lat="48.85088" lon="1.74616">
        <ele>95.76</ele>
        <time>2019-08-18T12:14:08Z</time>
      </trkpt>
      <trkpt lat="48.85086" lon="1.7462">
        <ele>95.56</ele>
        <time>2019-08-18T12:14:35Z</time>
      </trkpt>
      <trkpt lat="48.85084" lon="1.74619">
        <ele>95.95</ele>
        <time>2019-08-18T12:14:56Z</time>
      </trkpt>
      <trkpt lat="48.85072" lon="1.74633">
        <ele>97.54</ele>
        <time>2019-08-18T12:15:17Z</time>
      </trkpt>
      <trkpt lat="48.85064" lon="1.74653">
        <ele>98.44</ele>
        <time>2019-08-18T12:15:38Z</time>
      </trkpt>
      <trkpt lat="48.85059" lon="1.74674">
        <ele>99.07</ele>
        <time>2019-08-18T12:16:00Z</time>
      </trkpt>
      <trkpt lat="48.85056" lon="1.74686">
        <ele>98.84</ele>
        <time>2019-08-18T12:16:24Z</time>
      </trkpt>
      <trkpt lat="48.85058" lon="1.7469">
        <ele>98.82</ele>
        <time>2019-08-18T12:16:52Z</time>
      </trkpt>
      <trkpt lat="48.85058" lon="1.74692">
        <ele>98.85</ele>
        <time>2019-08-18T12:17:16Z</time>
      </trkpt>
      <trkpt lat="48.8506" lon="1.74692">
        <ele>98.56</ele>
        <time>2019-08-18T12:17:45Z</time>
      </trkpt>
      <trkpt lat="48.85051" lon="1.747">
        <ele>99.26</ele>
        <time>2019-08-18T12:18:06Z</time>
      </trkpt>
      <trkpt lat="48.8505" lon="1.74704">
        <ele>99.03</ele>
        <time>2019-08-18T12:18:11Z</time>
      </trkpt>
      <trkpt lat="48.85055" lon="1.7472">
        <ele>99.5</ele>
        <time>2019-08-18T12:18:32Z</time>
      </trkpt>
      <trkpt lat="48.85062" lon="1.74735">
        <ele>99.74</ele>
        <time>2019-08-18T12:18:52Z</time>
      </trkpt>
      <trkpt lat="48.85071" lon="1.74756">
        <ele>99.99</ele>
        <time>2019-08-18T12:19:11Z</time>
      </trkpt>
      <trkpt lat="48.85082" lon="1.74779">
        <ele>100.26</ele>
        <time>2019-08-18T12:19:30Z</time>
      </trkpt>
      <trkpt lat="48.85092" lon="1.74795">
        <ele>100.34</ele>
        <time>2019-08-18T12:19:51Z</time>
      </trkpt>
      <trkpt lat="48.85103" lon="1.74817">
        <ele>99.68</ele>
        <time>2019-08-18T12:20:12Z</time>
      </trkpt>
      <trkpt lat="48.85109" lon="1.74837">
        <ele>99.42</ele>
        <time>2019-08-18T12:20:30Z</time>
      </trkpt>
      <trkpt lat="48.85125" lon="1.74854">
        <ele>99.67</ele>
        <time>2019-08-18T12:20:51Z</time>
      </trkpt>
      <trkpt lat="48.85138" lon="1.74869">
        <ele>99.83</ele>
        <time>2019-08-18T12:21:10Z</time>
      </trkpt>
      <trkpt lat="48.85147" lon="1.74888">
        <ele>99.23</ele>
        <time>2019-08-18T12:21:26Z</time>
      </trkpt>
      <trkpt lat="48.8515" lon="1.74895">
        <ele>99.21</ele>
        <time>2019-08-18T12:21:31Z</time>
      </trkpt>
      <trkpt lat="48.85156" lon="1.74917">
        <ele>99.03</ele>
        <time>2019-08-18T12:21:45Z</time>
      </trkpt>
      <trkpt lat="48.85157" lon="1.74927">
        <ele>99.23</ele>
        <time>2019-08-18T12:21:52Z</time>
      </trkpt>
      <trkpt lat="48.85159" lon="1.74953">
        <ele>98.6</ele>
        <time>2019-08-18T12:22:08Z</time>
      </trkpt>
      <trkpt lat="48.85162" lon="1.7498">
        <ele>99.06</ele>
        <time>2019-08-18T12:22:24Z</time>
      </trkpt>
      <trkpt lat="48.85165" lon="1.75006">
        <ele>99.03</ele>
        <time>2019-08-18T12:22:40Z</time>
      </trkpt>
      <trkpt lat="48.85167" lon="1.75014">
        <ele>99.28</ele>
        <time>2019-08-18T12:22:46Z</time>
      </trkpt>
      <trkpt lat="48.85168" lon="1.75024">
        <ele>98.54</ele>
        <time>2019-08-18T12:22:53Z</time>
      </trkpt>
      <trkpt lat="48.85169" lon="1.75046">
        <ele>99.73</ele>
        <time>2019-08-18T12:23:09Z</time>
      </trkpt>
      <trkpt lat="48.85169" lon="1.75057">
        <ele>100.1</ele>
        <time>2019-08-18T12:23:17Z</time>
      </trkpt>
      <trkpt lat="48.85169" lon="1.75068">
        <ele>99.94</ele>
        <time>2019-08-18T12:23:24Z</time>
      </trkpt>
      <trkpt lat="48.85168" lon="1.75088">
        <ele>99.72</ele>
        <time>2019-08-18T12:23:38Z</time>
      </trkpt>
      <trkpt lat="48.85168" lon="1.75091">
        <ele>100.03</ele>
        <time>2019-08-18T12:23:40Z</time>
      </trkpt>
      <trkpt lat="48.85165" lon="1.75111">
        <ele>100.57</ele>
        <time>2019-08-18T12:23:58Z</time>
      </trkpt>
      <trkpt lat="48.85159" lon="1.75136">
        <ele>100.08</ele>
        <time>2019-08-18T12:24:16Z</time>
      </trkpt>
      <trkpt lat="48.85152" lon="1.75163">
        <ele>100.71</ele>
        <time>2019-08-18T12:24:37Z</time>
      </trkpt>
      <trkpt lat="48.85143" lon="1.75182">
        <ele>100.92</ele>
        <time>2019-08-18T12:24:52Z</time>
      </trkpt>
      <trkpt lat="48.85129" lon="1.75196">
        <ele>101.03</ele>
        <time>2019-08-18T12:25:12Z</time>
      </trkpt>
      <trkpt lat="48.85116" lon="1.75206">
        <ele>101.79</ele>
        <time>2019-08-18T12:25:30Z</time>
      </trkpt>
      <trkpt lat="48.85105" lon="1.75216">
        <ele>101.11</ele>
        <time>2019-08-18T12:25:47Z</time>
      </trkpt>
      <trkpt lat="48.85092" lon="1.75228">
        <ele>101.62</ele>
        <time>2019-08-18T12:26:03Z</time>
      </trkpt>
      <trkpt lat="48.85079" lon="1.75234">
        <ele>102.15</ele>
        <time>2019-08-18T12:26:20Z</time>
      </trkpt>
      <trkpt lat="48.85077" lon="1.75239">
        <ele>101.69</ele>
        <time>2019-08-18T12:26:39Z</time>
      </trkpt>
      <trkpt lat="48.85076" lon="1.75241">
        <ele>101.66</ele>
        <time>2019-08-18T12:26:59Z</time>
      </trkpt>
      <trkpt lat="48.85075" lon="1.75242">
        <ele>102.14</ele>
        <time>2019-08-18T12:27:21Z</time>
      </trkpt>
      <trkpt lat="48.85065" lon="1.75243">
        <ele>102.53</ele>
        <time>2019-08-18T12:27:38Z</time>
      </trkpt>
      <trkpt lat="48.85065" lon="1.75243">
        <ele>102.97</ele>
        <time>2019-08-18T12:27:39Z</time>
      </trkpt>
      <trkpt lat="48.85057" lon="1.75246">
        <ele>102.64</ele>
        <time>2019-08-18T12:27:47Z</time>
      </trkpt>
      <trkpt lat="48.85051" lon="1.75245">
        <ele>102.16</ele>
        <time>2019-08-18T12:27:53Z</time>
      </trkpt>
      <trkpt lat="48.85042" lon="1.75244">
        <ele>101.95</ele>
        <time>2019-08-18T12:28:03Z</time>
      </trkpt>
      <trkpt lat="48.85038" lon="1.75244">
        <ele>102</ele>
        <time>2019-08-18T12:28:07Z</time>
      </trkpt>
      <trkpt lat="48.85021" lon="1.75237">
        <ele>102.08</ele>
        <time>2019-08-18T12:28:25Z</time>
      </trkpt>
      <trkpt lat="48.85006" lon="1.75233">
        <ele>102.52</ele>
        <time>2019-08-18T12:28:41Z</time>
      </trkpt>
      <trkpt lat="48.84996" lon="1.75229">
        <ele>101.89</ele>
        <time>2019-08-18T12:28:53Z</time>
      </trkpt>
      <trkpt lat="48.84985" lon="1.75226">
        <ele>102.17</ele>
        <time>2019-08-18T12:29:06Z</time>
      </trkpt>
      <trkpt lat="48.8497" lon="1.75221">
        <ele>102.38</ele>
        <time>2019-08-18T12:29:21Z</time>
      </trkpt>
      <trkpt lat="48.84954" lon="1.75221">
        <ele>102.18</ele>
        <time>2019-08-18T12:29:37Z</time>
      </trkpt>
      <trkpt lat="48.84939" lon="1.75223">
        <ele>102.67</ele>
        <time>2019-08-18T12:29:52Z</time>
      </trkpt>
      <trkpt lat="48.84926" lon="1.75225">
        <ele>102.04</ele>
        <time>2019-08-18T12:30:05Z</time>
      </trkpt>
      <trkpt lat="48.84913" lon="1.75233">
        <ele>102</ele>
        <time>2019-08-18T12:30:18Z</time>
      </trkpt>
      <trkpt lat="48.84902" lon="1.75241">
        <ele>102.06</ele>
        <time>2019-08-18T12:30:31Z</time>
      </trkpt>
      <trkpt lat="48.8489" lon="1.75255">
        <ele>102.73</ele>
        <time>2019-08-18T12:30:47Z</time>
      </trkpt>
      <trkpt lat="48.84887" lon="1.75258">
        <ele>102.2</ele>
        <time>2019-08-18T12:30:53Z</time>
      </trkpt>
      <trkpt lat="48.84883" lon="1.75262">
        <ele>102.02</ele>
        <time>2019-08-18T12:30:57Z</time>
      </trkpt>
      <trkpt lat="48.84879" lon="1.75267">
        <ele>102.31</ele>
        <time>2019-08-18T12:31:03Z</time>
      </trkpt>
      <trkpt lat="48.84873" lon="1.75273">
        <ele>102.55</ele>
        <time>2019-08-18T12:31:09Z</time>
      </trkpt>
      <trkpt lat="48.84871" lon="1.75277">
        <ele>102.33</ele>
        <time>2019-08-18T12:31:12Z</time>
      </trkpt>
      <trkpt lat="48.84858" lon="1.75297">
        <ele>102.05</ele>
        <time>2019-08-18T12:31:28Z</time>
      </trkpt>
      <trkpt lat="48.84858" lon="1.75299">
        <ele>102.25</ele>
        <time>2019-08-18T12:31:29Z</time>
      </trkpt>
      <trkpt lat="48.84856" lon="1.75301">
        <ele>102.06</ele>
        <time>2019-08-18T12:31:31Z</time>
      </trkpt>
      <trkpt lat="48.84848" lon="1.75316">
        <ele>101.73</ele>
        <time>2019-08-18T12:31:43Z</time>
      </trkpt>
      <trkpt lat="48.84846" lon="1.7532">
        <ele>101.87</ele>
        <time>2019-08-18T12:31:46Z</time>
      </trkpt>
      <trkpt lat="48.84841" lon="1.75329">
        <ele>102.01</ele>
        <time>2019-08-18T12:31:54Z</time>
      </trkpt>
      <trkpt lat="48.8484" lon="1.75332">
        <ele>101.88</ele>
        <time>2019-08-18T12:31:56Z</time>
      </trkpt>
      <trkpt lat="48.84834" lon="1.75343">
        <ele>101.74</ele>
        <time>2019-08-18T12:32:13Z</time>
      </trkpt>
      <trkpt lat="48.84834" lon="1.75345">
        <ele>101.75</ele>
        <time>2019-08-18T12:32:36Z</time>
      </trkpt>
      <trkpt lat="48.8483" lon="1.7535">
        <ele>101.51</ele>
        <time>2019-08-18T12:32:48Z</time>
      </trkpt>
      <trkpt lat="48.84827" lon="1.75354">
        <ele>102.19</ele>
        <time>2019-08-18T12:32:52Z</time>
      </trkpt>
      <trkpt lat="48.84823" lon="1.75363">
        <ele>102.1</ele>
        <time>2019-08-18T12:32:59Z</time>
      </trkpt>
      <trkpt lat="48.84821" lon="1.75366">
        <ele>102.48</ele>
        <time>2019-08-18T12:33:01Z</time>
      </trkpt>
      <trkpt lat="48.84812" lon="1.75385">
        <ele>101.69</ele>
        <time>2019-08-18T12:33:17Z</time>
      </trkpt>
      <trkpt lat="48.84803" lon="1.75408">
        <ele>101.24</ele>
        <time>2019-08-18T12:33:33Z</time>
      </trkpt>
      <trkpt lat="48.84796" lon="1.75429">
        <ele>101.44</ele>
        <time>2019-08-18T12:33:48Z</time>
      </trkpt>
      <trkpt lat="48.84795" lon="1.75439">
        <ele>101.38</ele>
        <time>2019-08-18T12:33:55Z</time>
      </trkpt>
      <trkpt lat="48.84793" lon="1.75443">
        <ele>101.27</ele>
        <time>2019-08-18T12:33:58Z</time>
      </trkpt>
      <trkpt lat="48.84788" lon="1.75471">
        <ele>101.37</ele>
        <time>2019-08-18T12:34:15Z</time>
      </trkpt>
      <trkpt lat="48.84786" lon="1.7549">
        <ele>101.6</ele>
        <time>2019-08-18T12:34:31Z</time>
      </trkpt>
      <trkpt lat="48.84785" lon="1.75497">
        <ele>101.25</ele>
        <time>2019-08-18T12:34:36Z</time>
      </trkpt>
      <trkpt lat="48.84785" lon="1.755">
        <ele>101.39</ele>
        <time>2019-08-18T12:34:38Z</time>
      </trkpt>
      <trkpt lat="48.84782" lon="1.75525">
        <ele>100.99</ele>
        <time>2019-08-18T12:34:54Z</time>
      </trkpt>
      <trkpt lat="48.8478" lon="1.75544">
        <ele>101.6</ele>
        <time>2019-08-18T12:35:07Z</time>
      </trkpt>
      <trkpt lat="48.84778" lon="1.75551">
        <ele>101.76</ele>
        <time>2019-08-18T12:35:26Z</time>
      </trkpt>
      <trkpt lat="48.84777" lon="1.75556">
        <ele>101.64</ele>
        <time>2019-08-18T12:35:50Z</time>
      </trkpt>
      <trkpt lat="48.84776" lon="1.75555">
        <ele>101.6</ele>
        <time>2019-08-18T12:36:25Z</time>
      </trkpt>
      <trkpt lat="48.84776" lon="1.75556">
        <ele>101.21</ele>
        <time>2019-08-18T12:36:45Z</time>
      </trkpt>
      <trkpt lat="48.84777" lon="1.75559">
        <ele>101.02</ele>
        <time>2019-08-18T12:37:05Z</time>
      </trkpt>
      <trkpt lat="48.84778" lon="1.75562">
        <ele>100.75</ele>
        <time>2019-08-18T12:37:07Z</time>
      </trkpt>
      <trkpt lat="48.84777" lon="1.75567">
        <ele>101.09</ele>
        <time>2019-08-18T12:37:10Z</time>
      </trkpt>
      <trkpt lat="48.84768" lon="1.75592">
        <ele>100.65</ele>
        <time>2019-08-18T12:37:28Z</time>
      </trkpt>
      <trkpt lat="48.84758" lon="1.75615">
        <ele>100.69</ele>
        <time>2019-08-18T12:37:45Z</time>
      </trkpt>
      <trkpt lat="48.84743" lon="1.75636">
        <ele>100.66</ele>
        <time>2019-08-18T12:38:03Z</time>
      </trkpt>
      <trkpt lat="48.84729" lon="1.75649">
        <ele>101.01</ele>
        <time>2019-08-18T12:38:18Z</time>
      </trkpt>
      <trkpt lat="48.84709" lon="1.75662">
        <ele>100.57</ele>
        <time>2019-08-18T12:38:36Z</time>
      </trkpt>
      <trkpt lat="48.8469" lon="1.75668">
        <ele>100.67</ele>
        <time>2019-08-18T12:38:54Z</time>
      </trkpt>
      <trkpt lat="48.84687" lon="1.7567">
        <ele>100.85</ele>
        <time>2019-08-18T12:38:57Z</time>
      </trkpt>
      <trkpt lat="48.84678" lon="1.75673">
        <ele>100.75</ele>
        <time>2019-08-18T12:39:05Z</time>
      </trkpt>
      <trkpt lat="48.8466" lon="1.75677">
        <ele>99.71</ele>
        <time>2019-08-18T12:39:22Z</time>
      </trkpt>
      <trkpt lat="48.84641" lon="1.75679">
        <ele>99.64</ele>
        <time>2019-08-18T12:39:39Z</time>
      </trkpt>
      <trkpt lat="48.84625" lon="1.75681">
        <ele>99.64</ele>
        <time>2019-08-18T12:39:55Z</time>
      </trkpt>
      <trkpt lat="48.84607" lon="1.75682">
        <ele>98.97</ele>
        <time>2019-08-18T12:40:13Z</time>
      </trkpt>
      <trkpt lat="48.84589" lon="1.75683">
        <ele>99.26</ele>
        <time>2019-08-18T12:40:29Z</time>
      </trkpt>
      <trkpt lat="48.8457" lon="1.75682">
        <ele>100.28</ele>
        <time>2019-08-18T12:40:45Z</time>
      </trkpt>
      <trkpt lat="48.84565" lon="1.75682">
        <ele>99.65</ele>
        <time>2019-08-18T12:40:50Z</time>
      </trkpt>
      <trkpt lat="48.84549" lon="1.75681">
        <ele>98.99</ele>
        <time>2019-08-18T12:41:05Z</time>
      </trkpt>
      <trkpt lat="48.84529" lon="1.75678">
        <ele>98.75</ele>
        <time>2019-08-18T12:41:23Z</time>
      </trkpt>
      <trkpt lat="48.84511" lon="1.75679">
        <ele>98.89</ele>
        <time>2019-08-18T12:41:40Z</time>
      </trkpt>
      <trkpt lat="48.84507" lon="1.75678">
        <ele>98.39</ele>
        <time>2019-08-18T12:41:44Z</time>
      </trkpt>
      <trkpt lat="48.84502" lon="1.75679">
        <ele>97.8</ele>
        <time>2019-08-18T12:41:48Z</time>
      </trkpt>
      <trkpt lat="48.84491" lon="1.75678">
        <ele>98.78</ele>
        <time>2019-08-18T12:42:00Z</time>
      </trkpt>
      <trkpt lat="48.8447" lon="1.75676">
        <ele>99.16</ele>
        <time>2019-08-18T12:42:20Z</time>
      </trkpt>
      <trkpt lat="48.84455" lon="1.75678">
        <ele>99.01</ele>
        <time>2019-08-18T12:42:34Z</time>
      </trkpt>
      <trkpt lat="48.84438" lon="1.75681">
        <ele>97.7</ele>
        <time>2019-08-18T12:42:51Z</time>
      </trkpt>
      <trkpt lat="48.84419" lon="1.75683">
        <ele>98.54</ele>
        <time>2019-08-18T12:43:10Z</time>
      </trkpt>
      <trkpt lat="48.84413" lon="1.75685">
        <ele>98.34</ele>
        <time>2019-08-18T12:43:17Z</time>
      </trkpt>
      <trkpt lat="48.84399" lon="1.75692">
        <ele>99.12</ele>
        <time>2019-08-18T12:43:32Z</time>
      </trkpt>
      <trkpt lat="48.84387" lon="1.75704">
        <ele>99.26</ele>
        <time>2019-08-18T12:43:48Z</time>
      </trkpt>
      <trkpt lat="48.84372" lon="1.75718">
        <ele>100.22</ele>
        <time>2019-08-18T12:44:02Z</time>
      </trkpt>
      <trkpt lat="48.84368" lon="1.75722">
        <ele>99.61</ele>
        <time>2019-08-18T12:44:20Z</time>
      </trkpt>
      <trkpt lat="48.84352" lon="1.75746">
        <ele>100.03</ele>
        <time>2019-08-18T12:44:40Z</time>
      </trkpt>
      <trkpt lat="48.84339" lon="1.75762">
        <ele>99.52</ele>
        <time>2019-08-18T12:44:55Z</time>
      </trkpt>
      <trkpt lat="48.84324" lon="1.75785">
        <ele>99.76</ele>
        <time>2019-08-18T12:45:13Z</time>
      </trkpt>
      <trkpt lat="48.84313" lon="1.75807">
        <ele>99.94</ele>
        <time>2019-08-18T12:45:28Z</time>
      </trkpt>
      <trkpt lat="48.84303" lon="1.75828">
        <ele>99.95</ele>
        <time>2019-08-18T12:45:43Z</time>
      </trkpt>
      <trkpt lat="48.84291" lon="1.75855">
        <ele>100.03</ele>
        <time>2019-08-18T12:46:02Z</time>
      </trkpt>
      <trkpt lat="48.8428" lon="1.75877">
        <ele>99.88</ele>
        <time>2019-08-18T12:46:18Z</time>
      </trkpt>
      <trkpt lat="48.8427" lon="1.75901">
        <ele>99.88</ele>
        <time>2019-08-18T12:46:35Z</time>
      </trkpt>
      <trkpt lat="48.84257" lon="1.75926">
        <ele>100.05</ele>
        <time>2019-08-18T12:46:52Z</time>
      </trkpt>
      <trkpt lat="48.8425" lon="1.75935">
        <ele>99.68</ele>
        <time>2019-08-18T12:47:01Z</time>
      </trkpt>
      <trkpt lat="48.84245" lon="1.75948">
        <ele>98.99</ele>
        <time>2019-08-18T12:47:16Z</time>
      </trkpt>
      <trkpt lat="48.84234" lon="1.75964">
        <ele>99.11</ele>
        <time>2019-08-18T12:47:29Z</time>
      </trkpt>
      <trkpt lat="48.8422" lon="1.75985">
        <ele>99.22</ele>
        <time>2019-08-18T12:47:44Z</time>
      </trkpt>
      <trkpt lat="48.84204" lon="1.76011">
        <ele>98.31</ele>
        <time>2019-08-18T12:48:03Z</time>
      </trkpt>
      <trkpt lat="48.84187" lon="1.76033">
        <ele>97.78</ele>
        <time>2019-08-18T12:48:21Z</time>
      </trkpt>
      <trkpt lat="48.84174" lon="1.76048">
        <ele>97.49</ele>
        <time>2019-08-18T12:48:35Z</time>
      </trkpt>
      <trkpt lat="48.84156" lon="1.76072">
        <ele>96.72</ele>
        <time>2019-08-18T12:48:54Z</time>
      </trkpt>
      <trkpt lat="48.84147" lon="1.76084">
        <ele>96.27</ele>
        <time>2019-08-18T12:49:05Z</time>
      </trkpt>
      <trkpt lat="48.84129" lon="1.761">
        <ele>95.67</ele>
        <time>2019-08-18T12:49:22Z</time>
      </trkpt>
      <trkpt lat="48.84127" lon="1.76102">
        <ele>94.91</ele>
        <time>2019-08-18T12:49:24Z</time>
      </trkpt>
      <trkpt lat="48.84113" lon="1.7612">
        <ele>94.41</ele>
        <time>2019-08-18T12:49:40Z</time>
      </trkpt>
      <trkpt lat="48.84096" lon="1.76136">
        <ele>93.33</ele>
        <time>2019-08-18T12:49:57Z</time>
      </trkpt>
      <trkpt lat="48.84082" lon="1.76151">
        <ele>93.03</ele>
        <time>2019-08-18T12:50:12Z</time>
      </trkpt>
      <trkpt lat="48.8407" lon="1.76161">
        <ele>92.09</ele>
        <time>2019-08-18T12:50:27Z</time>
      </trkpt>
      <trkpt lat="48.84064" lon="1.76167">
        <ele>91.23</ele>
        <time>2019-08-18T12:50:41Z</time>
      </trkpt>
      <trkpt lat="48.84062" lon="1.76168">
        <ele>91.38</ele>
        <time>2019-08-18T12:51:00Z</time>
      </trkpt>
      <trkpt lat="48.84063" lon="1.76168">
        <ele>91.43</ele>
        <time>2019-08-18T12:51:31Z</time>
      </trkpt>
      <trkpt lat="48.84063" lon="1.76168">
        <ele>91.8</ele>
        <time>2019-08-18T12:51:55Z</time>
      </trkpt>
      <trkpt lat="48.84062" lon="1.76168">
        <ele>91.33</ele>
        <time>2019-08-18T12:52:21Z</time>
      </trkpt>
      <trkpt lat="48.84059" lon="1.76169">
        <ele>91.6</ele>
        <time>2019-08-18T12:52:40Z</time>
      </trkpt>
      <trkpt lat="48.84058" lon="1.76171">
        <ele>91.72</ele>
        <time>2019-08-18T12:52:56Z</time>
      </trkpt>
      <trkpt lat="48.8405" lon="1.76181">
        <ele>91.19</ele>
        <time>2019-08-18T12:53:13Z</time>
      </trkpt>
      <trkpt lat="48.84047" lon="1.76189">
        <ele>90.93</ele>
        <time>2019-08-18T12:53:20Z</time>
      </trkpt>
      <trkpt lat="48.84032" lon="1.76203">
        <ele>90.18</ele>
        <time>2019-08-18T12:53:37Z</time>
      </trkpt>
      <trkpt lat="48.84019" lon="1.76216">
        <ele>90.09</ele>
        <time>2019-08-18T12:53:52Z</time>
      </trkpt>
      <trkpt lat="48.84014" lon="1.76223">
        <ele>89.54</ele>
        <time>2019-08-18T12:53:59Z</time>
      </trkpt>
      <trkpt lat="48.84001" lon="1.76235">
        <ele>89.49</ele>
        <time>2019-08-18T12:54:16Z</time>
      </trkpt>
      <trkpt lat="48.83999" lon="1.76237">
        <ele>90.24</ele>
        <time>2019-08-18T12:54:37Z</time>
      </trkpt>
      <trkpt lat="48.83995" lon="1.7624">
        <ele>90.52</ele>
        <time>2019-08-18T12:54:49Z</time>
      </trkpt>
      <trkpt lat="48.83989" lon="1.76247">
        <ele>90.83</ele>
        <time>2019-08-18T12:55:04Z</time>
      </trkpt>
      <trkpt lat="48.83986" lon="1.76252">
        <ele>90.61</ele>
        <time>2019-08-18T12:55:09Z</time>
      </trkpt>
      <trkpt lat="48.83977" lon="1.76262">
        <ele>90.93</ele>
        <time>2019-08-18T12:55:25Z</time>
      </trkpt>
      <trkpt lat="48.8397" lon="1.76276">
        <ele>90.7</ele>
        <time>2019-08-18T12:55:39Z</time>
      </trkpt>
      <trkpt lat="48.83969" lon="1.76278">
        <ele>91.12</ele>
        <time>2019-08-18T12:55:41Z</time>
      </trkpt>
      <trkpt lat="48.83959" lon="1.76293">
        <ele>91.25</ele>
        <time>2019-08-18T12:55:56Z</time>
      </trkpt>
      <trkpt lat="48.83957" lon="1.76295">
        <ele>91.27</ele>
        <time>2019-08-18T12:55:58Z</time>
      </trkpt>
      <trkpt lat="48.83945" lon="1.76316">
        <ele>92.25</ele>
        <time>2019-08-18T12:56:15Z</time>
      </trkpt>
      <trkpt lat="48.83941" lon="1.76321">
        <ele>92.03</ele>
        <time>2019-08-18T12:56:20Z</time>
      </trkpt>
      <trkpt lat="48.83934" lon="1.7634">
        <ele>92.74</ele>
        <time>2019-08-18T12:56:33Z</time>
      </trkpt>
      <trkpt lat="48.83926" lon="1.76359">
        <ele>92.72</ele>
        <time>2019-08-18T12:56:48Z</time>
      </trkpt>
      <trkpt lat="48.83917" lon="1.76381">
        <ele>92.96</ele>
        <time>2019-08-18T12:57:05Z</time>
      </trkpt>
      <trkpt lat="48.83909" lon="1.764">
        <ele>93.03</ele>
        <time>2019-08-18T12:57:19Z</time>
      </trkpt>
      <trkpt lat="48.83905" lon="1.76406">
        <ele>93.18</ele>
        <time>2019-08-18T12:57:25Z</time>
      </trkpt>
      <trkpt lat="48.83897" lon="1.76429">
        <ele>92.67</ele>
        <time>2019-08-18T12:57:41Z</time>
      </trkpt>
      <trkpt lat="48.83886" lon="1.7645">
        <ele>93.14</ele>
        <time>2019-08-18T12:57:57Z</time>
      </trkpt>
      <trkpt lat="48.83882" lon="1.76457">
        <ele>93.58</ele>
        <time>2019-08-18T12:58:09Z</time>
      </trkpt>
      <trkpt lat="48.83874" lon="1.76474">
        <ele>93.28</ele>
        <time>2019-08-18T12:58:22Z</time>
      </trkpt>
      <trkpt lat="48.83866" lon="1.76488">
        <ele>93.34</ele>
        <time>2019-08-18T12:58:34Z</time>
      </trkpt>
      <trkpt lat="48.83853" lon="1.7651">
        <ele>93.02</ele>
        <time>2019-08-18T12:58:52Z</time>
      </trkpt>
      <trkpt lat="48.83843" lon="1.7653">
        <ele>93.05</ele>
        <time>2019-08-18T12:59:08Z</time>
      </trkpt>
      <trkpt lat="48.83833" lon="1.7655">
        <ele>92.46</ele>
        <time>2019-08-18T12:59:24Z</time>
      </trkpt>
      <trkpt lat="48.83821" lon="1.7657">
        <ele>91.93</ele>
        <time>2019-08-18T12:59:39Z</time>
      </trkpt>
      <trkpt lat="48.83814" lon="1.76579">
        <ele>91.34</ele>
        <time>2019-08-18T12:59:46Z</time>
      </trkpt>
      <trkpt lat="48.83801" lon="1.76603">
        <ele>91.02</ele>
        <time>2019-08-18T13:00:04Z</time>
      </trkpt>
      <trkpt lat="48.83788" lon="1.76624">
        <ele>89.7</ele>
        <time>2019-08-18T13:00:20Z</time>
      </trkpt>
      <trkpt lat="48.83777" lon="1.76641">
        <ele>89.21</ele>
        <time>2019-08-18T13:00:33Z</time>
      </trkpt>
      <trkpt lat="48.83765" lon="1.76657">
        <ele>88.93</ele>
        <time>2019-08-18T13:00:46Z</time>
      </trkpt>
      <trkpt lat="48.83763" lon="1.76661">
        <ele>88.95</ele>
        <time>2019-08-18T13:00:49Z</time>
      </trkpt>
      <trkpt lat="48.83752" lon="1.76677">
        <ele>88.45</ele>
        <time>2019-08-18T13:01:03Z</time>
      </trkpt>
      <trkpt lat="48.83748" lon="1.76692">
        <ele>88.54</ele>
        <time>2019-08-18T13:01:19Z</time>
      </trkpt>
      <trkpt lat="48.83748" lon="1.76695">
        <ele>88.69</ele>
        <time>2019-08-18T13:01:40Z</time>
      </trkpt>
      <trkpt lat="48.83749" lon="1.76696">
        <ele>88.35</ele>
        <time>2019-08-18T13:02:00Z</time>
      </trkpt>
      <trkpt lat="48.83745" lon="1.76699">
        <ele>89.19</ele>
        <time>2019-08-18T13:02:24Z</time>
      </trkpt>
      <trkpt lat="48.83736" lon="1.76701">
        <ele>88.85</ele>
        <time>2019-08-18T13:02:38Z</time>
      </trkpt>
      <trkpt lat="48.83733" lon="1.76702">
        <ele>88.46</ele>
        <time>2019-08-18T13:02:41Z</time>
      </trkpt>
      <trkpt lat="48.8373" lon="1.76706">
        <ele>88.51</ele>
        <time>2019-08-18T13:02:45Z</time>
      </trkpt>
      <trkpt lat="48.83724" lon="1.76714">
        <ele>88.74</ele>
        <time>2019-08-18T13:02:56Z</time>
      </trkpt>
      <trkpt lat="48.83722" lon="1.76716">
        <ele>88.61</ele>
        <time>2019-08-18T13:02:58Z</time>
      </trkpt>
      <trkpt lat="48.83712" lon="1.76726">
        <ele>87.85</ele>
        <time>2019-08-18T13:03:12Z</time>
      </trkpt>
      <trkpt lat="48.83699" lon="1.76739">
        <ele>87.48</ele>
        <time>2019-08-18T13:03:27Z</time>
      </trkpt>
      <trkpt lat="48.83686" lon="1.76752">
        <ele>87.83</ele>
        <time>2019-08-18T13:03:42Z</time>
      </trkpt>
      <trkpt lat="48.83682" lon="1.76757">
        <ele>87.66</ele>
        <time>2019-08-18T13:03:48Z</time>
      </trkpt>
      <trkpt lat="48.8368" lon="1.76759">
        <ele>87.02</ele>
        <time>2019-08-18T13:03:50Z</time>
      </trkpt>
      <trkpt lat="48.83667" lon="1.76775">
        <ele>87.16</ele>
        <time>2019-08-18T13:04:06Z</time>
      </trkpt>
      <trkpt lat="48.83663" lon="1.76782">
        <ele>87.12</ele>
        <time>2019-08-18T13:04:13Z</time>
      </trkpt>
      <trkpt lat="48.83648" lon="1.76798">
        <ele>87.09</ele>
        <time>2019-08-18T13:04:29Z</time>
      </trkpt>
      <trkpt lat="48.8364" lon="1.76805">
        <ele>86.78</ele>
        <time>2019-08-18T13:04:39Z</time>
      </trkpt>
      <trkpt lat="48.83625" lon="1.76817">
        <ele>86.44</ele>
        <time>2019-08-18T13:04:56Z</time>
      </trkpt>
      <trkpt lat="48.83625" lon="1.76817">
        <ele>86.58</ele>
        <time>2019-08-18T13:04:57Z</time>
      </trkpt>
      <trkpt lat="48.83609" lon="1.76834">
        <ele>86.51</ele>
        <time>2019-08-18T13:05:16Z</time>
      </trkpt>
      <trkpt lat="48.83595" lon="1.76849">
        <ele>86.78</ele>
        <time>2019-08-18T13:05:33Z</time>
      </trkpt>
      <trkpt lat="48.83582" lon="1.76865">
        <ele>86.84</ele>
        <time>2019-08-18T13:05:48Z</time>
      </trkpt>
      <trkpt lat="48.83571" lon="1.76875">
        <ele>87.09</ele>
        <time>2019-08-18T13:06:02Z</time>
      </trkpt>
      <trkpt lat="48.83559" lon="1.76887">
        <ele>87.34</ele>
        <time>2019-08-18T13:06:17Z</time>
      </trkpt>
      <trkpt lat="48.83557" lon="1.76889">
        <ele>86.94</ele>
        <time>2019-08-18T13:06:20Z</time>
      </trkpt>
      <trkpt lat="48.83549" lon="1.76901">
        <ele>87.32</ele>
        <time>2019-08-18T13:06:30Z</time>
      </trkpt>
      <trkpt lat="48.83536" lon="1.76913">
        <ele>87.46</ele>
        <time>2019-08-18T13:06:45Z</time>
      </trkpt>
      <trkpt lat="48.83527" lon="1.76923">
        <ele>87.34</ele>
        <time>2019-08-18T13:06:57Z</time>
      </trkpt>
      <trkpt lat="48.83512" lon="1.76939">
        <ele>87.15</ele>
        <time>2019-08-18T13:07:14Z</time>
      </trkpt>
      <trkpt lat="48.835" lon="1.76952">
        <ele>87.36</ele>
        <time>2019-08-18T13:07:30Z</time>
      </trkpt>
      <trkpt lat="48.83488" lon="1.76965">
        <ele>87.37</ele>
        <time>2019-08-18T13:07:45Z</time>
      </trkpt>
      <trkpt lat="48.83473" lon="1.76981">
        <ele>87.23</ele>
        <time>2019-08-18T13:08:02Z</time>
      </trkpt>
      <trkpt lat="48.83471" lon="1.76984">
        <ele>87.2</ele>
        <time>2019-08-18T13:08:05Z</time>
      </trkpt>
      <trkpt lat="48.83458" lon="1.76996">
        <ele>86.22</ele>
        <time>2019-08-18T13:08:21Z</time>
      </trkpt>
      <trkpt lat="48.83448" lon="1.77007">
        <ele>86.2</ele>
        <time>2019-08-18T13:08:35Z</time>
      </trkpt>
      <trkpt lat="48.83439" lon="1.77021">
        <ele>86.87</ele>
        <time>2019-08-18T13:08:49Z</time>
      </trkpt>
      <trkpt lat="48.83438" lon="1.77022">
        <ele>86.52</ele>
        <time>2019-08-18T13:08:50Z</time>
      </trkpt>
      <trkpt lat="48.83433" lon="1.77031">
        <ele>86.22</ele>
        <time>2019-08-18T13:08:59Z</time>
      </trkpt>
      <trkpt lat="48.83418" lon="1.77051">
        <ele>87.27</ele>
        <time>2019-08-18T13:09:19Z</time>
      </trkpt>
      <trkpt lat="48.83407" lon="1.77064">
        <ele>85.95</ele>
        <time>2019-08-18T13:09:33Z</time>
      </trkpt>
      <trkpt lat="48.83398" lon="1.77074">
        <ele>86.99</ele>
        <time>2019-08-18T13:09:44Z</time>
      </trkpt>
      <trkpt lat="48.83385" lon="1.7709">
        <ele>86.7</ele>
        <time>2019-08-18T13:09:59Z</time>
      </trkpt>
      <trkpt lat="48.83371" lon="1.77109">
        <ele>87.03</ele>
        <time>2019-08-18T13:10:15Z</time>
      </trkpt>
      <trkpt lat="48.8336" lon="1.77125">
        <ele>87.28</ele>
        <time>2019-08-18T13:10:30Z</time>
      </trkpt>
      <trkpt lat="48.83347" lon="1.7714">
        <ele>87.29</ele>
        <time>2019-08-18T13:10:46Z</time>
      </trkpt>
      <trkpt lat="48.83335" lon="1.77157">
        <ele>87.44</ele>
        <time>2019-08-18T13:11:01Z</time>
      </trkpt>
      <trkpt lat="48.83322" lon="1.77173">
        <ele>87.61</ele>
        <time>2019-08-18T13:11:16Z</time>
      </trkpt>
      <trkpt lat="48.83309" lon="1.77192">
        <ele>87.46</ele>
        <time>2019-08-18T13:11:35Z</time>
      </trkpt>
      <trkpt lat="48.83299" lon="1.77206">
        <ele>87.95</ele>
        <time>2019-08-18T13:11:49Z</time>
      </trkpt>
      <trkpt lat="48.83288" lon="1.77219">
        <ele>87.9</ele>
        <time>2019-08-18T13:12:03Z</time>
      </trkpt>
      <trkpt lat="48.83278" lon="1.77234">
        <ele>88.67</ele>
        <time>2019-08-18T13:12:18Z</time>
      </trkpt>
      <trkpt lat="48.83279" lon="1.77234">
        <ele>88.59</ele>
        <time>2019-08-18T13:12:39Z</time>
      </trkpt>
      <trkpt lat="48.83278" lon="1.77237">
        <ele>88.6</ele>
        <time>2019-08-18T13:13:07Z</time>
      </trkpt>
      <trkpt lat="48.83277" lon="1.7724">
        <ele>88.75</ele>
        <time>2019-08-18T13:13:28Z</time>
      </trkpt>
      <trkpt lat="48.83273" lon="1.77244">
        <ele>88.62</ele>
        <time>2019-08-18T13:13:47Z</time>
      </trkpt>
      <trkpt lat="48.83269" lon="1.77251">
        <ele>89.08</ele>
        <time>2019-08-18T13:13:57Z</time>
      </trkpt>
      <trkpt lat="48.83264" lon="1.77258">
        <ele>88.97</ele>
        <time>2019-08-18T13:14:04Z</time>
      </trkpt>
      <trkpt lat="48.83255" lon="1.77279">
        <ele>89.13</ele>
        <time>2019-08-18T13:14:19Z</time>
      </trkpt>
      <trkpt lat="48.83255" lon="1.7728">
        <ele>89.2</ele>
        <time>2019-08-18T13:14:20Z</time>
      </trkpt>
      <trkpt lat="48.83245" lon="1.77301">
        <ele>89.12</ele>
        <time>2019-08-18T13:14:36Z</time>
      </trkpt>
      <trkpt lat="48.83242" lon="1.77308">
        <ele>88.97</ele>
        <time>2019-08-18T13:14:42Z</time>
      </trkpt>
      <trkpt lat="48.83231" lon="1.77328">
        <ele>89.23</ele>
        <time>2019-08-18T13:14:57Z</time>
      </trkpt>
      <trkpt lat="48.83216" lon="1.7735">
        <ele>89.47</ele>
        <time>2019-08-18T13:15:15Z</time>
      </trkpt>
      <trkpt lat="48.83204" lon="1.77367">
        <ele>89.8</ele>
        <time>2019-08-18T13:15:29Z</time>
      </trkpt>
      <trkpt lat="48.83202" lon="1.77369">
        <ele>89.64</ele>
        <time>2019-08-18T13:15:31Z</time>
      </trkpt>
      <trkpt lat="48.83188" lon="1.77386">
        <ele>90.13</ele>
        <time>2019-08-18T13:15:47Z</time>
      </trkpt>
      <trkpt lat="48.83176" lon="1.77398">
        <ele>90.57</ele>
        <time>2019-08-18T13:16:00Z</time>
      </trkpt>
      <trkpt lat="48.83158" lon="1.77414">
        <ele>90.17</ele>
        <time>2019-08-18T13:16:17Z</time>
      </trkpt>
      <trkpt lat="48.83147" lon="1.77424">
        <ele>90.38</ele>
        <time>2019-08-18T13:16:28Z</time>
      </trkpt>
      <trkpt lat="48.83142" lon="1.77429">
        <ele>90.3</ele>
        <time>2019-08-18T13:16:33Z</time>
      </trkpt>
      <trkpt lat="48.83132" lon="1.77437">
        <ele>91</ele>
        <time>2019-08-18T13:16:43Z</time>
      </trkpt>
      <trkpt lat="48.83119" lon="1.77448">
        <ele>91.61</ele>
        <time>2019-08-18T13:16:57Z</time>
      </trkpt>
      <trkpt lat="48.83105" lon="1.77457">
        <ele>92.3</ele>
        <time>2019-08-18T13:17:11Z</time>
      </trkpt>
      <trkpt lat="48.83101" lon="1.7746">
        <ele>92.3</ele>
        <time>2019-08-18T13:17:15Z</time>
      </trkpt>
      <trkpt lat="48.83097" lon="1.77462">
        <ele>92.33</ele>
        <time>2019-08-18T13:17:19Z</time>
      </trkpt>
      <trkpt lat="48.83081" lon="1.77471">
        <ele>91.54</ele>
        <time>2019-08-18T13:17:33Z</time>
      </trkpt>
      <trkpt lat="48.83064" lon="1.77482">
        <ele>92.86</ele>
        <time>2019-08-18T13:17:48Z</time>
      </trkpt>
      <trkpt lat="48.83044" lon="1.77492">
        <ele>92.04</ele>
        <time>2019-08-18T13:18:04Z</time>
      </trkpt>
      <trkpt lat="48.83024" lon="1.77502">
        <ele>92.18</ele>
        <time>2019-08-18T13:18:21Z</time>
      </trkpt>
      <trkpt lat="48.83007" lon="1.77511">
        <ele>93.2</ele>
        <time>2019-08-18T13:18:36Z</time>
      </trkpt>
      <trkpt lat="48.8299" lon="1.77523">
        <ele>92.33</ele>
        <time>2019-08-18T13:18:52Z</time>
      </trkpt>
      <trkpt lat="48.82975" lon="1.77531">
        <ele>93.42</ele>
        <time>2019-08-18T13:19:06Z</time>
      </trkpt>
      <trkpt lat="48.82958" lon="1.77541">
        <ele>93.27</ele>
        <time>2019-08-18T13:19:22Z</time>
      </trkpt>
      <trkpt lat="48.82947" lon="1.77547">
        <ele>93.88</ele>
        <time>2019-08-18T13:19:37Z</time>
      </trkpt>
      <trkpt lat="48.82944" lon="1.77549">
        <ele>93.85</ele>
        <time>2019-08-18T13:19:40Z</time>
      </trkpt>
      <trkpt lat="48.8294" lon="1.77551">
        <ele>94.82</ele>
        <time>2019-08-18T13:19:44Z</time>
      </trkpt>
      <trkpt lat="48.8292" lon="1.77561">
        <ele>94.92</ele>
        <time>2019-08-18T13:20:03Z</time>
      </trkpt>
      <trkpt lat="48.82902" lon="1.77569">
        <ele>94.83</ele>
        <time>2019-08-18T13:20:19Z</time>
      </trkpt>
      <trkpt lat="48.82884" lon="1.77575">
        <ele>94.09</ele>
        <time>2019-08-18T13:20:35Z</time>
      </trkpt>
      <trkpt lat="48.8287" lon="1.77577">
        <ele>94.04</ele>
        <time>2019-08-18T13:20:47Z</time>
      </trkpt>
      <trkpt lat="48.82853" lon="1.77582">
        <ele>93.46</ele>
        <time>2019-08-18T13:21:03Z</time>
      </trkpt>
      <trkpt lat="48.82836" lon="1.77585">
        <ele>93.14</ele>
        <time>2019-08-18T13:21:17Z</time>
      </trkpt>
      <trkpt lat="48.82819" lon="1.77589">
        <ele>92.38</ele>
        <time>2019-08-18T13:21:32Z</time>
      </trkpt>
      <trkpt lat="48.828" lon="1.77594">
        <ele>91.96</ele>
        <time>2019-08-18T13:21:49Z</time>
      </trkpt>
      <trkpt lat="48.82785" lon="1.77596">
        <ele>91.33</ele>
        <time>2019-08-18T13:22:02Z</time>
      </trkpt>
      <trkpt lat="48.8277" lon="1.776">
        <ele>91.19</ele>
        <time>2019-08-18T13:22:16Z</time>
      </trkpt>
      <trkpt lat="48.82764" lon="1.77601">
        <ele>90.61</ele>
        <time>2019-08-18T13:22:22Z</time>
      </trkpt>
      <trkpt lat="48.82743" lon="1.77605">
        <ele>90.72</ele>
        <time>2019-08-18T13:22:39Z</time>
      </trkpt>
      <trkpt lat="48.82729" lon="1.77607">
        <ele>90.08</ele>
        <time>2019-08-18T13:22:52Z</time>
      </trkpt>
      <trkpt lat="48.82712" lon="1.77606">
        <ele>89.42</ele>
        <time>2019-08-18T13:23:07Z</time>
      </trkpt>
      <trkpt lat="48.82698" lon="1.77603">
        <ele>88.53</ele>
        <time>2019-08-18T13:23:21Z</time>
      </trkpt>
      <trkpt lat="48.82693" lon="1.77601">
        <ele>88.49</ele>
        <time>2019-08-18T13:23:37Z</time>
      </trkpt>
      <trkpt lat="48.82693" lon="1.77601">
        <ele>88.26</ele>
        <time>2019-08-18T13:24:09Z</time>
      </trkpt>
      <trkpt lat="48.82693" lon="1.77601">
        <ele>88.05</ele>
        <time>2019-08-18T13:24:38Z</time>
      </trkpt>
      <trkpt lat="48.82692" lon="1.77602">
        <ele>87.61</ele>
        <time>2019-08-18T13:25:15Z</time>
      </trkpt>
      <trkpt lat="48.82692" lon="1.77603">
        <ele>88.35</ele>
        <time>2019-08-18T13:25:52Z</time>
      </trkpt>
      <trkpt lat="48.82692" lon="1.77603">
        <ele>88.15</ele>
        <time>2019-08-18T13:26:22Z</time>
      </trkpt>
      <trkpt lat="48.82693" lon="1.77603">
        <ele>88.51</ele>
        <time>2019-08-18T13:26:54Z</time>
      </trkpt>
      <trkpt lat="48.82691" lon="1.77604">
        <ele>88.82</ele>
        <time>2019-08-18T13:27:22Z</time>
      </trkpt>
      <trkpt lat="48.82692" lon="1.77603">
        <ele>88.46</ele>
        <time>2019-08-18T13:28:02Z</time>
      </trkpt>
      <trkpt lat="48.82693" lon="1.77601">
        <ele>88.61</ele>
        <time>2019-08-18T13:28:35Z</time>
      </trkpt>
      <trkpt lat="48.82693" lon="1.77601">
        <ele>88.65</ele>
        <time>2019-08-18T13:29:05Z</time>
      </trkpt>
      <trkpt lat="48.82689" lon="1.77603">
        <ele>88.27</ele>
        <time>2019-08-18T13:29:36Z</time>
      </trkpt>
      <trkpt lat="48.82687" lon="1.77602">
        <ele>88.47</ele>
        <time>2019-08-18T13:29:53Z</time>
      </trkpt>
      <trkpt lat="48.82679" lon="1.77598">
        <ele>88.22</ele>
        <time>2019-08-18T13:30:09Z</time>
      </trkpt>
      <trkpt lat="48.82665" lon="1.77603">
        <ele>86.79</ele>
        <time>2019-08-18T13:30:27Z</time>
      </trkpt>
      <trkpt lat="48.82662" lon="1.77605">
        <ele>86.92</ele>
        <time>2019-08-18T13:30:31Z</time>
      </trkpt>
      <trkpt lat="48.82658" lon="1.77605">
        <ele>86.33</ele>
        <time>2019-08-18T13:30:34Z</time>
      </trkpt>
      <trkpt lat="48.82654" lon="1.77606">
        <ele>85.74</ele>
        <time>2019-08-18T13:30:38Z</time>
      </trkpt>
      <trkpt lat="48.82652" lon="1.77605">
        <ele>85.56</ele>
        <time>2019-08-18T13:30:40Z</time>
      </trkpt>
      <trkpt lat="48.8264" lon="1.7761">
        <ele>84.1</ele>
        <time>2019-08-18T13:30:49Z</time>
      </trkpt>
      <trkpt lat="48.82626" lon="1.77621">
        <ele>83.06</ele>
        <time>2019-08-18T13:31:05Z</time>
      </trkpt>
      <trkpt lat="48.82622" lon="1.77626">
        <ele>82.86</ele>
        <time>2019-08-18T13:31:10Z</time>
      </trkpt>
      <trkpt lat="48.82608" lon="1.77645">
        <ele>82.39</ele>
        <time>2019-08-18T13:31:26Z</time>
      </trkpt>
      <trkpt lat="48.82607" lon="1.77646">
        <ele>82.42</ele>
        <time>2019-08-18T13:31:27Z</time>
      </trkpt>
      <trkpt lat="48.82594" lon="1.77666">
        <ele>81.61</ele>
        <time>2019-08-18T13:31:42Z</time>
      </trkpt>
      <trkpt lat="48.82585" lon="1.77682">
        <ele>81.58</ele>
        <time>2019-08-18T13:31:56Z</time>
      </trkpt>
      <trkpt lat="48.82578" lon="1.77702">
        <ele>81.27</ele>
        <time>2019-08-18T13:32:09Z</time>
      </trkpt>
      <trkpt lat="48.82568" lon="1.77725">
        <ele>81.14</ele>
        <time>2019-08-18T13:32:25Z</time>
      </trkpt>
      <trkpt lat="48.8256" lon="1.77743">
        <ele>80.72</ele>
        <time>2019-08-18T13:32:38Z</time>
      </trkpt>
      <trkpt lat="48.8255" lon="1.77757">
        <ele>81.45</ele>
        <time>2019-08-18T13:32:53Z</time>
      </trkpt>
      <trkpt lat="48.82548" lon="1.77762">
        <ele>80.95</ele>
        <time>2019-08-18T13:32:57Z</time>
      </trkpt>
      <trkpt lat="48.82539" lon="1.77783">
        <ele>81.16</ele>
        <time>2019-08-18T13:33:13Z</time>
      </trkpt>
      <trkpt lat="48.82527" lon="1.77798">
        <ele>80.31</ele>
        <time>2019-08-18T13:33:26Z</time>
      </trkpt>
      <trkpt lat="48.82511" lon="1.77807">
        <ele>80.46</ele>
        <time>2019-08-18T13:33:40Z</time>
      </trkpt>
      <trkpt lat="48.82497" lon="1.77812">
        <ele>80.86</ele>
        <time>2019-08-18T13:33:51Z</time>
      </trkpt>
      <trkpt lat="48.82488" lon="1.77817">
        <ele>80.98</ele>
        <time>2019-08-18T13:34:04Z</time>
      </trkpt>
      <trkpt lat="48.82481" lon="1.77819">
        <ele>80.8</ele>
        <time>2019-08-18T13:34:12Z</time>
      </trkpt>
      <trkpt lat="48.8246" lon="1.77814">
        <ele>80.98</ele>
        <time>2019-08-18T13:34:28Z</time>
      </trkpt>
      <trkpt lat="48.82455" lon="1.77814">
        <ele>80.96</ele>
        <time>2019-08-18T13:34:32Z</time>
      </trkpt>
      <trkpt lat="48.82434" lon="1.77812">
        <ele>80.94</ele>
        <time>2019-08-18T13:34:49Z</time>
      </trkpt>
      <trkpt lat="48.82416" lon="1.77814">
        <ele>81.11</ele>
        <time>2019-08-18T13:35:06Z</time>
      </trkpt>
      <trkpt lat="48.82401" lon="1.77817">
        <ele>82.4</ele>
        <time>2019-08-18T13:35:21Z</time>
      </trkpt>
      <trkpt lat="48.82382" lon="1.77825">
        <ele>82.62</ele>
        <time>2019-08-18T13:35:38Z</time>
      </trkpt>
      <trkpt lat="48.82369" lon="1.77831">
        <ele>83.71</ele>
        <time>2019-08-18T13:35:51Z</time>
      </trkpt>
      <trkpt lat="48.82353" lon="1.77843">
        <ele>85.12</ele>
        <time>2019-08-18T13:36:06Z</time>
      </trkpt>
      <trkpt lat="48.82335" lon="1.77852">
        <ele>85.97</ele>
        <time>2019-08-18T13:36:23Z</time>
      </trkpt>
      <trkpt lat="48.8232" lon="1.77864">
        <ele>87.17</ele>
        <time>2019-08-18T13:36:37Z</time>
      </trkpt>
      <trkpt lat="48.82307" lon="1.77872">
        <ele>88.35</ele>
        <time>2019-08-18T13:36:51Z</time>
      </trkpt>
      <trkpt lat="48.82297" lon="1.77875">
        <ele>88.22</ele>
        <time>2019-08-18T13:37:06Z</time>
      </trkpt>
      <trkpt lat="48.82297" lon="1.77878">
        <ele>88.19</ele>
        <time>2019-08-18T13:37:08Z</time>
      </trkpt>
      <trkpt lat="48.82298" lon="1.77893">
        <ele>88.9</ele>
        <time>2019-08-18T13:37:18Z</time>
      </trkpt>
      <trkpt lat="48.82294" lon="1.77897">
        <ele>88.75</ele>
        <time>2019-08-18T13:37:36Z</time>
      </trkpt>
      <trkpt lat="48.82294" lon="1.77898">
        <ele>89.82</ele>
        <time>2019-08-18T13:38:01Z</time>
      </trkpt>
      <trkpt lat="48.8229" lon="1.77893">
        <ele>89.1</ele>
        <time>2019-08-18T13:38:16Z</time>
      </trkpt>
      <trkpt lat="48.8229" lon="1.77899">
        <ele>89.33</ele>
        <time>2019-08-18T13:38:44Z</time>
      </trkpt>
      <trkpt lat="48.82287" lon="1.77899">
        <ele>87.68</ele>
        <time>2019-08-18T13:39:01Z</time>
      </trkpt>
      <trkpt lat="48.82284" lon="1.77897">
        <ele>87.85</ele>
        <time>2019-08-18T13:39:05Z</time>
      </trkpt>
      <trkpt lat="48.82281" lon="1.77897">
        <ele>88.45</ele>
        <time>2019-08-18T13:39:09Z</time>
      </trkpt>
      <trkpt lat="48.82268" lon="1.77904">
        <ele>89.97</ele>
        <time>2019-08-18T13:39:26Z</time>
      </trkpt>
      <trkpt lat="48.82262" lon="1.77908">
        <ele>90.46</ele>
        <time>2019-08-18T13:39:32Z</time>
      </trkpt>
      <trkpt lat="48.82259" lon="1.7791">
        <ele>90.64</ele>
        <time>2019-08-18T13:39:35Z</time>
      </trkpt>
      <trkpt lat="48.82256" lon="1.77913">
        <ele>90.93</ele>
        <time>2019-08-18T13:39:39Z</time>
      </trkpt>
      <trkpt lat="48.82247" lon="1.7792">
        <ele>90.34</ele>
        <time>2019-08-18T13:39:47Z</time>
      </trkpt>
      <trkpt lat="48.82235" lon="1.7793">
        <ele>91.54</ele>
        <time>2019-08-18T13:40:00Z</time>
      </trkpt>
      <trkpt lat="48.8223" lon="1.77931">
        <ele>92.19</ele>
        <time>2019-08-18T13:40:18Z</time>
      </trkpt>
      <trkpt lat="48.82219" lon="1.7794">
        <ele>93.35</ele>
        <time>2019-08-18T13:40:32Z</time>
      </trkpt>
      <trkpt lat="48.82218" lon="1.77941">
        <ele>93.57</ele>
        <time>2019-08-18T13:40:33Z</time>
      </trkpt>
      <trkpt lat="48.82205" lon="1.7795">
        <ele>94.11</ele>
        <time>2019-08-18T13:40:48Z</time>
      </trkpt>
      <trkpt lat="48.82189" lon="1.77958">
        <ele>95.52</ele>
        <time>2019-08-18T13:41:03Z</time>
      </trkpt>
      <trkpt lat="48.82187" lon="1.7796">
        <ele>96.53</ele>
        <time>2019-08-18T13:41:05Z</time>
      </trkpt>
      <trkpt lat="48.82171" lon="1.77966">
        <ele>95.4</ele>
        <time>2019-08-18T13:41:20Z</time>
      </trkpt>
      <trkpt lat="48.82161" lon="1.77972">
        <ele>95.86</ele>
        <time>2019-08-18T13:41:34Z</time>
      </trkpt>
      <trkpt lat="48.82151" lon="1.77978">
        <ele>95.59</ele>
        <time>2019-08-18T13:41:48Z</time>
      </trkpt>
      <trkpt lat="48.82148" lon="1.7798">
        <ele>96.3</ele>
        <time>2019-08-18T13:41:51Z</time>
      </trkpt>
      <trkpt lat="48.82125" lon="1.77987">
        <ele>97.1</ele>
        <time>2019-08-18T13:42:10Z</time>
      </trkpt>
      <trkpt lat="48.82108" lon="1.77992">
        <ele>97.7</ele>
        <time>2019-08-18T13:42:24Z</time>
      </trkpt>
      <trkpt lat="48.8209" lon="1.77996">
        <ele>97.82</ele>
        <time>2019-08-18T13:42:39Z</time>
      </trkpt>
      <trkpt lat="48.82078" lon="1.77997">
        <ele>98.55</ele>
        <time>2019-08-18T13:42:49Z</time>
      </trkpt>
      <trkpt lat="48.82058" lon="1.78002">
        <ele>97.77</ele>
        <time>2019-08-18T13:43:05Z</time>
      </trkpt>
      <trkpt lat="48.82039" lon="1.78006">
        <ele>97.12</ele>
        <time>2019-08-18T13:43:21Z</time>
      </trkpt>
      <trkpt lat="48.82017" lon="1.78012">
        <ele>96.64</ele>
        <time>2019-08-18T13:43:40Z</time>
      </trkpt>
      <trkpt lat="48.81998" lon="1.78012">
        <ele>95.96</ele>
        <time>2019-08-18T13:43:56Z</time>
      </trkpt>
      <trkpt lat="48.81992" lon="1.78014">
        <ele>96.09</ele>
        <time>2019-08-18T13:44:01Z</time>
      </trkpt>
      <trkpt lat="48.81989" lon="1.78016">
        <ele>96.47</ele>
        <time>2019-08-18T13:44:04Z</time>
      </trkpt>
      <trkpt lat="48.81978" lon="1.7802">
        <ele>95.21</ele>
        <time>2019-08-18T13:44:17Z</time>
      </trkpt>
      <trkpt lat="48.81959" lon="1.78027">
        <ele>94.38</ele>
        <time>2019-08-18T13:44:34Z</time>
      </trkpt>
      <trkpt lat="48.81936" lon="1.78033">
        <ele>91.97</ele>
        <time>2019-08-18T13:44:53Z</time>
      </trkpt>
      <trkpt lat="48.81923" lon="1.78034">
        <ele>91.39</ele>
        <time>2019-08-18T13:45:09Z</time>
      </trkpt>
      <trkpt lat="48.81918" lon="1.78035">
        <ele>91.58</ele>
        <time>2019-08-18T13:45:13Z</time>
      </trkpt>
      <trkpt lat="48.81903" lon="1.78041">
        <ele>90.88</ele>
        <time>2019-08-18T13:45:27Z</time>
      </trkpt>
      <trkpt lat="48.81893" lon="1.78048">
        <ele>90.17</ele>
        <time>2019-08-18T13:45:37Z</time>
      </trkpt>
      <trkpt lat="48.81884" lon="1.78056">
        <ele>89.34</ele>
        <time>2019-08-18T13:45:50Z</time>
      </trkpt>
      <trkpt lat="48.81879" lon="1.7806">
        <ele>89.64</ele>
        <time>2019-08-18T13:45:54Z</time>
      </trkpt>
      <trkpt lat="48.81862" lon="1.7807">
        <ele>89.71</ele>
        <time>2019-08-18T13:46:09Z</time>
      </trkpt>
      <trkpt lat="48.81844" lon="1.78081">
        <ele>87.95</ele>
        <time>2019-08-18T13:46:26Z</time>
      </trkpt>
      <trkpt lat="48.81828" lon="1.78087">
        <ele>88.47</ele>
        <time>2019-08-18T13:46:40Z</time>
      </trkpt>
      <trkpt lat="48.81807" lon="1.78093">
        <ele>87.68</ele>
        <time>2019-08-18T13:46:57Z</time>
      </trkpt>
      <trkpt lat="48.81804" lon="1.78094">
        <ele>87.52</ele>
        <time>2019-08-18T13:46:59Z</time>
      </trkpt>
      <trkpt lat="48.81796" lon="1.78096">
        <ele>87.27</ele>
        <time>2019-08-18T13:47:06Z</time>
      </trkpt>
      <trkpt lat="48.81788" lon="1.78098">
        <ele>87.24</ele>
        <time>2019-08-18T13:47:13Z</time>
      </trkpt>
      <trkpt lat="48.81771" lon="1.78101">
        <ele>87</ele>
        <time>2019-08-18T13:47:28Z</time>
      </trkpt>
      <trkpt lat="48.81762" lon="1.78102">
        <ele>86.92</ele>
        <time>2019-08-18T13:47:36Z</time>
      </trkpt>
      <trkpt lat="48.81749" lon="1.78104">
        <ele>86.69</ele>
        <time>2019-08-18T13:47:50Z</time>
      </trkpt>
      <trkpt lat="48.81746" lon="1.78105">
        <ele>86.7</ele>
        <time>2019-08-18T13:47:53Z</time>
      </trkpt>
      <trkpt lat="48.81737" lon="1.78104">
        <ele>86.25</ele>
        <time>2019-08-18T13:48:01Z</time>
      </trkpt>
      <trkpt lat="48.81736" lon="1.78104">
        <ele>86.41</ele>
        <time>2019-08-18T13:48:02Z</time>
      </trkpt>
      <trkpt lat="48.81719" lon="1.78104">
        <ele>86.3</ele>
        <time>2019-08-18T13:48:18Z</time>
      </trkpt>
      <trkpt lat="48.81706" lon="1.78103">
        <ele>86.65</ele>
        <time>2019-08-18T13:48:30Z</time>
      </trkpt>
      <trkpt lat="48.81694" lon="1.78107">
        <ele>86.95</ele>
        <time>2019-08-18T13:48:43Z</time>
      </trkpt>
      <trkpt lat="48.81677" lon="1.78108">
        <ele>87.19</ele>
        <time>2019-08-18T13:48:59Z</time>
      </trkpt>
      <trkpt lat="48.81662" lon="1.78109">
        <ele>87.66</ele>
        <time>2019-08-18T13:49:14Z</time>
      </trkpt>
      <trkpt lat="48.81649" lon="1.78112">
        <ele>87.33</ele>
        <time>2019-08-18T13:49:28Z</time>
      </trkpt>
      <trkpt lat="48.81648" lon="1.7811">
        <ele>88.61</ele>
        <time>2019-08-18T13:49:51Z</time>
      </trkpt>
      <trkpt lat="48.81649" lon="1.78107">
        <ele>87.98</ele>
        <time>2019-08-18T13:50:11Z</time>
      </trkpt>
      <trkpt lat="48.81645" lon="1.78109">
        <ele>88.65</ele>
        <time>2019-08-18T13:50:35Z</time>
      </trkpt>
      <trkpt lat="48.81645" lon="1.78113">
        <ele>88.9</ele>
        <time>2019-08-18T13:50:57Z</time>
      </trkpt>
      <trkpt lat="48.81647" lon="1.78119">
        <ele>88.99</ele>
        <time>2019-08-18T13:51:17Z</time>
      </trkpt>
      <trkpt lat="48.81649" lon="1.78119">
        <ele>89.04</ele>
        <time>2019-08-18T13:52:02Z</time>
      </trkpt>
      <trkpt lat="48.8165" lon="1.78121">
        <ele>88.92</ele>
        <time>2019-08-18T13:52:38Z</time>
      </trkpt>
      <trkpt lat="48.8165" lon="1.78118">
        <ele>89.28</ele>
        <time>2019-08-18T13:53:02Z</time>
      </trkpt>
      <trkpt lat="48.81641" lon="1.78106">
        <ele>88.58</ele>
        <time>2019-08-18T13:53:14Z</time>
      </trkpt>
      <trkpt lat="48.81631" lon="1.78081">
        <ele>88.95</ele>
        <time>2019-08-18T13:53:31Z</time>
      </trkpt>
      <trkpt lat="48.81622" lon="1.78058">
        <ele>89.12</ele>
        <time>2019-08-18T13:53:47Z</time>
      </trkpt>
      <trkpt lat="48.81614" lon="1.78032">
        <ele>89.8</ele>
        <time>2019-08-18T13:54:04Z</time>
      </trkpt>
      <trkpt lat="48.81608" lon="1.78015">
        <ele>90.28</ele>
        <time>2019-08-18T13:54:16Z</time>
      </trkpt>
      <trkpt lat="48.816" lon="1.77996">
        <ele>90.78</ele>
        <time>2019-08-18T13:54:30Z</time>
      </trkpt>
      <trkpt lat="48.81597" lon="1.7799">
        <ele>91.03</ele>
        <time>2019-08-18T13:54:35Z</time>
      </trkpt>
      <trkpt lat="48.81597" lon="1.77985">
        <ele>90.65</ele>
        <time>2019-08-18T13:54:38Z</time>
      </trkpt>
      <trkpt lat="48.81587" lon="1.77959">
        <ele>90.98</ele>
        <time>2019-08-18T13:54:57Z</time>
      </trkpt>
      <trkpt lat="48.81579" lon="1.77939">
        <ele>91.48</ele>
        <time>2019-08-18T13:55:12Z</time>
      </trkpt>
      <trkpt lat="48.81572" lon="1.77921">
        <ele>91.93</ele>
        <time>2019-08-18T13:55:26Z</time>
      </trkpt>
      <trkpt lat="48.8157" lon="1.77915">
        <ele>91.69</ele>
        <time>2019-08-18T13:55:31Z</time>
      </trkpt>
      <trkpt lat="48.81569" lon="1.77912">
        <ele>92.35</ele>
        <time>2019-08-18T13:55:33Z</time>
      </trkpt>
      <trkpt lat="48.81559" lon="1.77888">
        <ele>91.39</ele>
        <time>2019-08-18T13:55:51Z</time>
      </trkpt>
      <trkpt lat="48.81551" lon="1.77868">
        <ele>92.65</ele>
        <time>2019-08-18T13:56:07Z</time>
      </trkpt>
      <trkpt lat="48.8155" lon="1.77864">
        <ele>92.47</ele>
        <time>2019-08-18T13:56:09Z</time>
      </trkpt>
      <trkpt lat="48.81547" lon="1.77854">
        <ele>92.61</ele>
        <time>2019-08-18T13:56:17Z</time>
      </trkpt>
      <trkpt lat="48.81544" lon="1.77845">
        <ele>92.73</ele>
        <time>2019-08-18T13:56:23Z</time>
      </trkpt>
      <trkpt lat="48.81541" lon="1.77835">
        <ele>92.73</ele>
        <time>2019-08-18T13:56:32Z</time>
      </trkpt>
      <trkpt lat="48.81539" lon="1.77829">
        <ele>92.57</ele>
        <time>2019-08-18T13:56:38Z</time>
      </trkpt>
      <trkpt lat="48.81532" lon="1.77814">
        <ele>92.3</ele>
        <time>2019-08-18T13:56:49Z</time>
      </trkpt>
      <trkpt lat="48.81525" lon="1.77798">
        <ele>92.9</ele>
        <time>2019-08-18T13:57:03Z</time>
      </trkpt>
      <trkpt lat="48.81516" lon="1.77774">
        <ele>92.38</ele>
        <time>2019-08-18T13:57:19Z</time>
      </trkpt>
      <trkpt lat="48.81508" lon="1.77753">
        <ele>92.08</ele>
        <time>2019-08-18T13:57:33Z</time>
      </trkpt>
      <trkpt lat="48.81506" lon="1.77748">
        <ele>92.21</ele>
        <time>2019-08-18T13:57:36Z</time>
      </trkpt>
      <trkpt lat="48.81498" lon="1.77726">
        <ele>91.44</ele>
        <time>2019-08-18T13:57:50Z</time>
      </trkpt>
      <trkpt lat="48.8149" lon="1.77704">
        <ele>91.28</ele>
        <time>2019-08-18T13:58:05Z</time>
      </trkpt>
      <trkpt lat="48.81486" lon="1.77689">
        <ele>90.83</ele>
        <time>2019-08-18T13:58:14Z</time>
      </trkpt>
      <trkpt lat="48.8148" lon="1.77661">
        <ele>90.76</ele>
        <time>2019-08-18T13:58:32Z</time>
      </trkpt>
      <trkpt lat="48.81473" lon="1.77641">
        <ele>90.93</ele>
        <time>2019-08-18T13:58:46Z</time>
      </trkpt>
      <trkpt lat="48.81465" lon="1.77615">
        <ele>91.03</ele>
        <time>2019-08-18T13:59:03Z</time>
      </trkpt>
      <trkpt lat="48.81457" lon="1.7759">
        <ele>91.98</ele>
        <time>2019-08-18T13:59:20Z</time>
      </trkpt>
      <trkpt lat="48.81448" lon="1.77565">
        <ele>91.94</ele>
        <time>2019-08-18T13:59:37Z</time>
      </trkpt>
      <trkpt lat="48.81444" lon="1.77553">
        <ele>92.32</ele>
        <time>2019-08-18T13:59:46Z</time>
      </trkpt>
      <trkpt lat="48.81443" lon="1.77548">
        <ele>92.39</ele>
        <time>2019-08-18T13:59:49Z</time>
      </trkpt>
      <trkpt lat="48.81433" lon="1.77519">
        <ele>92.68</ele>
        <time>2019-08-18T14:00:07Z</time>
      </trkpt>
      <trkpt lat="48.81424" lon="1.77492">
        <ele>93.15</ele>
        <time>2019-08-18T14:00:25Z</time>
      </trkpt>
      <trkpt lat="48.81416" lon="1.77467">
        <ele>93.75</ele>
        <time>2019-08-18T14:00:42Z</time>
      </trkpt>
      <trkpt lat="48.81407" lon="1.77444">
        <ele>93.44</ele>
        <time>2019-08-18T14:00:57Z</time>
      </trkpt>
      <trkpt lat="48.81399" lon="1.77422">
        <ele>93.87</ele>
        <time>2019-08-18T14:01:12Z</time>
      </trkpt>
      <trkpt lat="48.8139" lon="1.77401">
        <ele>94.6</ele>
        <time>2019-08-18T14:01:28Z</time>
      </trkpt>
      <trkpt lat="48.8138" lon="1.77379">
        <ele>94.61</ele>
        <time>2019-08-18T14:01:44Z</time>
      </trkpt>
      <trkpt lat="48.81368" lon="1.77361">
        <ele>94.88</ele>
        <time>2019-08-18T14:01:59Z</time>
      </trkpt>
      <trkpt lat="48.81354" lon="1.77341">
        <ele>94.63</ele>
        <time>2019-08-18T14:02:16Z</time>
      </trkpt>
      <trkpt lat="48.8134" lon="1.77327">
        <ele>95.41</ele>
        <time>2019-08-18T14:02:32Z</time>
      </trkpt>
      <trkpt lat="48.81326" lon="1.77315">
        <ele>96.34</ele>
        <time>2019-08-18T14:02:48Z</time>
      </trkpt>
      <trkpt lat="48.81308" lon="1.77302">
        <ele>96.41</ele>
        <time>2019-08-18T14:03:06Z</time>
      </trkpt>
      <trkpt lat="48.81293" lon="1.77294">
        <ele>96.06</ele>
        <time>2019-08-18T14:03:21Z</time>
      </trkpt>
      <trkpt lat="48.81276" lon="1.77285">
        <ele>97</ele>
        <time>2019-08-18T14:03:37Z</time>
      </trkpt>
      <trkpt lat="48.81271" lon="1.77282">
        <ele>97.08</ele>
        <time>2019-08-18T14:03:42Z</time>
      </trkpt>
      <trkpt lat="48.81269" lon="1.7728">
        <ele>97.37</ele>
        <time>2019-08-18T14:03:44Z</time>
      </trkpt>
      <trkpt lat="48.81259" lon="1.77275">
        <ele>97.86</ele>
        <time>2019-08-18T14:03:55Z</time>
      </trkpt>
      <trkpt lat="48.81245" lon="1.77271">
        <ele>98.02</ele>
        <time>2019-08-18T14:04:09Z</time>
      </trkpt>
      <trkpt lat="48.81205" lon="1.77255">
        <ele>100.08</ele>
        <time>2019-08-18T14:04:54Z</time>
      </trkpt>
      <trkpt lat="48.81204" lon="1.77255">
        <ele>100.04</ele>
        <time>2019-08-18T14:04:55Z</time>
      </trkpt>
      <trkpt lat="48.81197" lon="1.77255">
        <ele>100.48</ele>
        <time>2019-08-18T14:05:01Z</time>
      </trkpt>
      <trkpt lat="48.81179" lon="1.77244">
        <ele>100.67</ele>
        <time>2019-08-18T14:05:16Z</time>
      </trkpt>
      <trkpt lat="48.81165" lon="1.77231">
        <ele>100.53</ele>
        <time>2019-08-18T14:05:33Z</time>
      </trkpt>
      <trkpt lat="48.81149" lon="1.77213">
        <ele>101.47</ele>
        <time>2019-08-18T14:05:51Z</time>
      </trkpt>
      <trkpt lat="48.81136" lon="1.77197">
        <ele>101.48</ele>
        <time>2019-08-18T14:06:06Z</time>
      </trkpt>
      <trkpt lat="48.81122" lon="1.77181">
        <ele>102.65</ele>
        <time>2019-08-18T14:06:23Z</time>
      </trkpt>
      <trkpt lat="48.81108" lon="1.77165">
        <ele>103.19</ele>
        <time>2019-08-18T14:06:41Z</time>
      </trkpt>
      <trkpt lat="48.81096" lon="1.77152">
        <ele>103.82</ele>
        <time>2019-08-18T14:06:56Z</time>
      </trkpt>
      <trkpt lat="48.81081" lon="1.77136">
        <ele>104.79</ele>
        <time>2019-08-18T14:07:13Z</time>
      </trkpt>
      <trkpt lat="48.81066" lon="1.77119">
        <ele>104.85</ele>
        <time>2019-08-18T14:07:30Z</time>
      </trkpt>
      <trkpt lat="48.81051" lon="1.77102">
        <ele>105.4</ele>
        <time>2019-08-18T14:07:48Z</time>
      </trkpt>
      <trkpt lat="48.81036" lon="1.77084">
        <ele>105.98</ele>
        <time>2019-08-18T14:08:05Z</time>
      </trkpt>
      <trkpt lat="48.81022" lon="1.7707">
        <ele>106.39</ele>
        <time>2019-08-18T14:08:21Z</time>
      </trkpt>
      <trkpt lat="48.81004" lon="1.77049">
        <ele>107.65</ele>
        <time>2019-08-18T14:08:41Z</time>
      </trkpt>
      <trkpt lat="48.8099" lon="1.77033">
        <ele>108.28</ele>
        <time>2019-08-18T14:08:58Z</time>
      </trkpt>
      <trkpt lat="48.8098" lon="1.77012">
        <ele>109.33</ele>
        <time>2019-08-18T14:09:16Z</time>
      </trkpt>
      <trkpt lat="48.80978" lon="1.76998">
        <ele>110.56</ele>
        <time>2019-08-18T14:09:29Z</time>
      </trkpt>
      <trkpt lat="48.80978" lon="1.76988">
        <ele>110.19</ele>
        <time>2019-08-18T14:09:36Z</time>
      </trkpt>
      <trkpt lat="48.80981" lon="1.76963">
        <ele>110.99</ele>
        <time>2019-08-18T14:09:52Z</time>
      </trkpt>
      <trkpt lat="48.80985" lon="1.76935">
        <ele>111.37</ele>
        <time>2019-08-18T14:10:08Z</time>
      </trkpt>
      <trkpt lat="48.80986" lon="1.76931">
        <ele>111.63</ele>
        <time>2019-08-18T14:10:11Z</time>
      </trkpt>
      <trkpt lat="48.80988" lon="1.7692">
        <ele>112.13</ele>
        <time>2019-08-18T14:10:18Z</time>
      </trkpt>
      <trkpt lat="48.80991" lon="1.76907">
        <ele>112.21</ele>
        <time>2019-08-18T14:10:26Z</time>
      </trkpt>
      <trkpt lat="48.80992" lon="1.76903">
        <ele>112</ele>
        <time>2019-08-18T14:10:29Z</time>
      </trkpt>
      <trkpt lat="48.80998" lon="1.76871">
        <ele>112.21</ele>
        <time>2019-08-18T14:10:47Z</time>
      </trkpt>
      <trkpt lat="48.81003" lon="1.7684">
        <ele>112.6</ele>
        <time>2019-08-18T14:11:05Z</time>
      </trkpt>
      <trkpt lat="48.81009" lon="1.76812">
        <ele>113.05</ele>
        <time>2019-08-18T14:11:21Z</time>
      </trkpt>
      <trkpt lat="48.81011" lon="1.76801">
        <ele>113.35</ele>
        <time>2019-08-18T14:11:28Z</time>
      </trkpt>
      <trkpt lat="48.81016" lon="1.76777">
        <ele>113.92</ele>
        <time>2019-08-18T14:11:44Z</time>
      </trkpt>
      <trkpt lat="48.81019" lon="1.76764">
        <ele>113.24</ele>
        <time>2019-08-18T14:11:56Z</time>
      </trkpt>
      <trkpt lat="48.81019" lon="1.76759">
        <ele>112.63</ele>
        <time>2019-08-18T14:11:59Z</time>
      </trkpt>
      <trkpt lat="48.81026" lon="1.76736">
        <ele>113.37</ele>
        <time>2019-08-18T14:12:14Z</time>
      </trkpt>
      <trkpt lat="48.8103" lon="1.76722">
        <ele>112.76</ele>
        <time>2019-08-18T14:12:24Z</time>
      </trkpt>
      <trkpt lat="48.81038" lon="1.76692">
        <ele>113.77</ele>
        <time>2019-08-18T14:12:41Z</time>
      </trkpt>
      <trkpt lat="48.81042" lon="1.76668">
        <ele>113.19</ele>
        <time>2019-08-18T14:12:56Z</time>
      </trkpt>
      <trkpt lat="48.81044" lon="1.76665">
        <ele>113.78</ele>
        <time>2019-08-18T14:12:59Z</time>
      </trkpt>
      <trkpt lat="48.81057" lon="1.76657">
        <ele>113.65</ele>
        <time>2019-08-18T14:13:14Z</time>
      </trkpt>
      <trkpt lat="48.81074" lon="1.76639">
        <ele>113.11</ele>
        <time>2019-08-18T14:13:32Z</time>
      </trkpt>
      <trkpt lat="48.81076" lon="1.76632">
        <ele>113.14</ele>
        <time>2019-08-18T14:13:37Z</time>
      </trkpt>
      <trkpt lat="48.8108" lon="1.76624">
        <ele>113.23</ele>
        <time>2019-08-18T14:13:43Z</time>
      </trkpt>
      <trkpt lat="48.81081" lon="1.7662">
        <ele>113.25</ele>
        <time>2019-08-18T14:13:46Z</time>
      </trkpt>
      <trkpt lat="48.81085" lon="1.7659">
        <ele>113.19</ele>
        <time>2019-08-18T14:14:03Z</time>
      </trkpt>
      <trkpt lat="48.81087" lon="1.76572">
        <ele>113</ele>
        <time>2019-08-18T14:14:16Z</time>
      </trkpt>
      <trkpt lat="48.81083" lon="1.76563">
        <ele>112.71</ele>
        <time>2019-08-18T14:14:32Z</time>
      </trkpt>
      <trkpt lat="48.81081" lon="1.76539">
        <ele>113.59</ele>
        <time>2019-08-18T14:14:48Z</time>
      </trkpt>
      <trkpt lat="48.81077" lon="1.76533">
        <ele>113.39</ele>
        <time>2019-08-18T14:14:54Z</time>
      </trkpt>
      <trkpt lat="48.81076" lon="1.7653">
        <ele>113.51</ele>
        <time>2019-08-18T14:14:56Z</time>
      </trkpt>
      <trkpt lat="48.81062" lon="1.76509">
        <ele>113.37</ele>
        <time>2019-08-18T14:15:13Z</time>
      </trkpt>
      <trkpt lat="48.81056" lon="1.76495">
        <ele>113.26</ele>
        <time>2019-08-18T14:15:31Z</time>
      </trkpt>
      <trkpt lat="48.81055" lon="1.76493">
        <ele>113.4</ele>
        <time>2019-08-18T14:15:59Z</time>
      </trkpt>
      <trkpt lat="48.81056" lon="1.76493">
        <ele>113.1</ele>
        <time>2019-08-18T14:16:23Z</time>
      </trkpt>
      <trkpt lat="48.81055" lon="1.76495">
        <ele>112.91</ele>
        <time>2019-08-18T14:16:47Z</time>
      </trkpt>
      <trkpt lat="48.81053" lon="1.76496">
        <ele>113.21</ele>
        <time>2019-08-18T14:17:14Z</time>
      </trkpt>
      <trkpt lat="48.81053" lon="1.76495">
        <ele>112.89</ele>
        <time>2019-08-18T14:17:36Z</time>
      </trkpt>
    </trkseg>
  </trk>
</gpx>